<?xml version="1.0" encoding="UTF-8" standalone="no" ?>
<gpx xmlns="http://www.topografix.com/GPX/1/1" xmlns:xsi="http://www.w3.org/2001/XMLSchema-instance" xsi:schemaLocation="http://www.topografix.com/GPX/1/1 http://www.topografix.com/GPX/1/1/gpx.xsd" version="1.1" creator="VisuGPX - https://www.visugpx.com">
  <metadata>
    <name>Circuit Bois de Cergy</name>
    <desc><![CDATA[Sur la trace du circuit des 24 h VTT de Cergy et petit tour vers les étangs]]></desc>
  </metadata>
  <trk>
    <name><![CDATA[Track 003]]></name>
    <desc><![CDATA[3 sept. 2012  2:31 pm]]></desc>
    <trkseg>
      <trkpt lat="49.02733" lon="2.07704">
        <ele>52.195</ele>
        <time>2012-09-03T12:39:20.140Z</time>
      </trkpt>
      <trkpt lat="49.02729" lon="2.07717">
        <ele>43.892</ele>
        <time>2012-09-03T12:39:23.137Z</time>
      </trkpt>
      <trkpt lat="49.02729" lon="2.07717">
        <ele>35.385</ele>
        <time>2012-09-03T12:39:24.141Z</time>
      </trkpt>
      <trkpt lat="49.02729" lon="2.07717">
        <ele>31.354</ele>
        <time>2012-09-03T12:39:24.241Z</time>
      </trkpt>
      <trkpt lat="49.0272" lon="2.07748">
        <ele>31.159</ele>
        <time>2012-09-03T12:39:35.491Z</time>
      </trkpt>
      <trkpt lat="49.02714" lon="2.07763">
        <ele>32.922</ele>
        <time>2012-09-03T12:39:40.170Z</time>
      </trkpt>
      <trkpt lat="49.0271" lon="2.07778">
        <ele>34.716</ele>
        <time>2012-09-03T12:39:44.446Z</time>
      </trkpt>
      <trkpt lat="49.02705" lon="2.07793">
        <ele>35.562</ele>
        <time>2012-09-03T12:39:48.349Z</time>
      </trkpt>
      <trkpt lat="49.02701" lon="2.07816">
        <ele>35.552</ele>
        <time>2012-09-03T12:39:52.867Z</time>
      </trkpt>
      <trkpt lat="49.02695" lon="2.07836">
        <ele>34.638</ele>
        <time>2012-09-03T12:39:56.062Z</time>
      </trkpt>
      <trkpt lat="49.0269" lon="2.0785">
        <ele>32.637</ele>
        <time>2012-09-03T12:39:58.166Z</time>
      </trkpt>
      <trkpt lat="49.02681" lon="2.07876">
        <ele>29.795</ele>
        <time>2012-09-03T12:40:02.081Z</time>
      </trkpt>
      <trkpt lat="49.02676" lon="2.07891">
        <ele>26.907</ele>
        <time>2012-09-03T12:40:04.305Z</time>
      </trkpt>
      <trkpt lat="49.02665" lon="2.07918">
        <ele>24.875</ele>
        <time>2012-09-03T12:40:08.404Z</time>
      </trkpt>
      <trkpt lat="49.0266" lon="2.07932">
        <ele>23.893</ele>
        <time>2012-09-03T12:40:10.477Z</time>
      </trkpt>
      <trkpt lat="49.0265" lon="2.07956">
        <ele>23.478</ele>
        <time>2012-09-03T12:40:14.468Z</time>
      </trkpt>
      <trkpt lat="49.02645" lon="2.07975">
        <ele>23.169</ele>
        <time>2012-09-03T12:40:17.592Z</time>
      </trkpt>
      <trkpt lat="49.0264" lon="2.07992">
        <ele>22.799</ele>
        <time>2012-09-03T12:40:20.539Z</time>
      </trkpt>
      <trkpt lat="49.02635" lon="2.0801">
        <ele>22.471</ele>
        <time>2012-09-03T12:40:23.682Z</time>
      </trkpt>
      <trkpt lat="49.02629" lon="2.08028">
        <ele>22.191</ele>
        <time>2012-09-03T12:40:26.723Z</time>
      </trkpt>
      <trkpt lat="49.02622" lon="2.08048">
        <ele>21.818</ele>
        <time>2012-09-03T12:40:29.872Z</time>
      </trkpt>
      <trkpt lat="49.02617" lon="2.0806">
        <ele>21.479</ele>
        <time>2012-09-03T12:40:31.821Z</time>
      </trkpt>
      <trkpt lat="49.0261" lon="2.08077">
        <ele>21.331</ele>
        <time>2012-09-03T12:40:34.604Z</time>
      </trkpt>
      <trkpt lat="49.02603" lon="2.08093">
        <ele>21.454</ele>
        <time>2012-09-03T12:40:37.249Z</time>
      </trkpt>
      <trkpt lat="49.02596" lon="2.0811">
        <ele>21.845</ele>
        <time>2012-09-03T12:40:39.951Z</time>
      </trkpt>
      <trkpt lat="49.02589" lon="2.08128">
        <ele>22.242</ele>
        <time>2012-09-03T12:40:42.686Z</time>
      </trkpt>
      <trkpt lat="49.02583" lon="2.08146">
        <ele>22.429</ele>
        <time>2012-09-03T12:40:45.423Z</time>
      </trkpt>
      <trkpt lat="49.02578" lon="2.08164">
        <ele>22.456</ele>
        <time>2012-09-03T12:40:48.135Z</time>
      </trkpt>
      <trkpt lat="49.02572" lon="2.08181">
        <ele>22.424</ele>
        <time>2012-09-03T12:40:50.777Z</time>
      </trkpt>
      <trkpt lat="49.02566" lon="2.08198">
        <ele>22.391</ele>
        <time>2012-09-03T12:40:53.403Z</time>
      </trkpt>
      <trkpt lat="49.02561" lon="2.08213">
        <ele>22.238</ele>
        <time>2012-09-03T12:40:56.063Z</time>
      </trkpt>
      <trkpt lat="49.02562" lon="2.08229">
        <ele>21.876</ele>
        <time>2012-09-03T12:40:58.586Z</time>
      </trkpt>
      <trkpt lat="49.0256" lon="2.08243">
        <ele>21.509</ele>
        <time>2012-09-03T12:41:01.018Z</time>
      </trkpt>
      <trkpt lat="49.02557" lon="2.08262">
        <ele>21.337</ele>
        <time>2012-09-03T12:41:04.493Z</time>
      </trkpt>
      <trkpt lat="49.02555" lon="2.08275">
        <ele>21.173</ele>
        <time>2012-09-03T12:41:06.869Z</time>
      </trkpt>
      <trkpt lat="49.0255" lon="2.08294">
        <ele>20.567</ele>
        <time>2012-09-03T12:41:10.202Z</time>
      </trkpt>
      <trkpt lat="49.02545" lon="2.08315">
        <ele>19.508</ele>
        <time>2012-09-03T12:41:13.517Z</time>
      </trkpt>
      <trkpt lat="49.0254" lon="2.08336">
        <ele>18.607</ele>
        <time>2012-09-03T12:41:16.533Z</time>
      </trkpt>
      <trkpt lat="49.02537" lon="2.08357">
        <ele>18.094</ele>
        <time>2012-09-03T12:41:19.265Z</time>
      </trkpt>
      <trkpt lat="49.02533" lon="2.08376">
        <ele>17.709</ele>
        <time>2012-09-03T12:41:21.734Z</time>
      </trkpt>
      <trkpt lat="49.02529" lon="2.08394">
        <ele>17.289</ele>
        <time>2012-09-03T12:41:24.135Z</time>
      </trkpt>
      <trkpt lat="49.02529" lon="2.08394">
        <ele>16.827</ele>
        <time>2012-09-03T12:41:25.227Z</time>
      </trkpt>
      <trkpt lat="49.02529" lon="2.08394">
        <ele>16.461</ele>
        <time>2012-09-03T12:41:25.327Z</time>
      </trkpt>
      <trkpt lat="49.0252" lon="2.0843">
        <ele>16.317</ele>
        <time>2012-09-03T12:41:31.320Z</time>
      </trkpt>
      <trkpt lat="49.02514" lon="2.08446">
        <ele>16.175</ele>
        <time>2012-09-03T12:41:33.430Z</time>
      </trkpt>
      <trkpt lat="49.02508" lon="2.08457">
        <ele>15.854</ele>
        <time>2012-09-03T12:41:35.136Z</time>
      </trkpt>
      <trkpt lat="49.02508" lon="2.08457">
        <ele>15.514</ele>
        <time>2012-09-03T12:41:48.139Z</time>
      </trkpt>
      <trkpt lat="49.02508" lon="2.08457">
        <ele>15.365</ele>
        <time>2012-09-03T12:41:48.239Z</time>
      </trkpt>
      <trkpt lat="49.02481" lon="2.08442">
        <ele>15.362</ele>
        <time>2012-09-03T12:42:00.360Z</time>
      </trkpt>
      <trkpt lat="49.02471" lon="2.0844">
        <ele>15.39</ele>
        <time>2012-09-03T12:42:04.772Z</time>
      </trkpt>
      <trkpt lat="49.02452" lon="2.08429">
        <ele>15.397</ele>
        <time>2012-09-03T12:42:14.975Z</time>
      </trkpt>
      <trkpt lat="49.02444" lon="2.08394">
        <ele>15.118</ele>
        <time>2012-09-03T12:42:27.941Z</time>
      </trkpt>
      <trkpt lat="49.02444" lon="2.08353">
        <ele>14.394</ele>
        <time>2012-09-03T12:42:35.467Z</time>
      </trkpt>
      <trkpt lat="49.02451" lon="2.08333">
        <ele>13.376</ele>
        <time>2012-09-03T12:42:38.843Z</time>
      </trkpt>
      <trkpt lat="49.02457" lon="2.08316">
        <ele>11.891</ele>
        <time>2012-09-03T12:42:41.727Z</time>
      </trkpt>
      <trkpt lat="49.02463" lon="2.08301">
        <ele>9.19</ele>
        <time>2012-09-03T12:42:44.432Z</time>
      </trkpt>
      <trkpt lat="49.02472" lon="2.08283">
        <ele>5.218</ele>
        <time>2012-09-03T12:42:48.091Z</time>
      </trkpt>
      <trkpt lat="49.02479" lon="2.08271">
        <ele>1.127</ele>
        <time>2012-09-03T12:42:51.092Z</time>
      </trkpt>
      <trkpt lat="49.02485" lon="2.08256">
        <ele>24</ele>
        <time>2012-09-03T12:42:54.541Z</time>
      </trkpt>
      <trkpt lat="49.0249" lon="2.08243">
        <ele>24</ele>
        <time>2012-09-03T12:42:57.490Z</time>
      </trkpt>
      <trkpt lat="49.025" lon="2.08213">
        <ele>24</ele>
        <time>2012-09-03T12:43:04.313Z</time>
      </trkpt>
      <trkpt lat="49.02499" lon="2.08197">
        <ele>24</ele>
        <time>2012-09-03T12:43:07.083Z</time>
      </trkpt>
      <trkpt lat="49.02501" lon="2.08176">
        <ele>24</ele>
        <time>2012-09-03T12:43:10.641Z</time>
      </trkpt>
      <trkpt lat="49.02502" lon="2.08159">
        <ele>24</ele>
        <time>2012-09-03T12:43:13.623Z</time>
      </trkpt>
      <trkpt lat="49.02504" lon="2.08145">
        <ele>24</ele>
        <time>2012-09-03T12:43:16.214Z</time>
      </trkpt>
      <trkpt lat="49.02508" lon="2.0813">
        <ele>24</ele>
        <time>2012-09-03T12:43:19.243Z</time>
      </trkpt>
      <trkpt lat="49.02513" lon="2.08115">
        <ele>24</ele>
        <time>2012-09-03T12:43:22.284Z</time>
      </trkpt>
      <trkpt lat="49.02516" lon="2.08098">
        <ele>24.2</ele>
        <time>2012-09-03T12:43:25.769Z</time>
      </trkpt>
      <trkpt lat="49.02514" lon="2.08083">
        <ele>24.5</ele>
        <time>2012-09-03T12:43:28.734Z</time>
      </trkpt>
      <trkpt lat="49.0251" lon="2.08069">
        <ele>24.3</ele>
        <time>2012-09-03T12:43:31.839Z</time>
      </trkpt>
      <trkpt lat="49.02501" lon="2.08054">
        <ele>24</ele>
        <time>2012-09-03T12:43:35.701Z</time>
      </trkpt>
      <trkpt lat="49.02493" lon="2.08044">
        <ele>24.7</ele>
        <time>2012-09-03T12:43:38.717Z</time>
      </trkpt>
      <trkpt lat="49.02472" lon="2.08029">
        <ele>26.9</ele>
        <time>2012-09-03T12:43:45.520Z</time>
      </trkpt>
      <trkpt lat="49.02461" lon="2.08024">
        <ele>29.1</ele>
        <time>2012-09-03T12:43:48.971Z</time>
      </trkpt>
      <trkpt lat="49.02451" lon="2.08019">
        <ele>31.3</ele>
        <time>2012-09-03T12:43:53.429Z</time>
      </trkpt>
      <trkpt lat="49.02439" lon="2.08019">
        <ele>32.6</ele>
        <time>2012-09-03T12:43:59.668Z</time>
      </trkpt>
      <trkpt lat="49.02428" lon="2.08033">
        <ele>32</ele>
        <time>2012-09-03T12:44:08.928Z</time>
      </trkpt>
      <trkpt lat="49.02433" lon="2.08048">
        <ele>29.8</ele>
        <time>2012-09-03T12:44:14.132Z</time>
      </trkpt>
      <trkpt lat="49.02438" lon="2.08062">
        <ele>27.5</ele>
        <time>2012-09-03T12:44:19.482Z</time>
      </trkpt>
      <trkpt lat="49.02442" lon="2.08089">
        <ele>24.9</ele>
        <time>2012-09-03T12:44:30.260Z</time>
      </trkpt>
      <trkpt lat="49.02435" lon="2.081">
        <ele>26.6</ele>
        <time>2012-09-03T12:44:39.248Z</time>
      </trkpt>
      <trkpt lat="49.02424" lon="2.08105">
        <ele>0.564</ele>
        <time>2012-09-03T12:44:49.883Z</time>
      </trkpt>
      <trkpt lat="49.02412" lon="2.08115">
        <ele>0.784</ele>
        <time>2012-09-03T12:45:04.137Z</time>
      </trkpt>
      <trkpt lat="49.02412" lon="2.08115">
        <ele>0.645</ele>
        <time>2012-09-03T12:45:05.135Z</time>
      </trkpt>
      <trkpt lat="49.02412" lon="2.08115">
        <ele>0.51</ele>
        <time>2012-09-03T12:45:28.348Z</time>
      </trkpt>
      <trkpt lat="49.02417" lon="2.08146">
        <ele>0.529</ele>
        <time>2012-09-03T12:45:44.886Z</time>
      </trkpt>
      <trkpt lat="49.02428" lon="2.08166">
        <ele>0.875</ele>
        <time>2012-09-03T12:45:49.734Z</time>
      </trkpt>
      <trkpt lat="49.02429" lon="2.0818">
        <ele>1.978</ele>
        <time>2012-09-03T12:45:52.647Z</time>
      </trkpt>
      <trkpt lat="49.02423" lon="2.08192">
        <ele>5.359</ele>
        <time>2012-09-03T12:45:56.138Z</time>
      </trkpt>
      <trkpt lat="49.02423" lon="2.08192">
        <ele>11.074</ele>
        <time>2012-09-03T12:46:04.138Z</time>
      </trkpt>
      <trkpt lat="49.02423" lon="2.08192">
        <ele>16.066</ele>
        <time>2012-09-03T12:46:04.238Z</time>
      </trkpt>
      <trkpt lat="49.02399" lon="2.08203">
        <ele>18.192</ele>
        <time>2012-09-03T12:46:20.199Z</time>
      </trkpt>
      <trkpt lat="49.02382" lon="2.08184">
        <ele>18.091</ele>
        <time>2012-09-03T12:46:26.299Z</time>
      </trkpt>
      <trkpt lat="49.02379" lon="2.08169">
        <ele>16.622</ele>
        <time>2012-09-03T12:46:29.037Z</time>
      </trkpt>
      <trkpt lat="49.0238" lon="2.08148">
        <ele>14.619</ele>
        <time>2012-09-03T12:46:33.213Z</time>
      </trkpt>
      <trkpt lat="49.02377" lon="2.08129">
        <ele>12.815</ele>
        <time>2012-09-03T12:46:37.139Z</time>
      </trkpt>
      <trkpt lat="49.02377" lon="2.08129">
        <ele>11.734</ele>
        <time>2012-09-03T12:46:38.145Z</time>
      </trkpt>
      <trkpt lat="49.02377" lon="2.08129">
        <ele>11.592</ele>
        <time>2012-09-03T12:46:38.245Z</time>
      </trkpt>
      <trkpt lat="49.02377" lon="2.08114">
        <ele>11.885</ele>
        <time>2012-09-03T12:46:43.572Z</time>
      </trkpt>
      <trkpt lat="49.02381" lon="2.08094">
        <ele>11.652</ele>
        <time>2012-09-03T12:46:48.591Z</time>
      </trkpt>
      <trkpt lat="49.02387" lon="2.08076">
        <ele>10.428</ele>
        <time>2012-09-03T12:46:53.060Z</time>
      </trkpt>
      <trkpt lat="49.02388" lon="2.0806">
        <ele>8.464</ele>
        <time>2012-09-03T12:46:56.674Z</time>
      </trkpt>
      <trkpt lat="49.02389" lon="2.08046">
        <ele>6.133</ele>
        <time>2012-09-03T12:47:00.150Z</time>
      </trkpt>
      <trkpt lat="49.02389" lon="2.08046">
        <ele>3.895</ele>
        <time>2012-09-03T12:47:01.136Z</time>
      </trkpt>
      <trkpt lat="49.02389" lon="2.08046">
        <ele>2.462</ele>
        <time>2012-09-03T12:47:01.236Z</time>
      </trkpt>
      <trkpt lat="49.02392" lon="2.08012">
        <ele>1.608</ele>
        <time>2012-09-03T12:47:14.104Z</time>
      </trkpt>
      <trkpt lat="49.02392" lon="2.07985">
        <ele>0.329</ele>
        <time>2012-09-03T12:47:19.014Z</time>
      </trkpt>
      <trkpt lat="49.02391" lon="2.07963">
        <ele>27.4</ele>
        <time>2012-09-03T12:47:22.255Z</time>
      </trkpt>
      <trkpt lat="49.02389" lon="2.07934">
        <ele>26.6</ele>
        <time>2012-09-03T12:47:26.791Z</time>
      </trkpt>
      <trkpt lat="49.02388" lon="2.07919">
        <ele>26.1</ele>
        <time>2012-09-03T12:47:29.302Z</time>
      </trkpt>
      <trkpt lat="49.02389" lon="2.07903">
        <ele>26.5</ele>
        <time>2012-09-03T12:47:32.521Z</time>
      </trkpt>
      <trkpt lat="49.02393" lon="2.07884">
        <ele>27</ele>
        <time>2012-09-03T12:47:37.590Z</time>
      </trkpt>
      <trkpt lat="49.02401" lon="2.07866">
        <ele>26.6</ele>
        <time>2012-09-03T12:47:43.214Z</time>
      </trkpt>
      <trkpt lat="49.0241" lon="2.07852">
        <ele>26.7</ele>
        <time>2012-09-03T12:47:47.619Z</time>
      </trkpt>
      <trkpt lat="49.02416" lon="2.07841">
        <ele>27</ele>
        <time>2012-09-03T12:47:51.072Z</time>
      </trkpt>
      <trkpt lat="49.02424" lon="2.07831">
        <ele>27</ele>
        <time>2012-09-03T12:47:54.472Z</time>
      </trkpt>
      <trkpt lat="49.02431" lon="2.07822">
        <ele>27</ele>
        <time>2012-09-03T12:47:57.486Z</time>
      </trkpt>
      <trkpt lat="49.0244" lon="2.0781">
        <ele>27</ele>
        <time>2012-09-03T12:48:01.388Z</time>
      </trkpt>
      <trkpt lat="49.02445" lon="2.07796">
        <ele>27</ele>
        <time>2012-09-03T12:48:04.697Z</time>
      </trkpt>
      <trkpt lat="49.0245" lon="2.07784">
        <ele>26.8</ele>
        <time>2012-09-03T12:48:07.652Z</time>
      </trkpt>
      <trkpt lat="49.02456" lon="2.07768">
        <ele>26.7</ele>
        <time>2012-09-03T12:48:11.267Z</time>
      </trkpt>
      <trkpt lat="49.02463" lon="2.07752">
        <ele>26.9</ele>
        <time>2012-09-03T12:48:14.206Z</time>
      </trkpt>
      <trkpt lat="49.0247" lon="2.07737">
        <ele>25.3</ele>
        <time>2012-09-03T12:48:17.246Z</time>
      </trkpt>
      <trkpt lat="49.0248" lon="2.07717">
        <ele>23.9</ele>
        <time>2012-09-03T12:48:22.431Z</time>
      </trkpt>
      <trkpt lat="49.0249" lon="2.07674">
        <ele>25.1</ele>
        <time>2012-09-03T12:48:31.737Z</time>
      </trkpt>
      <trkpt lat="49.02495" lon="2.07656">
        <ele>24.9</ele>
        <time>2012-09-03T12:48:36.138Z</time>
      </trkpt>
      <trkpt lat="49.02495" lon="2.07656">
        <ele>24.9</ele>
        <time>2012-09-03T12:48:45.136Z</time>
      </trkpt>
      <trkpt lat="49.02495" lon="2.07656">
        <ele>24.9</ele>
        <time>2012-09-03T12:48:45.236Z</time>
      </trkpt>
      <trkpt lat="49.02502" lon="2.07634">
        <ele>25.5</ele>
        <time>2012-09-03T12:48:59.669Z</time>
      </trkpt>
      <trkpt lat="49.02507" lon="2.07618">
        <ele>26.6</ele>
        <time>2012-09-03T12:49:03.142Z</time>
      </trkpt>
      <trkpt lat="49.02507" lon="2.07618">
        <ele>26.6</ele>
        <time>2012-09-03T12:49:09.137Z</time>
      </trkpt>
      <trkpt lat="49.02507" lon="2.07618">
        <ele>26.6</ele>
        <time>2012-09-03T12:49:09.237Z</time>
      </trkpt>
      <trkpt lat="49.0252" lon="2.0759">
        <ele>27</ele>
        <time>2012-09-03T12:49:32.009Z</time>
      </trkpt>
      <trkpt lat="49.02529" lon="2.07578">
        <ele>27</ele>
        <time>2012-09-03T12:49:36.976Z</time>
      </trkpt>
      <trkpt lat="49.02537" lon="2.07558">
        <ele>27</ele>
        <time>2012-09-03T12:49:42.136Z</time>
      </trkpt>
      <trkpt lat="49.02537" lon="2.07558">
        <ele>27</ele>
        <time>2012-09-03T12:49:46.135Z</time>
      </trkpt>
      <trkpt lat="49.02537" lon="2.07558">
        <ele>27</ele>
        <time>2012-09-03T12:49:46.235Z</time>
      </trkpt>
      <trkpt lat="49.02524" lon="2.0753">
        <ele>27</ele>
        <time>2012-09-03T12:50:09.709Z</time>
      </trkpt>
      <trkpt lat="49.02514" lon="2.07506">
        <ele>27</ele>
        <time>2012-09-03T12:50:18.430Z</time>
      </trkpt>
      <trkpt lat="49.02502" lon="2.07457">
        <ele>27.1</ele>
        <time>2012-09-03T12:50:26.836Z</time>
      </trkpt>
      <trkpt lat="49.025" lon="2.07434">
        <ele>27</ele>
        <time>2012-09-03T12:50:29.248Z</time>
      </trkpt>
      <trkpt lat="49.02501" lon="2.07418">
        <ele>27</ele>
        <time>2012-09-03T12:50:31.042Z</time>
      </trkpt>
      <trkpt lat="49.02502" lon="2.07403">
        <ele>26.6</ele>
        <time>2012-09-03T12:50:32.697Z</time>
      </trkpt>
      <trkpt lat="49.02505" lon="2.07387">
        <ele>26.2</ele>
        <time>2012-09-03T12:50:34.674Z</time>
      </trkpt>
      <trkpt lat="49.0251" lon="2.07374">
        <ele>26.3</ele>
        <time>2012-09-03T12:50:36.694Z</time>
      </trkpt>
      <trkpt lat="49.02513" lon="2.0736">
        <ele>26.5</ele>
        <time>2012-09-03T12:50:38.843Z</time>
      </trkpt>
      <trkpt lat="49.02518" lon="2.07341">
        <ele>26.7</ele>
        <time>2012-09-03T12:50:41.865Z</time>
      </trkpt>
      <trkpt lat="49.02525" lon="2.07319">
        <ele>26.4</ele>
        <time>2012-09-03T12:50:45.283Z</time>
      </trkpt>
      <trkpt lat="49.0253" lon="2.07307">
        <ele>26.1</ele>
        <time>2012-09-03T12:50:47.316Z</time>
      </trkpt>
      <trkpt lat="49.02536" lon="2.07294">
        <ele>26</ele>
        <time>2012-09-03T12:50:49.720Z</time>
      </trkpt>
      <trkpt lat="49.02546" lon="2.07281">
        <ele>26</ele>
        <time>2012-09-03T12:50:52.478Z</time>
      </trkpt>
      <trkpt lat="49.02562" lon="2.07264">
        <ele>25.9</ele>
        <time>2012-09-03T12:50:56.363Z</time>
      </trkpt>
      <trkpt lat="49.0257" lon="2.07255">
        <ele>25.6</ele>
        <time>2012-09-03T12:50:58.417Z</time>
      </trkpt>
      <trkpt lat="49.02581" lon="2.07242">
        <ele>25.1</ele>
        <time>2012-09-03T12:51:01.064Z</time>
      </trkpt>
      <trkpt lat="49.02589" lon="2.07232">
        <ele>25</ele>
        <time>2012-09-03T12:51:03.074Z</time>
      </trkpt>
      <trkpt lat="49.02598" lon="2.07224">
        <ele>25</ele>
        <time>2012-09-03T12:51:05.066Z</time>
      </trkpt>
      <trkpt lat="49.02607" lon="2.07214">
        <ele>25</ele>
        <time>2012-09-03T12:51:07.347Z</time>
      </trkpt>
      <trkpt lat="49.02615" lon="2.07207">
        <ele>25.1</ele>
        <time>2012-09-03T12:51:09.547Z</time>
      </trkpt>
      <trkpt lat="49.02625" lon="2.07198">
        <ele>25.5</ele>
        <time>2012-09-03T12:51:12.142Z</time>
      </trkpt>
      <trkpt lat="49.02625" lon="2.07198">
        <ele>25.5</ele>
        <time>2012-09-03T12:51:14.136Z</time>
      </trkpt>
      <trkpt lat="49.02625" lon="2.07198">
        <ele>25.5</ele>
        <time>2012-09-03T12:51:14.236Z</time>
      </trkpt>
      <trkpt lat="49.02646" lon="2.07178">
        <ele>25.6</ele>
        <time>2012-09-03T12:51:24.305Z</time>
      </trkpt>
      <trkpt lat="49.02654" lon="2.07173">
        <ele>25.7</ele>
        <time>2012-09-03T12:51:27.284Z</time>
      </trkpt>
      <trkpt lat="49.02664" lon="2.07167">
        <ele>25.9</ele>
        <time>2012-09-03T12:51:30.621Z</time>
      </trkpt>
      <trkpt lat="49.02675" lon="2.07165">
        <ele>26</ele>
        <time>2012-09-03T12:51:33.735Z</time>
      </trkpt>
      <trkpt lat="49.02686" lon="2.07165">
        <ele>26</ele>
        <time>2012-09-03T12:51:37.091Z</time>
      </trkpt>
      <trkpt lat="49.02696" lon="2.07164">
        <ele>26.1</ele>
        <time>2012-09-03T12:51:40.060Z</time>
      </trkpt>
      <trkpt lat="49.02708" lon="2.07165">
        <ele>26.5</ele>
        <time>2012-09-03T12:51:43.191Z</time>
      </trkpt>
      <trkpt lat="49.0272" lon="2.07168">
        <ele>26.9</ele>
        <time>2012-09-03T12:51:46.246Z</time>
      </trkpt>
      <trkpt lat="49.02732" lon="2.07173">
        <ele>27</ele>
        <time>2012-09-03T12:51:49.720Z</time>
      </trkpt>
      <trkpt lat="49.02752" lon="2.07183">
        <ele>27.1</ele>
        <time>2012-09-03T12:51:55.261Z</time>
      </trkpt>
      <trkpt lat="49.02762" lon="2.07189">
        <ele>27.4</ele>
        <time>2012-09-03T12:51:57.747Z</time>
      </trkpt>
      <trkpt lat="49.0279" lon="2.0723">
        <ele>28.4</ele>
        <time>2012-09-03T12:52:07.203Z</time>
      </trkpt>
      <trkpt lat="49.02793" lon="2.07248">
        <ele>28.5</ele>
        <time>2012-09-03T12:52:10.676Z</time>
      </trkpt>
      <trkpt lat="49.02794" lon="2.07262">
        <ele>28.6</ele>
        <time>2012-09-03T12:52:13.631Z</time>
      </trkpt>
      <trkpt lat="49.02786" lon="2.07298">
        <ele>29.1</ele>
        <time>2012-09-03T12:52:20.410Z</time>
      </trkpt>
      <trkpt lat="49.0278" lon="2.07311">
        <ele>29.1</ele>
        <time>2012-09-03T12:52:22.982Z</time>
      </trkpt>
      <trkpt lat="49.02774" lon="2.07326">
        <ele>28.9</ele>
        <time>2012-09-03T12:52:25.828Z</time>
      </trkpt>
      <trkpt lat="49.02768" lon="2.07342">
        <ele>28.7</ele>
        <time>2012-09-03T12:52:28.698Z</time>
      </trkpt>
      <trkpt lat="49.02763" lon="2.07358">
        <ele>28.5</ele>
        <time>2012-09-03T12:52:31.589Z</time>
      </trkpt>
      <trkpt lat="49.02758" lon="2.07372">
        <ele>28.3</ele>
        <time>2012-09-03T12:52:34.532Z</time>
      </trkpt>
      <trkpt lat="49.02755" lon="2.07388">
        <ele>28.2</ele>
        <time>2012-09-03T12:52:37.857Z</time>
      </trkpt>
      <trkpt lat="49.02756" lon="2.07405">
        <ele>28.2</ele>
        <time>2012-09-03T12:52:42.189Z</time>
      </trkpt>
      <trkpt lat="49.0276" lon="2.07419">
        <ele>28.4</ele>
        <time>2012-09-03T12:52:46.369Z</time>
      </trkpt>
      <trkpt lat="49.02766" lon="2.07433">
        <ele>28.6</ele>
        <time>2012-09-03T12:52:52.194Z</time>
      </trkpt>
      <trkpt lat="49.02764" lon="2.07448">
        <ele>28.5</ele>
        <time>2012-09-03T12:52:56.215Z</time>
      </trkpt>
      <trkpt lat="49.02753" lon="2.07462">
        <ele>28.1</ele>
        <time>2012-09-03T12:53:00.489Z</time>
      </trkpt>
      <trkpt lat="49.02745" lon="2.0747">
        <ele>28</ele>
        <time>2012-09-03T12:53:03.299Z</time>
      </trkpt>
      <trkpt lat="49.02735" lon="2.07477">
        <ele>28.1</ele>
        <time>2012-09-03T12:53:06.717Z</time>
      </trkpt>
      <trkpt lat="49.02725" lon="2.0748">
        <ele>28</ele>
        <time>2012-09-03T12:53:10.713Z</time>
      </trkpt>
      <trkpt lat="49.02712" lon="2.07482">
        <ele>28</ele>
        <time>2012-09-03T12:53:15.525Z</time>
      </trkpt>
      <trkpt lat="49.02686" lon="2.07503">
        <ele>27.7</ele>
        <time>2012-09-03T12:53:25.053Z</time>
      </trkpt>
      <trkpt lat="49.02675" lon="2.07514">
        <ele>27.3</ele>
        <time>2012-09-03T12:53:27.863Z</time>
      </trkpt>
      <trkpt lat="49.02662" lon="2.07532">
        <ele>27.1</ele>
        <time>2012-09-03T12:53:31.567Z</time>
      </trkpt>
      <trkpt lat="49.02649" lon="2.07549">
        <ele>27.3</ele>
        <time>2012-09-03T12:53:34.956Z</time>
      </trkpt>
      <trkpt lat="49.02641" lon="2.07559">
        <ele>27.2</ele>
        <time>2012-09-03T12:53:37.183Z</time>
      </trkpt>
      <trkpt lat="49.0263" lon="2.07576">
        <ele>27.5</ele>
        <time>2012-09-03T12:53:40.700Z</time>
      </trkpt>
      <trkpt lat="49.02621" lon="2.07589">
        <ele>27.5</ele>
        <time>2012-09-03T12:53:43.681Z</time>
      </trkpt>
      <trkpt lat="49.02618" lon="2.07603">
        <ele>27.8</ele>
        <time>2012-09-03T12:53:46.016Z</time>
      </trkpt>
      <trkpt lat="49.02615" lon="2.07619">
        <ele>27.7</ele>
        <time>2012-09-03T12:53:49.103Z</time>
      </trkpt>
      <trkpt lat="49.02617" lon="2.07636">
        <ele>27.1</ele>
        <time>2012-09-03T12:53:52.253Z</time>
      </trkpt>
      <trkpt lat="49.02619" lon="2.07653">
        <ele>27.5</ele>
        <time>2012-09-03T12:53:55.666Z</time>
      </trkpt>
      <trkpt lat="49.02621" lon="2.07668">
        <ele>28</ele>
        <time>2012-09-03T12:53:58.820Z</time>
      </trkpt>
      <trkpt lat="49.0262" lon="2.07684">
        <ele>0.446</ele>
        <time>2012-09-03T12:54:02.381Z</time>
      </trkpt>
      <trkpt lat="49.0262" lon="2.07701">
        <ele>1.273</ele>
        <time>2012-09-03T12:54:06.168Z</time>
      </trkpt>
      <trkpt lat="49.0262" lon="2.0772">
        <ele>3.231</ele>
        <time>2012-09-03T12:54:10.824Z</time>
      </trkpt>
      <trkpt lat="49.02617" lon="2.07735">
        <ele>3.568</ele>
        <time>2012-09-03T12:54:15.240Z</time>
      </trkpt>
      <trkpt lat="49.02613" lon="2.07749">
        <ele>3.576</ele>
        <time>2012-09-03T12:54:20.286Z</time>
      </trkpt>
      <trkpt lat="49.026" lon="2.07777">
        <ele>3.486</ele>
        <time>2012-09-03T12:54:30.500Z</time>
      </trkpt>
      <trkpt lat="49.0259" lon="2.0778">
        <ele>3.416</ele>
        <time>2012-09-03T12:54:34.049Z</time>
      </trkpt>
      <trkpt lat="49.0258" lon="2.07781">
        <ele>3.251</ele>
        <time>2012-09-03T12:54:38.444Z</time>
      </trkpt>
      <trkpt lat="49.02572" lon="2.07789">
        <ele>2.89</ele>
        <time>2012-09-03T12:54:43.439Z</time>
      </trkpt>
      <trkpt lat="49.02569" lon="2.07802">
        <ele>2.528</ele>
        <time>2012-09-03T12:54:48.919Z</time>
      </trkpt>
      <trkpt lat="49.02573" lon="2.07818">
        <ele>2.359</ele>
        <time>2012-09-03T12:54:56.266Z</time>
      </trkpt>
      <trkpt lat="49.02578" lon="2.07829">
        <ele>2.334</ele>
        <time>2012-09-03T12:55:03.267Z</time>
      </trkpt>
      <trkpt lat="49.02571" lon="2.0784">
        <ele>2.364</ele>
        <time>2012-09-03T12:55:12.139Z</time>
      </trkpt>
      <trkpt lat="49.02571" lon="2.0784">
        <ele>2.394</ele>
        <time>2012-09-03T12:55:15.135Z</time>
      </trkpt>
      <trkpt lat="49.02571" lon="2.0784">
        <ele>2.407</ele>
        <time>2012-09-03T12:55:15.235Z</time>
      </trkpt>
      <trkpt lat="49.02554" lon="2.07837">
        <ele>2.409</ele>
        <time>2012-09-03T12:55:20.135Z</time>
      </trkpt>
      <trkpt lat="49.02554" lon="2.07837">
        <ele>2.407</ele>
        <time>2012-09-03T12:55:26.138Z</time>
      </trkpt>
      <trkpt lat="49.02554" lon="2.07837">
        <ele>2.404</ele>
        <time>2012-09-03T12:55:26.238Z</time>
      </trkpt>
      <trkpt lat="49.02535" lon="2.07849">
        <ele>2.403</ele>
        <time>2012-09-03T12:55:33.140Z</time>
      </trkpt>
      <trkpt lat="49.02535" lon="2.07849">
        <ele>2.403</ele>
        <time>2012-09-03T12:55:40.137Z</time>
      </trkpt>
      <trkpt lat="49.02535" lon="2.07849">
        <ele>2.403</ele>
        <time>2012-09-03T12:55:40.237Z</time>
      </trkpt>
      <trkpt lat="49.02519" lon="2.07877">
        <ele>2.403</ele>
        <time>2012-09-03T12:56:00.125Z</time>
      </trkpt>
      <trkpt lat="49.02519" lon="2.07877">
        <ele>2.404</ele>
        <time>2012-09-03T12:56:20.133Z</time>
      </trkpt>
      <trkpt lat="49.02519" lon="2.07877">
        <ele>2.403</ele>
        <time>2012-09-03T12:58:58.756Z</time>
      </trkpt>
      <trkpt lat="49.02502" lon="2.07885">
        <ele>2.402</ele>
        <time>2012-09-03T12:59:11.955Z</time>
      </trkpt>
      <trkpt lat="49.02497" lon="2.07901">
        <ele>2.401</ele>
        <time>2012-09-03T12:59:15.904Z</time>
      </trkpt>
      <trkpt lat="49.02496" lon="2.07919">
        <ele>4.197</ele>
        <time>2012-09-03T12:59:18.902Z</time>
      </trkpt>
      <trkpt lat="49.02497" lon="2.07933">
        <ele>8.877</ele>
        <time>2012-09-03T12:59:20.811Z</time>
      </trkpt>
      <trkpt lat="49.025" lon="2.07952">
        <ele>13.68</ele>
        <time>2012-09-03T12:59:23.343Z</time>
      </trkpt>
      <trkpt lat="49.02504" lon="2.0797">
        <ele>15.959</ele>
        <time>2012-09-03T12:59:25.739Z</time>
      </trkpt>
      <trkpt lat="49.02512" lon="2.07986">
        <ele>16.304</ele>
        <time>2012-09-03T12:59:28.135Z</time>
      </trkpt>
      <trkpt lat="49.02512" lon="2.07986">
        <ele>15.914</ele>
        <time>2012-09-03T12:59:30.134Z</time>
      </trkpt>
      <trkpt lat="49.02512" lon="2.07986">
        <ele>15.523</ele>
        <time>2012-09-03T12:59:30.234Z</time>
      </trkpt>
      <trkpt lat="49.02532" lon="2.08001">
        <ele>15.34</ele>
        <time>2012-09-03T12:59:37.832Z</time>
      </trkpt>
      <trkpt lat="49.02546" lon="2.07982">
        <ele>15.384</ele>
        <time>2012-09-03T12:59:42.097Z</time>
      </trkpt>
      <trkpt lat="49.02554" lon="2.07974">
        <ele>15.599</ele>
        <time>2012-09-03T12:59:43.964Z</time>
      </trkpt>
      <trkpt lat="49.02564" lon="2.0796">
        <ele>15.819</ele>
        <time>2012-09-03T12:59:46.860Z</time>
      </trkpt>
      <trkpt lat="49.02575" lon="2.07948">
        <ele>15.922</ele>
        <time>2012-09-03T12:59:49.803Z</time>
      </trkpt>
      <trkpt lat="49.02583" lon="2.07941">
        <ele>15.868</ele>
        <time>2012-09-03T12:59:52.053Z</time>
      </trkpt>
      <trkpt lat="49.02592" lon="2.07936">
        <ele>15.391</ele>
        <time>2012-09-03T12:59:55.602Z</time>
      </trkpt>
      <trkpt lat="49.02601" lon="2.0795">
        <ele>14.465</ele>
        <time>2012-09-03T13:00:00.138Z</time>
      </trkpt>
      <trkpt lat="49.02601" lon="2.0795">
        <ele>13.629</ele>
        <time>2012-09-03T13:00:01.136Z</time>
      </trkpt>
      <trkpt lat="49.02601" lon="2.0795">
        <ele>13.264</ele>
        <time>2012-09-03T13:00:01.236Z</time>
      </trkpt>
      <trkpt lat="49.0261" lon="2.07962">
        <ele>13.089</ele>
        <time>2012-09-03T13:00:07.439Z</time>
      </trkpt>
      <trkpt lat="49.02619" lon="2.07973">
        <ele>12.806</ele>
        <time>2012-09-03T13:00:10.105Z</time>
      </trkpt>
      <trkpt lat="49.02627" lon="2.07983">
        <ele>12.367</ele>
        <time>2012-09-03T13:00:12.269Z</time>
      </trkpt>
      <trkpt lat="49.02634" lon="2.07994">
        <ele>11.861</ele>
        <time>2012-09-03T13:00:14.135Z</time>
      </trkpt>
      <trkpt lat="49.02634" lon="2.07994">
        <ele>11.467</ele>
        <time>2012-09-03T13:00:15.135Z</time>
      </trkpt>
      <trkpt lat="49.02634" lon="2.07994">
        <ele>11.316</ele>
        <time>2012-09-03T13:00:15.504Z</time>
      </trkpt>
      <trkpt lat="49.02647" lon="2.08008">
        <ele>11.314</ele>
        <time>2012-09-03T13:00:22.139Z</time>
      </trkpt>
      <trkpt lat="49.02636" lon="2.08003">
        <ele>11.356</ele>
        <time>2012-09-03T13:00:31.137Z</time>
      </trkpt>
      <trkpt lat="49.02636" lon="2.08003">
        <ele>11.388</ele>
        <time>2012-09-03T13:00:31.138Z</time>
      </trkpt>
      <trkpt lat="49.02636" lon="2.08003">
        <ele>11.4</ele>
        <time>2012-09-03T13:03:30.455Z</time>
      </trkpt>
      <trkpt lat="49.02617" lon="2.07998">
        <ele>11.4</ele>
        <time>2012-09-03T13:05:20.215Z</time>
      </trkpt>
      <trkpt lat="49.02605" lon="2.07988">
        <ele>11.396</ele>
        <time>2012-09-03T13:05:25.516Z</time>
      </trkpt>
      <trkpt lat="49.02597" lon="2.07978">
        <ele>11.394</ele>
        <time>2012-09-03T13:05:29.688Z</time>
      </trkpt>
      <trkpt lat="49.02594" lon="2.07947">
        <ele>15.262</ele>
        <time>2012-09-03T13:05:38.384Z</time>
      </trkpt>
      <trkpt lat="49.02596" lon="2.0793">
        <ele>25.339</ele>
        <time>2012-09-03T13:05:42.934Z</time>
      </trkpt>
      <trkpt lat="49.02598" lon="2.07911">
        <ele>35.683</ele>
        <time>2012-09-03T13:05:47.156Z</time>
      </trkpt>
      <trkpt lat="49.02588" lon="2.07917">
        <ele>40.591</ele>
        <time>2012-09-03T13:06:06.134Z</time>
      </trkpt>
      <trkpt lat="49.02588" lon="2.07917">
        <ele>41.057</ele>
        <time>2012-09-03T13:06:06.135Z</time>
      </trkpt>
      <trkpt lat="49.02588" lon="2.07917">
        <ele>39.498</ele>
        <time>2012-09-03T13:06:06.235Z</time>
      </trkpt>
      <trkpt lat="49.02576" lon="2.0794">
        <ele>37.501</ele>
        <time>2012-09-03T13:06:18.137Z</time>
      </trkpt>
      <trkpt lat="49.02576" lon="2.0794">
        <ele>35.676</ele>
        <time>2012-09-03T13:06:39.135Z</time>
      </trkpt>
      <trkpt lat="49.02576" lon="2.0794">
        <ele>34.458</ele>
        <time>2012-09-03T13:06:39.235Z</time>
      </trkpt>
      <trkpt lat="49.02576" lon="2.0794">
        <ele>34.744</ele>
        <time>2012-09-03T13:07:40.135Z</time>
      </trkpt>
      <trkpt lat="49.02576" lon="2.0794">
        <ele>35.364</ele>
        <time>2012-09-03T13:07:40.235Z</time>
      </trkpt>
      <trkpt lat="49.02579" lon="2.07954">
        <ele>35.415</ele>
        <time>2012-09-03T13:07:48.134Z</time>
      </trkpt>
      <trkpt lat="49.02579" lon="2.07954">
        <ele>35.327</ele>
        <time>2012-09-03T13:07:52.132Z</time>
      </trkpt>
      <trkpt lat="49.02579" lon="2.07954">
        <ele>35.351</ele>
        <time>2012-09-03T13:07:52.232Z</time>
      </trkpt>
      <trkpt lat="49.02604" lon="2.07972">
        <ele>35.255</ele>
        <time>2012-09-03T13:08:05.423Z</time>
      </trkpt>
      <trkpt lat="49.02613" lon="2.07975">
        <ele>35.015</ele>
        <time>2012-09-03T13:08:08.638Z</time>
      </trkpt>
      <trkpt lat="49.02623" lon="2.07967">
        <ele>34.781</ele>
        <time>2012-09-03T13:08:12.278Z</time>
      </trkpt>
      <trkpt lat="49.02624" lon="2.07952">
        <ele>34.489</ele>
        <time>2012-09-03T13:08:15.909Z</time>
      </trkpt>
      <trkpt lat="49.02626" lon="2.07934">
        <ele>33.578</ele>
        <time>2012-09-03T13:08:19.859Z</time>
      </trkpt>
      <trkpt lat="49.0263" lon="2.0792">
        <ele>31.472</ele>
        <time>2012-09-03T13:08:23.134Z</time>
      </trkpt>
      <trkpt lat="49.0263" lon="2.0792">
        <ele>28.708</ele>
        <time>2012-09-03T13:08:28.135Z</time>
      </trkpt>
      <trkpt lat="49.0263" lon="2.0792">
        <ele>26.678</ele>
        <time>2012-09-03T13:08:28.235Z</time>
      </trkpt>
      <trkpt lat="49.02626" lon="2.07887">
        <ele>25.386</ele>
        <time>2012-09-03T13:08:40.411Z</time>
      </trkpt>
      <trkpt lat="49.02622" lon="2.07874">
        <ele>23.554</ele>
        <time>2012-09-03T13:08:44.940Z</time>
      </trkpt>
      <trkpt lat="49.02617" lon="2.07862">
        <ele>20.81</ele>
        <time>2012-09-03T13:08:50.277Z</time>
      </trkpt>
      <trkpt lat="49.02621" lon="2.07881">
        <ele>17.395</ele>
        <time>2012-09-03T13:09:01.427Z</time>
      </trkpt>
      <trkpt lat="49.02627" lon="2.07894">
        <ele>13.776</ele>
        <time>2012-09-03T13:09:06.798Z</time>
      </trkpt>
      <trkpt lat="49.02636" lon="2.07909">
        <ele>11.081</ele>
        <time>2012-09-03T13:09:10.792Z</time>
      </trkpt>
      <trkpt lat="49.02642" lon="2.07919">
        <ele>9.533</ele>
        <time>2012-09-03T13:09:13.132Z</time>
      </trkpt>
      <trkpt lat="49.02642" lon="2.07919">
        <ele>8.368</ele>
        <time>2012-09-03T13:09:17.134Z</time>
      </trkpt>
      <trkpt lat="49.02642" lon="2.07919">
        <ele>7.519</ele>
        <time>2012-09-03T13:09:17.234Z</time>
      </trkpt>
      <trkpt lat="49.02651" lon="2.07935">
        <ele>7.213</ele>
        <time>2012-09-03T13:09:24.028Z</time>
      </trkpt>
      <trkpt lat="49.02657" lon="2.07947">
        <ele>7.224</ele>
        <time>2012-09-03T13:09:28.104Z</time>
      </trkpt>
      <trkpt lat="49.02664" lon="2.07958">
        <ele>7.32</ele>
        <time>2012-09-03T13:09:32.133Z</time>
      </trkpt>
      <trkpt lat="49.02664" lon="2.07958">
        <ele>7.389</ele>
        <time>2012-09-03T13:09:33.134Z</time>
      </trkpt>
      <trkpt lat="49.02664" lon="2.07958">
        <ele>7.411</ele>
        <time>2012-09-03T13:09:33.620Z</time>
      </trkpt>
      <trkpt lat="49.02669" lon="2.07973">
        <ele>7.394</ele>
        <time>2012-09-03T13:09:40.136Z</time>
      </trkpt>
      <trkpt lat="49.02669" lon="2.07973">
        <ele>7.355</ele>
        <time>2012-09-03T13:09:54.134Z</time>
      </trkpt>
      <trkpt lat="49.02669" lon="2.07973">
        <ele>7.321</ele>
        <time>2012-09-03T13:09:54.234Z</time>
      </trkpt>
      <trkpt lat="49.02663" lon="2.08029">
        <ele>7.306</ele>
        <time>2012-09-03T13:10:10.325Z</time>
      </trkpt>
      <trkpt lat="49.02659" lon="2.08044">
        <ele>7.305</ele>
        <time>2012-09-03T13:10:12.932Z</time>
      </trkpt>
      <trkpt lat="49.02655" lon="2.08062">
        <ele>6.906</ele>
        <time>2012-09-03T13:10:15.940Z</time>
      </trkpt>
      <trkpt lat="49.02638" lon="2.0811">
        <ele>5.86</ele>
        <time>2012-09-03T13:10:22.261Z</time>
      </trkpt>
      <trkpt lat="49.02622" lon="2.08154">
        <ele>4.923</ele>
        <time>2012-09-03T13:10:26.992Z</time>
      </trkpt>
      <trkpt lat="49.02614" lon="2.08177">
        <ele>4.772</ele>
        <time>2012-09-03T13:10:29.128Z</time>
      </trkpt>
      <trkpt lat="49.02614" lon="2.08177">
        <ele>4.976</ele>
        <time>2012-09-03T13:10:35.131Z</time>
      </trkpt>
      <trkpt lat="49.02614" lon="2.08177">
        <ele>5.038</ele>
        <time>2012-09-03T13:10:35.231Z</time>
      </trkpt>
      <trkpt lat="49.0259" lon="2.08226">
        <ele>5.051</ele>
        <time>2012-09-03T13:10:44.478Z</time>
      </trkpt>
      <trkpt lat="49.02584" lon="2.08243">
        <ele>5.181</ele>
        <time>2012-09-03T13:10:46.148Z</time>
      </trkpt>
      <trkpt lat="49.02579" lon="2.08265">
        <ele>5.335</ele>
        <time>2012-09-03T13:10:48.147Z</time>
      </trkpt>
      <trkpt lat="49.02574" lon="2.08292">
        <ele>5.552</ele>
        <time>2012-09-03T13:10:50.415Z</time>
      </trkpt>
      <trkpt lat="49.02571" lon="2.08308">
        <ele>5.927</ele>
        <time>2012-09-03T13:10:51.725Z</time>
      </trkpt>
      <trkpt lat="49.02571" lon="2.08325">
        <ele>6.285</ele>
        <time>2012-09-03T13:10:53.135Z</time>
      </trkpt>
      <trkpt lat="49.02571" lon="2.08325">
        <ele>6.448</ele>
        <time>2012-09-03T13:10:54.133Z</time>
      </trkpt>
      <trkpt lat="49.02571" lon="2.08325">
        <ele>6.468</ele>
        <time>2012-09-03T13:10:54.233Z</time>
      </trkpt>
      <trkpt lat="49.02577" lon="2.08354">
        <ele>6.437</ele>
        <time>2012-09-03T13:11:02.636Z</time>
      </trkpt>
      <trkpt lat="49.0258" lon="2.08371">
        <ele>6.408</ele>
        <time>2012-09-03T13:11:06.345Z</time>
      </trkpt>
      <trkpt lat="49.02582" lon="2.08386">
        <ele>6.395</ele>
        <time>2012-09-03T13:11:10.185Z</time>
      </trkpt>
      <trkpt lat="49.02584" lon="2.08401">
        <ele>6.393</ele>
        <time>2012-09-03T13:11:15.062Z</time>
      </trkpt>
      <trkpt lat="49.02585" lon="2.08417">
        <ele>6.396</ele>
        <time>2012-09-03T13:11:20.137Z</time>
      </trkpt>
      <trkpt lat="49.02585" lon="2.08417">
        <ele>6.398</ele>
        <time>2012-09-03T13:11:28.138Z</time>
      </trkpt>
      <trkpt lat="49.02585" lon="2.08417">
        <ele>6.399</ele>
        <time>2012-09-03T13:11:28.238Z</time>
      </trkpt>
      <trkpt lat="49.02581" lon="2.08441">
        <ele>6.399</ele>
        <time>2012-09-03T13:11:39.586Z</time>
      </trkpt>
      <trkpt lat="49.02579" lon="2.08455">
        <ele>6.399</ele>
        <time>2012-09-03T13:11:44.920Z</time>
      </trkpt>
      <trkpt lat="49.02577" lon="2.08475">
        <ele>6.399</ele>
        <time>2012-09-03T13:11:54.719Z</time>
      </trkpt>
      <trkpt lat="49.0259" lon="2.08506">
        <ele>6.813</ele>
        <time>2012-09-03T13:12:09.284Z</time>
      </trkpt>
      <trkpt lat="49.02599" lon="2.0851">
        <ele>8.031</ele>
        <time>2012-09-03T13:12:13.361Z</time>
      </trkpt>
      <trkpt lat="49.02609" lon="2.0851">
        <ele>9.499</ele>
        <time>2012-09-03T13:12:18.141Z</time>
      </trkpt>
      <trkpt lat="49.02609" lon="2.0851">
        <ele>10.394</ele>
        <time>2012-09-03T13:12:19.141Z</time>
      </trkpt>
      <trkpt lat="49.02609" lon="2.0851">
        <ele>10.649</ele>
        <time>2012-09-03T13:12:19.241Z</time>
      </trkpt>
      <trkpt lat="49.02628" lon="2.08516">
        <ele>10.584</ele>
        <time>2012-09-03T13:12:32.132Z</time>
      </trkpt>
      <trkpt lat="49.02628" lon="2.08516">
        <ele>10.46</ele>
        <time>2012-09-03T13:12:54.135Z</time>
      </trkpt>
      <trkpt lat="49.02628" lon="2.08516">
        <ele>10.383</ele>
        <time>2012-09-03T13:12:54.235Z</time>
      </trkpt>
      <trkpt lat="49.02653" lon="2.08519">
        <ele>10.237</ele>
        <time>2012-09-03T13:13:40.415Z</time>
      </trkpt>
      <trkpt lat="49.02658" lon="2.08531">
        <ele>9.92</ele>
        <time>2012-09-03T13:13:44.238Z</time>
      </trkpt>
      <trkpt lat="49.0266" lon="2.08547">
        <ele>9.449</ele>
        <time>2012-09-03T13:13:48.674Z</time>
      </trkpt>
      <trkpt lat="49.02655" lon="2.08568">
        <ele>8.905</ele>
        <time>2012-09-03T13:13:54.626Z</time>
      </trkpt>
      <trkpt lat="49.02637" lon="2.08582">
        <ele>8.479</ele>
        <time>2012-09-03T13:14:01.077Z</time>
      </trkpt>
      <trkpt lat="49.02624" lon="2.08587">
        <ele>8.314</ele>
        <time>2012-09-03T13:14:04.513Z</time>
      </trkpt>
      <trkpt lat="49.02614" lon="2.08589">
        <ele>8.311</ele>
        <time>2012-09-03T13:14:06.903Z</time>
      </trkpt>
      <trkpt lat="49.02604" lon="2.08592">
        <ele>8.356</ele>
        <time>2012-09-03T13:14:10.903Z</time>
      </trkpt>
      <trkpt lat="49.02593" lon="2.08596">
        <ele>8.252</ele>
        <time>2012-09-03T13:14:15.528Z</time>
      </trkpt>
      <trkpt lat="49.02582" lon="2.086">
        <ele>7.905</ele>
        <time>2012-09-03T13:14:21.471Z</time>
      </trkpt>
      <trkpt lat="49.02581" lon="2.08615">
        <ele>7.357</ele>
        <time>2012-09-03T13:14:26.123Z</time>
      </trkpt>
      <trkpt lat="49.02588" lon="2.08625">
        <ele>7.189</ele>
        <time>2012-09-03T13:14:28.887Z</time>
      </trkpt>
      <trkpt lat="49.02599" lon="2.08638">
        <ele>6.858</ele>
        <time>2012-09-03T13:14:32.281Z</time>
      </trkpt>
      <trkpt lat="49.02606" lon="2.08647">
        <ele>6.243</ele>
        <time>2012-09-03T13:14:34.378Z</time>
      </trkpt>
      <trkpt lat="49.02616" lon="2.08659">
        <ele>5.224</ele>
        <time>2012-09-03T13:14:37.027Z</time>
      </trkpt>
      <trkpt lat="49.02625" lon="2.08669">
        <ele>3.963</ele>
        <time>2012-09-03T13:14:39.098Z</time>
      </trkpt>
      <trkpt lat="49.02633" lon="2.08679">
        <ele>2.772</ele>
        <time>2012-09-03T13:14:41.159Z</time>
      </trkpt>
      <trkpt lat="49.02643" lon="2.08692">
        <ele>1.704</ele>
        <time>2012-09-03T13:14:43.704Z</time>
      </trkpt>
      <trkpt lat="49.02655" lon="2.08707">
        <ele>0.708</ele>
        <time>2012-09-03T13:14:46.568Z</time>
      </trkpt>
      <trkpt lat="49.02663" lon="2.08718">
        <ele>25.8</ele>
        <time>2012-09-03T13:14:48.874Z</time>
      </trkpt>
      <trkpt lat="49.02676" lon="2.08734">
        <ele>25.4</ele>
        <time>2012-09-03T13:14:52.161Z</time>
      </trkpt>
      <trkpt lat="49.02696" lon="2.08764">
        <ele>25</ele>
        <time>2012-09-03T13:14:57.802Z</time>
      </trkpt>
      <trkpt lat="49.02708" lon="2.0878">
        <ele>24.9</ele>
        <time>2012-09-03T13:15:00.387Z</time>
      </trkpt>
      <trkpt lat="49.02718" lon="2.08792">
        <ele>25.2</ele>
        <time>2012-09-03T13:15:02.397Z</time>
      </trkpt>
      <trkpt lat="49.02732" lon="2.0881">
        <ele>25.5</ele>
        <time>2012-09-03T13:15:05.330Z</time>
      </trkpt>
      <trkpt lat="49.02746" lon="2.08826">
        <ele>25.3</ele>
        <time>2012-09-03T13:15:08.114Z</time>
      </trkpt>
      <trkpt lat="49.02762" lon="2.08841">
        <ele>25.5</ele>
        <time>2012-09-03T13:15:11.009Z</time>
      </trkpt>
      <trkpt lat="49.02772" lon="2.08847">
        <ele>25.7</ele>
        <time>2012-09-03T13:15:12.799Z</time>
      </trkpt>
      <trkpt lat="49.02785" lon="2.08857">
        <ele>26</ele>
        <time>2012-09-03T13:15:15.392Z</time>
      </trkpt>
      <trkpt lat="49.02799" lon="2.08868">
        <ele>0.042</ele>
        <time>2012-09-03T13:15:18.052Z</time>
      </trkpt>
      <trkpt lat="49.02808" lon="2.08875">
        <ele>0.772</ele>
        <time>2012-09-03T13:15:19.781Z</time>
      </trkpt>
      <trkpt lat="49.0282" lon="2.08885">
        <ele>1.317</ele>
        <time>2012-09-03T13:15:22.377Z</time>
      </trkpt>
      <trkpt lat="49.02828" lon="2.08892">
        <ele>1.519</ele>
        <time>2012-09-03T13:15:24.125Z</time>
      </trkpt>
      <trkpt lat="49.02837" lon="2.08899">
        <ele>1.516</ele>
        <time>2012-09-03T13:15:25.901Z</time>
      </trkpt>
      <trkpt lat="49.0285" lon="2.0891">
        <ele>1.318</ele>
        <time>2012-09-03T13:15:28.689Z</time>
      </trkpt>
      <trkpt lat="49.02859" lon="2.08918">
        <ele>0.914</ele>
        <time>2012-09-03T13:15:30.648Z</time>
      </trkpt>
      <trkpt lat="49.02866" lon="2.08928">
        <ele>0.528</ele>
        <time>2012-09-03T13:15:33.269Z</time>
      </trkpt>
      <trkpt lat="49.02891" lon="2.08946">
        <ele>0.194</ele>
        <time>2012-09-03T13:15:41.135Z</time>
      </trkpt>
      <trkpt lat="49.02891" lon="2.08946">
        <ele>26.1</ele>
        <time>2012-09-03T13:15:45.135Z</time>
      </trkpt>
      <trkpt lat="49.02891" lon="2.08946">
        <ele>26.1</ele>
        <time>2012-09-03T13:15:45.235Z</time>
      </trkpt>
      <trkpt lat="49.02915" lon="2.0898">
        <ele>25.9</ele>
        <time>2012-09-03T13:15:57.139Z</time>
      </trkpt>
      <trkpt lat="49.02915" lon="2.0898">
        <ele>25.9</ele>
        <time>2012-09-03T13:16:01.137Z</time>
      </trkpt>
      <trkpt lat="49.02915" lon="2.0898">
        <ele>25.9</ele>
        <time>2012-09-03T13:16:01.237Z</time>
      </trkpt>
      <trkpt lat="49.02891" lon="2.0896">
        <ele>25.6</ele>
        <time>2012-09-03T13:16:18.067Z</time>
      </trkpt>
      <trkpt lat="49.02891" lon="2.0896">
        <ele>0.029</ele>
        <time>2012-09-03T13:16:21.075Z</time>
      </trkpt>
      <trkpt lat="49.02891" lon="2.0896">
        <ele>0.047</ele>
        <time>2012-09-03T13:16:21.175Z</time>
      </trkpt>
      <trkpt lat="49.02866" lon="2.08938">
        <ele>0.027</ele>
        <time>2012-09-03T13:16:35.673Z</time>
      </trkpt>
      <trkpt lat="49.02858" lon="2.0893">
        <ele>0.007</ele>
        <time>2012-09-03T13:16:38.780Z</time>
      </trkpt>
      <trkpt lat="49.02835" lon="2.08907">
        <ele>26.4</ele>
        <time>2012-09-03T13:16:48.818Z</time>
      </trkpt>
      <trkpt lat="49.02842" lon="2.0892">
        <ele>25.8</ele>
        <time>2012-09-03T13:16:53.300Z</time>
      </trkpt>
      <trkpt lat="49.02851" lon="2.08927">
        <ele>25.5</ele>
        <time>2012-09-03T13:16:57.075Z</time>
      </trkpt>
      <trkpt lat="49.02851" lon="2.08927">
        <ele>25.5</ele>
        <time>2012-09-03T13:16:58.065Z</time>
      </trkpt>
      <trkpt lat="49.02851" lon="2.08927">
        <ele>25.5</ele>
        <time>2012-09-03T13:16:58.165Z</time>
      </trkpt>
      <trkpt lat="49.02868" lon="2.08936">
        <ele>25.5</ele>
        <time>2012-09-03T13:17:06.949Z</time>
      </trkpt>
      <trkpt lat="49.02898" lon="2.08959">
        <ele>26</ele>
        <time>2012-09-03T13:17:20.497Z</time>
      </trkpt>
      <trkpt lat="49.0291" lon="2.08978">
        <ele>25.6</ele>
        <time>2012-09-03T13:17:25.968Z</time>
      </trkpt>
      <trkpt lat="49.02923" lon="2.08993">
        <ele>26.1</ele>
        <time>2012-09-03T13:17:29.174Z</time>
      </trkpt>
      <trkpt lat="49.02935" lon="2.0901">
        <ele>26.5</ele>
        <time>2012-09-03T13:17:32.000Z</time>
      </trkpt>
      <trkpt lat="49.02943" lon="2.09024">
        <ele>25.5</ele>
        <time>2012-09-03T13:17:34.071Z</time>
      </trkpt>
      <trkpt lat="49.02943" lon="2.09024">
        <ele>25.5</ele>
        <time>2012-09-03T13:17:35.076Z</time>
      </trkpt>
      <trkpt lat="49.02943" lon="2.09024">
        <ele>25.5</ele>
        <time>2012-09-03T13:17:35.176Z</time>
      </trkpt>
      <trkpt lat="49.02957" lon="2.09057">
        <ele>27</ele>
        <time>2012-09-03T13:17:42.172Z</time>
      </trkpt>
      <trkpt lat="49.02962" lon="2.0907">
        <ele>26.3</ele>
        <time>2012-09-03T13:17:44.875Z</time>
      </trkpt>
      <trkpt lat="49.02972" lon="2.09088">
        <ele>26</ele>
        <time>2012-09-03T13:17:49.572Z</time>
      </trkpt>
      <trkpt lat="49.02974" lon="2.09145">
        <ele>30.3</ele>
        <time>2012-09-03T13:18:01.985Z</time>
      </trkpt>
      <trkpt lat="49.02963" lon="2.09184">
        <ele>28.1</ele>
        <time>2012-09-03T13:18:14.692Z</time>
      </trkpt>
      <trkpt lat="49.02932" lon="2.09186">
        <ele>26.1</ele>
        <time>2012-09-03T13:18:28.536Z</time>
      </trkpt>
      <trkpt lat="49.02918" lon="2.09188">
        <ele>25.2</ele>
        <time>2012-09-03T13:18:31.418Z</time>
      </trkpt>
      <trkpt lat="49.02888" lon="2.09185">
        <ele>24.6</ele>
        <time>2012-09-03T13:18:35.132Z</time>
      </trkpt>
      <trkpt lat="49.02853" lon="2.09178">
        <ele>22.6</ele>
        <time>2012-09-03T13:18:38.660Z</time>
      </trkpt>
      <trkpt lat="49.02832" lon="2.09173">
        <ele>22.5</ele>
        <time>2012-09-03T13:18:40.865Z</time>
      </trkpt>
      <trkpt lat="49.02808" lon="2.09169">
        <ele>22.8</ele>
        <time>2012-09-03T13:18:43.976Z</time>
      </trkpt>
      <trkpt lat="49.02788" lon="2.09166">
        <ele>1.699</ele>
        <time>2012-09-03T13:18:47.005Z</time>
      </trkpt>
      <trkpt lat="49.02776" lon="2.09164">
        <ele>2.593</ele>
        <time>2012-09-03T13:18:48.979Z</time>
      </trkpt>
      <trkpt lat="49.02759" lon="2.09161">
        <ele>3.279</ele>
        <time>2012-09-03T13:18:51.864Z</time>
      </trkpt>
      <trkpt lat="49.02748" lon="2.09159">
        <ele>3.935</ele>
        <time>2012-09-03T13:18:53.756Z</time>
      </trkpt>
      <trkpt lat="49.02733" lon="2.09156">
        <ele>4.508</ele>
        <time>2012-09-03T13:18:56.496Z</time>
      </trkpt>
      <trkpt lat="49.02715" lon="2.09152">
        <ele>5.009</ele>
        <time>2012-09-03T13:18:59.464Z</time>
      </trkpt>
      <trkpt lat="49.02704" lon="2.0915">
        <ele>5.36</ele>
        <time>2012-09-03T13:19:01.469Z</time>
      </trkpt>
      <trkpt lat="49.02689" lon="2.09146">
        <ele>5.481</ele>
        <time>2012-09-03T13:19:04.194Z</time>
      </trkpt>
      <trkpt lat="49.02674" lon="2.09142">
        <ele>5.473</ele>
        <time>2012-09-03T13:19:06.867Z</time>
      </trkpt>
      <trkpt lat="49.02658" lon="2.09136">
        <ele>5.293</ele>
        <time>2012-09-03T13:19:09.663Z</time>
      </trkpt>
      <trkpt lat="49.02639" lon="2.09126">
        <ele>4.905</ele>
        <time>2012-09-03T13:19:12.772Z</time>
      </trkpt>
      <trkpt lat="49.02628" lon="2.09108">
        <ele>4.526</ele>
        <time>2012-09-03T13:19:15.340Z</time>
      </trkpt>
      <trkpt lat="49.02611" lon="2.09101">
        <ele>4.351</ele>
        <time>2012-09-03T13:19:18.224Z</time>
      </trkpt>
      <trkpt lat="49.02595" lon="2.09092">
        <ele>4.328</ele>
        <time>2012-09-03T13:19:21.115Z</time>
      </trkpt>
      <trkpt lat="49.02579" lon="2.09085">
        <ele>4.36</ele>
        <time>2012-09-03T13:19:23.984Z</time>
      </trkpt>
      <trkpt lat="49.02563" lon="2.09081">
        <ele>4.391</ele>
        <time>2012-09-03T13:19:26.800Z</time>
      </trkpt>
      <trkpt lat="49.02549" lon="2.09076">
        <ele>4.405</ele>
        <time>2012-09-03T13:19:29.563Z</time>
      </trkpt>
      <trkpt lat="49.02539" lon="2.09072">
        <ele>4.407</ele>
        <time>2012-09-03T13:19:31.375Z</time>
      </trkpt>
      <trkpt lat="49.02529" lon="2.09066">
        <ele>4.404</ele>
        <time>2012-09-03T13:19:33.329Z</time>
      </trkpt>
      <trkpt lat="49.02512" lon="2.09058">
        <ele>4.54</ele>
        <time>2012-09-03T13:19:36.303Z</time>
      </trkpt>
      <trkpt lat="49.02494" lon="2.09049">
        <ele>4.898</ele>
        <time>2012-09-03T13:19:39.306Z</time>
      </trkpt>
      <trkpt lat="49.02479" lon="2.09042">
        <ele>5.267</ele>
        <time>2012-09-03T13:19:41.996Z</time>
      </trkpt>
      <trkpt lat="49.02464" lon="2.09033">
        <ele>5.443</ele>
        <time>2012-09-03T13:19:44.772Z</time>
      </trkpt>
      <trkpt lat="49.02451" lon="2.09025">
        <ele>5.331</ele>
        <time>2012-09-03T13:19:47.453Z</time>
      </trkpt>
      <trkpt lat="49.02435" lon="2.09014">
        <ele>4.942</ele>
        <time>2012-09-03T13:19:50.891Z</time>
      </trkpt>
      <trkpt lat="49.02422" lon="2.09007">
        <ele>4.404</ele>
        <time>2012-09-03T13:19:53.635Z</time>
      </trkpt>
      <trkpt lat="49.02412" lon="2.09001">
        <ele>3.854</ele>
        <time>2012-09-03T13:19:55.598Z</time>
      </trkpt>
      <trkpt lat="49.02399" lon="2.08994">
        <ele>3.318</ele>
        <time>2012-09-03T13:19:58.417Z</time>
      </trkpt>
      <trkpt lat="49.02391" lon="2.08987">
        <ele>2.677</ele>
        <time>2012-09-03T13:20:01.072Z</time>
      </trkpt>
      <trkpt lat="49.02391" lon="2.08987">
        <ele>1.954</ele>
        <time>2012-09-03T13:20:03.082Z</time>
      </trkpt>
      <trkpt lat="49.02391" lon="2.08987">
        <ele>1.454</ele>
        <time>2012-09-03T13:20:05.062Z</time>
      </trkpt>
      <trkpt lat="49.02391" lon="2.08987">
        <ele>1.285</ele>
        <time>2012-09-03T13:20:05.162Z</time>
      </trkpt>
      <trkpt lat="49.02381" lon="2.08929">
        <ele>1.162</ele>
        <time>2012-09-03T13:20:26.377Z</time>
      </trkpt>
      <trkpt lat="49.02381" lon="2.08904">
        <ele>1.006</ele>
        <time>2012-09-03T13:20:34.067Z</time>
      </trkpt>
      <trkpt lat="49.02389" lon="2.08882">
        <ele>1.124</ele>
        <time>2012-09-03T13:20:39.048Z</time>
      </trkpt>
      <trkpt lat="49.02393" lon="2.08868">
        <ele>1.63</ele>
        <time>2012-09-03T13:20:41.703Z</time>
      </trkpt>
      <trkpt lat="49.02398" lon="2.08852">
        <ele>2.884</ele>
        <time>2012-09-03T13:20:44.511Z</time>
      </trkpt>
      <trkpt lat="49.02403" lon="2.08834">
        <ele>5.407</ele>
        <time>2012-09-03T13:20:47.407Z</time>
      </trkpt>
      <trkpt lat="49.02409" lon="2.08817">
        <ele>8.369</ele>
        <time>2012-09-03T13:20:50.275Z</time>
      </trkpt>
      <trkpt lat="49.02415" lon="2.08799">
        <ele>10.43</ele>
        <time>2012-09-03T13:20:53.056Z</time>
      </trkpt>
      <trkpt lat="49.02421" lon="2.08782">
        <ele>11.392</ele>
        <time>2012-09-03T13:20:55.845Z</time>
      </trkpt>
      <trkpt lat="49.02426" lon="2.08766">
        <ele>11.666</ele>
        <time>2012-09-03T13:20:58.477Z</time>
      </trkpt>
      <trkpt lat="49.02432" lon="2.0875">
        <ele>11.598</ele>
        <time>2012-09-03T13:21:01.045Z</time>
      </trkpt>
      <trkpt lat="49.02437" lon="2.08733">
        <ele>11.745</ele>
        <time>2012-09-03T13:21:03.783Z</time>
      </trkpt>
      <trkpt lat="49.02443" lon="2.08715">
        <ele>12.664</ele>
        <time>2012-09-03T13:21:06.504Z</time>
      </trkpt>
      <trkpt lat="49.02448" lon="2.08699">
        <ele>14.239</ele>
        <time>2012-09-03T13:21:09.103Z</time>
      </trkpt>
      <trkpt lat="49.02453" lon="2.08681">
        <ele>15.832</ele>
        <time>2012-09-03T13:21:11.769Z</time>
      </trkpt>
      <trkpt lat="49.02458" lon="2.08663">
        <ele>17.114</ele>
        <time>2012-09-03T13:21:14.493Z</time>
      </trkpt>
      <trkpt lat="49.02464" lon="2.08646">
        <ele>18.156</ele>
        <time>2012-09-03T13:21:17.239Z</time>
      </trkpt>
      <trkpt lat="49.02471" lon="2.0863">
        <ele>18.969</ele>
        <time>2012-09-03T13:21:19.884Z</time>
      </trkpt>
      <trkpt lat="49.02476" lon="2.08613">
        <ele>19.697</ele>
        <time>2012-09-03T13:21:22.439Z</time>
      </trkpt>
      <trkpt lat="49.02482" lon="2.08595">
        <ele>20.664</ele>
        <time>2012-09-03T13:21:25.230Z</time>
      </trkpt>
      <trkpt lat="49.02487" lon="2.08576">
        <ele>21.716</ele>
        <time>2012-09-03T13:21:28.050Z</time>
      </trkpt>
      <trkpt lat="49.02492" lon="2.08558">
        <ele>22.369</ele>
        <time>2012-09-03T13:21:30.697Z</time>
      </trkpt>
      <trkpt lat="49.02497" lon="2.08541">
        <ele>22.561</ele>
        <time>2012-09-03T13:21:33.278Z</time>
      </trkpt>
      <trkpt lat="49.02503" lon="2.08525">
        <ele>22.519</ele>
        <time>2012-09-03T13:21:35.771Z</time>
      </trkpt>
      <trkpt lat="49.02508" lon="2.08512">
        <ele>22.433</ele>
        <time>2012-09-03T13:21:38.076Z</time>
      </trkpt>
      <trkpt lat="49.02508" lon="2.08512">
        <ele>22.38</ele>
        <time>2012-09-03T13:21:39.072Z</time>
      </trkpt>
      <trkpt lat="49.02508" lon="2.08512">
        <ele>22.361</ele>
        <time>2012-09-03T13:21:39.172Z</time>
      </trkpt>
      <trkpt lat="49.02515" lon="2.08492">
        <ele>22.221</ele>
        <time>2012-09-03T13:21:44.075Z</time>
      </trkpt>
      <trkpt lat="49.02515" lon="2.08492">
        <ele>21.868</ele>
        <time>2012-09-03T13:21:47.076Z</time>
      </trkpt>
      <trkpt lat="49.02515" lon="2.08492">
        <ele>21.572</ele>
        <time>2012-09-03T13:21:47.176Z</time>
      </trkpt>
      <trkpt lat="49.02507" lon="2.08459">
        <ele>21.568</ele>
        <time>2012-09-03T13:22:00.098Z</time>
      </trkpt>
      <trkpt lat="49.025" lon="2.08446">
        <ele>21.713</ele>
        <time>2012-09-03T13:22:03.487Z</time>
      </trkpt>
      <trkpt lat="49.02494" lon="2.08433">
        <ele>21.622</ele>
        <time>2012-09-03T13:22:06.357Z</time>
      </trkpt>
      <trkpt lat="49.02489" lon="2.08421">
        <ele>20.861</ele>
        <time>2012-09-03T13:22:08.894Z</time>
      </trkpt>
      <trkpt lat="49.02482" lon="2.08412">
        <ele>19.462</ele>
        <time>2012-09-03T13:22:11.423Z</time>
      </trkpt>
      <trkpt lat="49.02477" lon="2.084">
        <ele>17.957</ele>
        <time>2012-09-03T13:22:13.885Z</time>
      </trkpt>
      <trkpt lat="49.02473" lon="2.08387">
        <ele>16.691</ele>
        <time>2012-09-03T13:22:16.410Z</time>
      </trkpt>
      <trkpt lat="49.02469" lon="2.08373">
        <ele>15.636</ele>
        <time>2012-09-03T13:22:19.102Z</time>
      </trkpt>
      <trkpt lat="49.02461" lon="2.08348">
        <ele>14.809</ele>
        <time>2012-09-03T13:22:24.075Z</time>
      </trkpt>
      <trkpt lat="49.02461" lon="2.08348">
        <ele>14.349</ele>
        <time>2012-09-03T13:22:25.075Z</time>
      </trkpt>
      <trkpt lat="49.02461" lon="2.08348">
        <ele>14.232</ele>
        <time>2012-09-03T13:22:25.175Z</time>
      </trkpt>
      <trkpt lat="49.02456" lon="2.08324">
        <ele>14.13</ele>
        <time>2012-09-03T13:22:28.070Z</time>
      </trkpt>
      <trkpt lat="49.02456" lon="2.08324">
        <ele>13.837</ele>
        <time>2012-09-03T13:22:40.072Z</time>
      </trkpt>
      <trkpt lat="49.02456" lon="2.08324">
        <ele>13.575</ele>
        <time>2012-09-03T13:22:40.172Z</time>
      </trkpt>
      <trkpt lat="49.02469" lon="2.08288">
        <ele>13.572</ele>
        <time>2012-09-03T13:22:44.073Z</time>
      </trkpt>
      <trkpt lat="49.02469" lon="2.08288">
        <ele>13.704</ele>
        <time>2012-09-03T13:22:47.077Z</time>
      </trkpt>
      <trkpt lat="49.02469" lon="2.08288">
        <ele>13.785</ele>
        <time>2012-09-03T13:22:47.177Z</time>
      </trkpt>
      <trkpt lat="49.02487" lon="2.08262">
        <ele>13.757</ele>
        <time>2012-09-03T13:22:58.749Z</time>
      </trkpt>
      <trkpt lat="49.02507" lon="2.08256">
        <ele>13.66</ele>
        <time>2012-09-03T13:23:06.073Z</time>
      </trkpt>
      <trkpt lat="49.02507" lon="2.08256">
        <ele>13.577</ele>
        <time>2012-09-03T13:23:12.072Z</time>
      </trkpt>
      <trkpt lat="49.02507" lon="2.08256">
        <ele>13.542</ele>
        <time>2012-09-03T13:23:12.172Z</time>
      </trkpt>
      <trkpt lat="49.0253" lon="2.08263">
        <ele>13.54</ele>
        <time>2012-09-03T13:23:57.072Z</time>
      </trkpt>
      <trkpt lat="49.0253" lon="2.08263">
        <ele>13.543</ele>
        <time>2012-09-03T13:24:00.077Z</time>
      </trkpt>
      <trkpt lat="49.0253" lon="2.08263">
        <ele>13.539</ele>
        <time>2012-09-03T13:25:07.105Z</time>
      </trkpt>
      <trkpt lat="49.0253" lon="2.08263">
        <ele>13.526</ele>
        <time>2012-09-03T13:25:49.074Z</time>
      </trkpt>
      <trkpt lat="49.0253" lon="2.08263">
        <ele>13.525</ele>
        <time>2012-09-03T13:25:49.400Z</time>
      </trkpt>
      <trkpt lat="49.02548" lon="2.08268">
        <ele>13.525</ele>
        <time>2012-09-03T13:26:31.391Z</time>
      </trkpt>
      <trkpt lat="49.02554" lon="2.08241">
        <ele>13.525</ele>
        <time>2012-09-03T13:26:46.728Z</time>
      </trkpt>
      <trkpt lat="49.02558" lon="2.08225">
        <ele>13.526</ele>
        <time>2012-09-03T13:26:50.036Z</time>
      </trkpt>
      <trkpt lat="49.02561" lon="2.08208">
        <ele>14.476</ele>
        <time>2012-09-03T13:26:53.152Z</time>
      </trkpt>
      <trkpt lat="49.02563" lon="2.08193">
        <ele>16.946</ele>
        <time>2012-09-03T13:26:56.076Z</time>
      </trkpt>
      <trkpt lat="49.02563" lon="2.08193">
        <ele>19.481</ele>
        <time>2012-09-03T13:27:03.069Z</time>
      </trkpt>
      <trkpt lat="49.02563" lon="2.08193">
        <ele>20.684</ele>
        <time>2012-09-03T13:27:03.169Z</time>
      </trkpt>
      <trkpt lat="49.0257" lon="2.08179">
        <ele>20.738</ele>
        <time>2012-09-03T13:27:24.281Z</time>
      </trkpt>
      <trkpt lat="49.0258" lon="2.08178">
        <ele>20.051</ele>
        <time>2012-09-03T13:27:35.077Z</time>
      </trkpt>
      <trkpt lat="49.0258" lon="2.08178">
        <ele>19.116</ele>
        <time>2012-09-03T13:27:36.070Z</time>
      </trkpt>
      <trkpt lat="49.0258" lon="2.08178">
        <ele>18.46</ele>
        <time>2012-09-03T13:27:48.053Z</time>
      </trkpt>
      <trkpt lat="49.02591" lon="2.08154">
        <ele>18.331</ele>
        <time>2012-09-03T13:28:13.966Z</time>
      </trkpt>
      <trkpt lat="49.02597" lon="2.08143">
        <ele>18.653</ele>
        <time>2012-09-03T13:28:19.836Z</time>
      </trkpt>
      <trkpt lat="49.02604" lon="2.08125">
        <ele>19.114</ele>
        <time>2012-09-03T13:28:25.761Z</time>
      </trkpt>
      <trkpt lat="49.02621" lon="2.08081">
        <ele>19.399</ele>
        <time>2012-09-03T13:28:37.129Z</time>
      </trkpt>
      <trkpt lat="49.02624" lon="2.08063">
        <ele>19.472</ele>
        <time>2012-09-03T13:28:41.579Z</time>
      </trkpt>
      <trkpt lat="49.02627" lon="2.08048">
        <ele>19.446</ele>
        <time>2012-09-03T13:28:46.430Z</time>
      </trkpt>
      <trkpt lat="49.02631" lon="2.08034">
        <ele>19.544</ele>
        <time>2012-09-03T13:28:50.840Z</time>
      </trkpt>
      <trkpt lat="49.02636" lon="2.0802">
        <ele>19.881</ele>
        <time>2012-09-03T13:28:54.585Z</time>
      </trkpt>
      <trkpt lat="49.02639" lon="2.08007">
        <ele>20.244</ele>
        <time>2012-09-03T13:28:57.983Z</time>
      </trkpt>
      <trkpt lat="49.02639" lon="2.07991">
        <ele>20.56</ele>
        <time>2012-09-03T13:29:01.349Z</time>
      </trkpt>
      <trkpt lat="49.02627" lon="2.07975">
        <ele>21.088</ele>
        <time>2012-09-03T13:29:06.397Z</time>
      </trkpt>
      <trkpt lat="49.02611" lon="2.07965">
        <ele>21.927</ele>
        <time>2012-09-03T13:29:11.785Z</time>
      </trkpt>
      <trkpt lat="49.02603" lon="2.07956">
        <ele>22.94</ele>
        <time>2012-09-03T13:29:14.384Z</time>
      </trkpt>
      <trkpt lat="49.02596" lon="2.07943">
        <ele>23.995</ele>
        <time>2012-09-03T13:29:17.071Z</time>
      </trkpt>
      <trkpt lat="49.02596" lon="2.07943">
        <ele>24.894</ele>
        <time>2012-09-03T13:29:27.076Z</time>
      </trkpt>
      <trkpt lat="49.02596" lon="2.07943">
        <ele>25.408</ele>
        <time>2012-09-03T13:29:27.176Z</time>
      </trkpt>
      <trkpt lat="49.026" lon="2.07896">
        <ele>25.676</ele>
        <time>2012-09-03T13:29:42.369Z</time>
      </trkpt>
      <trkpt lat="49.02601" lon="2.07869">
        <ele>25.987</ele>
        <time>2012-09-03T13:29:47.355Z</time>
      </trkpt>
      <trkpt lat="49.02599" lon="2.07854">
        <ele>26.074</ele>
        <time>2012-09-03T13:29:49.813Z</time>
      </trkpt>
      <trkpt lat="49.02599" lon="2.07836">
        <ele>25.596</ele>
        <time>2012-09-03T13:29:52.686Z</time>
      </trkpt>
      <trkpt lat="49.02599" lon="2.07822">
        <ele>24.878</ele>
        <time>2012-09-03T13:29:54.901Z</time>
      </trkpt>
      <trkpt lat="49.026" lon="2.07806">
        <ele>24.407</ele>
        <time>2012-09-03T13:29:57.288Z</time>
      </trkpt>
      <trkpt lat="49.02598" lon="2.07786">
        <ele>24.258</ele>
        <time>2012-09-03T13:30:00.115Z</time>
      </trkpt>
      <trkpt lat="49.02593" lon="2.07771">
        <ele>24.279</ele>
        <time>2012-09-03T13:30:02.418Z</time>
      </trkpt>
      <trkpt lat="49.02584" lon="2.07758">
        <ele>24.338</ele>
        <time>2012-09-03T13:30:05.131Z</time>
      </trkpt>
      <trkpt lat="49.02574" lon="2.07747">
        <ele>24.376</ele>
        <time>2012-09-03T13:30:07.845Z</time>
      </trkpt>
      <trkpt lat="49.02567" lon="2.07738">
        <ele>24.25</ele>
        <time>2012-09-03T13:30:09.919Z</time>
      </trkpt>
      <trkpt lat="49.02558" lon="2.07723">
        <ele>23.75</ele>
        <time>2012-09-03T13:30:12.849Z</time>
      </trkpt>
      <trkpt lat="49.02557" lon="2.07704">
        <ele>22.878</ele>
        <time>2012-09-03T13:30:15.525Z</time>
      </trkpt>
      <trkpt lat="49.0256" lon="2.07684">
        <ele>21.832</ele>
        <time>2012-09-03T13:30:18.247Z</time>
      </trkpt>
      <trkpt lat="49.02567" lon="2.07665">
        <ele>20.762</ele>
        <time>2012-09-03T13:30:21.266Z</time>
      </trkpt>
      <trkpt lat="49.02573" lon="2.07653">
        <ele>19.584</ele>
        <time>2012-09-03T13:30:23.251Z</time>
      </trkpt>
      <trkpt lat="49.02582" lon="2.07637">
        <ele>18.077</ele>
        <time>2012-09-03T13:30:26.291Z</time>
      </trkpt>
      <trkpt lat="49.02591" lon="2.07623">
        <ele>16.353</ele>
        <time>2012-09-03T13:30:29.161Z</time>
      </trkpt>
      <trkpt lat="49.02598" lon="2.07609">
        <ele>14.816</ele>
        <time>2012-09-03T13:30:32.026Z</time>
      </trkpt>
      <trkpt lat="49.02605" lon="2.07595">
        <ele>13.618</ele>
        <time>2012-09-03T13:30:35.343Z</time>
      </trkpt>
      <trkpt lat="49.02612" lon="2.0758">
        <ele>12.624</ele>
        <time>2012-09-03T13:30:40.023Z</time>
      </trkpt>
      <trkpt lat="49.02618" lon="2.07566">
        <ele>11.685</ele>
        <time>2012-09-03T13:30:44.214Z</time>
      </trkpt>
      <trkpt lat="49.02624" lon="2.07553">
        <ele>10.729</ele>
        <time>2012-09-03T13:30:48.306Z</time>
      </trkpt>
      <trkpt lat="49.02647" lon="2.07514">
        <ele>9.885</ele>
        <time>2012-09-03T13:31:02.303Z</time>
      </trkpt>
      <trkpt lat="49.02675" lon="2.07494">
        <ele>9.383</ele>
        <time>2012-09-03T13:31:11.119Z</time>
      </trkpt>
      <trkpt lat="49.02705" lon="2.07486">
        <ele>9.284</ele>
        <time>2012-09-03T13:31:20.881Z</time>
      </trkpt>
      <trkpt lat="49.02731" lon="2.07471">
        <ele>9.072</ele>
        <time>2012-09-03T13:31:29.393Z</time>
      </trkpt>
      <trkpt lat="49.0274" lon="2.0746">
        <ele>8.393</ele>
        <time>2012-09-03T13:31:33.387Z</time>
      </trkpt>
      <trkpt lat="49.02738" lon="2.07438">
        <ele>6.766</ele>
        <time>2012-09-03T13:31:38.503Z</time>
      </trkpt>
      <trkpt lat="49.0274" lon="2.07421">
        <ele>4.716</ele>
        <time>2012-09-03T13:31:42.278Z</time>
      </trkpt>
      <trkpt lat="49.02748" lon="2.07406">
        <ele>1.441</ele>
        <time>2012-09-03T13:31:45.771Z</time>
      </trkpt>
      <trkpt lat="49.02755" lon="2.07392">
        <ele>28.2</ele>
        <time>2012-09-03T13:31:48.629Z</time>
      </trkpt>
      <trkpt lat="49.02759" lon="2.07378">
        <ele>28.3</ele>
        <time>2012-09-03T13:31:51.226Z</time>
      </trkpt>
      <trkpt lat="49.02766" lon="2.07368">
        <ele>28.6</ele>
        <time>2012-09-03T13:31:53.728Z</time>
      </trkpt>
      <trkpt lat="49.02772" lon="2.07354">
        <ele>28.8</ele>
        <time>2012-09-03T13:31:56.654Z</time>
      </trkpt>
      <trkpt lat="49.02778" lon="2.0734">
        <ele>29</ele>
        <time>2012-09-03T13:31:59.836Z</time>
      </trkpt>
      <trkpt lat="49.02775" lon="2.0731">
        <ele>28.9</ele>
        <time>2012-09-03T13:32:06.178Z</time>
      </trkpt>
      <trkpt lat="49.02771" lon="2.07292">
        <ele>28.4</ele>
        <time>2012-09-03T13:32:09.745Z</time>
      </trkpt>
      <trkpt lat="49.02769" lon="2.07271">
        <ele>27.9</ele>
        <time>2012-09-03T13:32:12.849Z</time>
      </trkpt>
      <trkpt lat="49.02766" lon="2.07249">
        <ele>27.6</ele>
        <time>2012-09-03T13:32:15.818Z</time>
      </trkpt>
      <trkpt lat="49.02762" lon="2.07231">
        <ele>27.4</ele>
        <time>2012-09-03T13:32:18.335Z</time>
      </trkpt>
      <trkpt lat="49.02758" lon="2.07218">
        <ele>27.3</ele>
        <time>2012-09-03T13:32:20.201Z</time>
      </trkpt>
      <trkpt lat="49.02752" lon="2.07202">
        <ele>27.1</ele>
        <time>2012-09-03T13:32:22.788Z</time>
      </trkpt>
      <trkpt lat="49.02748" lon="2.07187">
        <ele>27</ele>
        <time>2012-09-03T13:32:25.174Z</time>
      </trkpt>
      <trkpt lat="49.02732" lon="2.07182">
        <ele>27</ele>
        <time>2012-09-03T13:32:29.040Z</time>
      </trkpt>
      <trkpt lat="49.02723" lon="2.07179">
        <ele>27</ele>
        <time>2012-09-03T13:32:31.296Z</time>
      </trkpt>
      <trkpt lat="49.02712" lon="2.07181">
        <ele>26.6</ele>
        <time>2012-09-03T13:32:33.866Z</time>
      </trkpt>
      <trkpt lat="49.02703" lon="2.07187">
        <ele>26.3</ele>
        <time>2012-09-03T13:32:36.232Z</time>
      </trkpt>
      <trkpt lat="49.02692" lon="2.07197">
        <ele>26</ele>
        <time>2012-09-03T13:32:39.348Z</time>
      </trkpt>
      <trkpt lat="49.0268" lon="2.07202">
        <ele>26</ele>
        <time>2012-09-03T13:32:42.321Z</time>
      </trkpt>
      <trkpt lat="49.02669" lon="2.07208">
        <ele>26</ele>
        <time>2012-09-03T13:32:45.071Z</time>
      </trkpt>
      <trkpt lat="49.02669" lon="2.07208">
        <ele>26</ele>
        <time>2012-09-03T13:32:46.070Z</time>
      </trkpt>
      <trkpt lat="49.02669" lon="2.07208">
        <ele>26</ele>
        <time>2012-09-03T13:32:46.170Z</time>
      </trkpt>
      <trkpt lat="49.02656" lon="2.07218">
        <ele>26</ele>
        <time>2012-09-03T13:32:50.268Z</time>
      </trkpt>
      <trkpt lat="49.02645" lon="2.0723">
        <ele>26</ele>
        <time>2012-09-03T13:32:52.699Z</time>
      </trkpt>
      <trkpt lat="49.02637" lon="2.07238">
        <ele>25.9</ele>
        <time>2012-09-03T13:32:54.355Z</time>
      </trkpt>
      <trkpt lat="49.02628" lon="2.07245">
        <ele>25.6</ele>
        <time>2012-09-03T13:32:56.072Z</time>
      </trkpt>
      <trkpt lat="49.02628" lon="2.07245">
        <ele>25.6</ele>
        <time>2012-09-03T13:33:00.070Z</time>
      </trkpt>
      <trkpt lat="49.02628" lon="2.07245">
        <ele>25.6</ele>
        <time>2012-09-03T13:33:00.170Z</time>
      </trkpt>
      <trkpt lat="49.02606" lon="2.07273">
        <ele>25.8</ele>
        <time>2012-09-03T13:33:05.070Z</time>
      </trkpt>
      <trkpt lat="49.02606" lon="2.07273">
        <ele>25.8</ele>
        <time>2012-09-03T13:33:08.074Z</time>
      </trkpt>
      <trkpt lat="49.02606" lon="2.07273">
        <ele>25.8</ele>
        <time>2012-09-03T13:33:08.174Z</time>
      </trkpt>
      <trkpt lat="49.02589" lon="2.07291">
        <ele>26</ele>
        <time>2012-09-03T13:33:13.938Z</time>
      </trkpt>
      <trkpt lat="49.02577" lon="2.073">
        <ele>26</ele>
        <time>2012-09-03T13:33:16.404Z</time>
      </trkpt>
      <trkpt lat="49.0256" lon="2.07313">
        <ele>26.2</ele>
        <time>2012-09-03T13:33:19.530Z</time>
      </trkpt>
      <trkpt lat="49.02545" lon="2.07325">
        <ele>26.7</ele>
        <time>2012-09-03T13:33:21.773Z</time>
      </trkpt>
      <trkpt lat="49.02535" lon="2.07332">
        <ele>27</ele>
        <time>2012-09-03T13:33:23.076Z</time>
      </trkpt>
      <trkpt lat="49.02535" lon="2.07332">
        <ele>27</ele>
        <time>2012-09-03T13:33:26.078Z</time>
      </trkpt>
      <trkpt lat="49.02535" lon="2.07332">
        <ele>27</ele>
        <time>2012-09-03T13:33:26.178Z</time>
      </trkpt>
      <trkpt lat="49.02528" lon="2.07355">
        <ele>27</ele>
        <time>2012-09-03T13:33:30.075Z</time>
      </trkpt>
      <trkpt lat="49.02528" lon="2.07355">
        <ele>27</ele>
        <time>2012-09-03T13:33:37.079Z</time>
      </trkpt>
      <trkpt lat="49.02528" lon="2.07355">
        <ele>27</ele>
        <time>2012-09-03T13:33:37.179Z</time>
      </trkpt>
      <trkpt lat="49.02523" lon="2.07405">
        <ele>27.4</ele>
        <time>2012-09-03T13:33:53.665Z</time>
      </trkpt>
      <trkpt lat="49.0251" lon="2.07428">
        <ele>27.4</ele>
        <time>2012-09-03T13:33:56.436Z</time>
      </trkpt>
      <trkpt lat="49.02495" lon="2.07451">
        <ele>26.8</ele>
        <time>2012-09-03T13:33:59.091Z</time>
      </trkpt>
      <trkpt lat="49.02475" lon="2.07479">
        <ele>26.1</ele>
        <time>2012-09-03T13:34:02.692Z</time>
      </trkpt>
      <trkpt lat="49.02463" lon="2.07494">
        <ele>26</ele>
        <time>2012-09-03T13:34:04.914Z</time>
      </trkpt>
      <trkpt lat="49.0245" lon="2.07502">
        <ele>26</ele>
        <time>2012-09-03T13:34:06.954Z</time>
      </trkpt>
      <trkpt lat="49.0243" lon="2.07511">
        <ele>26</ele>
        <time>2012-09-03T13:34:09.924Z</time>
      </trkpt>
      <trkpt lat="49.02413" lon="2.07517">
        <ele>26</ele>
        <time>2012-09-03T13:34:12.504Z</time>
      </trkpt>
      <trkpt lat="49.02398" lon="2.07521">
        <ele>26</ele>
        <time>2012-09-03T13:34:14.809Z</time>
      </trkpt>
      <trkpt lat="49.02388" lon="2.07524">
        <ele>26</ele>
        <time>2012-09-03T13:34:16.478Z</time>
      </trkpt>
      <trkpt lat="49.02379" lon="2.07522">
        <ele>26</ele>
        <time>2012-09-03T13:34:18.079Z</time>
      </trkpt>
      <trkpt lat="49.02379" lon="2.07522">
        <ele>26</ele>
        <time>2012-09-03T13:34:19.077Z</time>
      </trkpt>
      <trkpt lat="49.02379" lon="2.07522">
        <ele>26</ele>
        <time>2012-09-03T13:34:19.177Z</time>
      </trkpt>
      <trkpt lat="49.02379" lon="2.07498">
        <ele>26</ele>
        <time>2012-09-03T13:34:27.533Z</time>
      </trkpt>
      <trkpt lat="49.02382" lon="2.07481">
        <ele>25.8</ele>
        <time>2012-09-03T13:34:31.240Z</time>
      </trkpt>
      <trkpt lat="49.02386" lon="2.07467">
        <ele>25.9</ele>
        <time>2012-09-03T13:34:34.108Z</time>
      </trkpt>
      <trkpt lat="49.0239" lon="2.07452">
        <ele>26</ele>
        <time>2012-09-03T13:34:37.064Z</time>
      </trkpt>
      <trkpt lat="49.02394" lon="2.07435">
        <ele>26</ele>
        <time>2012-09-03T13:34:40.006Z</time>
      </trkpt>
      <trkpt lat="49.02398" lon="2.07418">
        <ele>26</ele>
        <time>2012-09-03T13:34:43.053Z</time>
      </trkpt>
      <trkpt lat="49.02402" lon="2.07403">
        <ele>26</ele>
        <time>2012-09-03T13:34:45.864Z</time>
      </trkpt>
      <trkpt lat="49.02407" lon="2.07387">
        <ele>26</ele>
        <time>2012-09-03T13:34:48.673Z</time>
      </trkpt>
      <trkpt lat="49.02413" lon="2.07372">
        <ele>26.5</ele>
        <time>2012-09-03T13:34:51.520Z</time>
      </trkpt>
      <trkpt lat="49.02419" lon="2.07357">
        <ele>26.8</ele>
        <time>2012-09-03T13:34:54.297Z</time>
      </trkpt>
      <trkpt lat="49.02425" lon="2.07342">
        <ele>26</ele>
        <time>2012-09-03T13:34:57.085Z</time>
      </trkpt>
      <trkpt lat="49.02433" lon="2.07327">
        <ele>25.5</ele>
        <time>2012-09-03T13:35:00.152Z</time>
      </trkpt>
      <trkpt lat="49.02441" lon="2.07311">
        <ele>25.8</ele>
        <time>2012-09-03T13:35:03.163Z</time>
      </trkpt>
      <trkpt lat="49.02449" lon="2.07295">
        <ele>0.194</ele>
        <time>2012-09-03T13:35:06.165Z</time>
      </trkpt>
      <trkpt lat="49.02458" lon="2.0728">
        <ele>1.178</ele>
        <time>2012-09-03T13:35:09.120Z</time>
      </trkpt>
      <trkpt lat="49.02466" lon="2.07265">
        <ele>1.973</ele>
        <time>2012-09-03T13:35:12.035Z</time>
      </trkpt>
      <trkpt lat="49.02474" lon="2.07254">
        <ele>2.567</ele>
        <time>2012-09-03T13:35:14.135Z</time>
      </trkpt>
      <trkpt lat="49.02485" lon="2.07238">
        <ele>3.043</ele>
        <time>2012-09-03T13:35:17.419Z</time>
      </trkpt>
      <trkpt lat="49.02493" lon="2.07228">
        <ele>3.37</ele>
        <time>2012-09-03T13:35:19.541Z</time>
      </trkpt>
      <trkpt lat="49.02505" lon="2.07213">
        <ele>3.48</ele>
        <time>2012-09-03T13:35:22.737Z</time>
      </trkpt>
      <trkpt lat="49.02516" lon="2.07199">
        <ele>3.47</ele>
        <time>2012-09-03T13:35:25.768Z</time>
      </trkpt>
      <trkpt lat="49.02523" lon="2.07189">
        <ele>3.569</ele>
        <time>2012-09-03T13:35:27.798Z</time>
      </trkpt>
      <trkpt lat="49.02534" lon="2.07173">
        <ele>3.903</ele>
        <time>2012-09-03T13:35:30.771Z</time>
      </trkpt>
      <trkpt lat="49.02542" lon="2.07163">
        <ele>4.263</ele>
        <time>2012-09-03T13:35:32.793Z</time>
      </trkpt>
      <trkpt lat="49.0255" lon="2.07152">
        <ele>4.578</ele>
        <time>2012-09-03T13:35:34.923Z</time>
      </trkpt>
      <trkpt lat="49.02564" lon="2.07137">
        <ele>4.968</ele>
        <time>2012-09-03T13:35:38.169Z</time>
      </trkpt>
      <trkpt lat="49.02578" lon="2.07123">
        <ele>5.447</ele>
        <time>2012-09-03T13:35:41.159Z</time>
      </trkpt>
      <trkpt lat="49.02587" lon="2.07114">
        <ele>5.953</ele>
        <time>2012-09-03T13:35:43.194Z</time>
      </trkpt>
      <trkpt lat="49.02602" lon="2.07102">
        <ele>6.335</ele>
        <time>2012-09-03T13:35:46.206Z</time>
      </trkpt>
      <trkpt lat="49.02612" lon="2.07094">
        <ele>6.616</ele>
        <time>2012-09-03T13:35:48.193Z</time>
      </trkpt>
      <trkpt lat="49.02626" lon="2.07081">
        <ele>6.975</ele>
        <time>2012-09-03T13:35:51.123Z</time>
      </trkpt>
      <trkpt lat="49.02635" lon="2.07072">
        <ele>7.303</ele>
        <time>2012-09-03T13:35:53.064Z</time>
      </trkpt>
      <trkpt lat="49.02648" lon="2.07059">
        <ele>7.447</ele>
        <time>2012-09-03T13:35:55.918Z</time>
      </trkpt>
      <trkpt lat="49.02661" lon="2.07045">
        <ele>7.462</ele>
        <time>2012-09-03T13:35:58.711Z</time>
      </trkpt>
      <trkpt lat="49.0267" lon="2.07035">
        <ele>7.432</ele>
        <time>2012-09-03T13:36:00.607Z</time>
      </trkpt>
      <trkpt lat="49.02683" lon="2.07019">
        <ele>7.406</ele>
        <time>2012-09-03T13:36:03.532Z</time>
      </trkpt>
      <trkpt lat="49.02697" lon="2.07003">
        <ele>7.532</ele>
        <time>2012-09-03T13:36:06.465Z</time>
      </trkpt>
      <trkpt lat="49.02711" lon="2.06987">
        <ele>7.891</ele>
        <time>2012-09-03T13:36:09.412Z</time>
      </trkpt>
      <trkpt lat="49.0272" lon="2.06979">
        <ele>8.54</ele>
        <time>2012-09-03T13:36:11.322Z</time>
      </trkpt>
      <trkpt lat="49.02734" lon="2.06968">
        <ele>9.437</ele>
        <time>2012-09-03T13:36:14.085Z</time>
      </trkpt>
      <trkpt lat="49.02748" lon="2.06958">
        <ele>10.203</ele>
        <time>2012-09-03T13:36:16.880Z</time>
      </trkpt>
      <trkpt lat="49.02758" lon="2.06951">
        <ele>10.524</ele>
        <time>2012-09-03T13:36:18.757Z</time>
      </trkpt>
      <trkpt lat="49.02771" lon="2.06938">
        <ele>10.547</ele>
        <time>2012-09-03T13:36:21.564Z</time>
      </trkpt>
      <trkpt lat="49.02783" lon="2.06925">
        <ele>10.611</ele>
        <time>2012-09-03T13:36:24.286Z</time>
      </trkpt>
      <trkpt lat="49.02793" lon="2.06909">
        <ele>10.908</ele>
        <time>2012-09-03T13:36:27.025Z</time>
      </trkpt>
      <trkpt lat="49.028" lon="2.06898">
        <ele>11.39</ele>
        <time>2012-09-03T13:36:28.862Z</time>
      </trkpt>
      <trkpt lat="49.0281" lon="2.06881">
        <ele>12.062</ele>
        <time>2012-09-03T13:36:31.688Z</time>
      </trkpt>
      <trkpt lat="49.02817" lon="2.06869">
        <ele>13.101</ele>
        <time>2012-09-03T13:36:33.598Z</time>
      </trkpt>
      <trkpt lat="49.02829" lon="2.06852">
        <ele>14.478</ele>
        <time>2012-09-03T13:36:36.530Z</time>
      </trkpt>
      <trkpt lat="49.0284" lon="2.06834">
        <ele>15.889</ele>
        <time>2012-09-03T13:36:39.394Z</time>
      </trkpt>
      <trkpt lat="49.02847" lon="2.06823">
        <ele>16.952</ele>
        <time>2012-09-03T13:36:41.284Z</time>
      </trkpt>
      <trkpt lat="49.02859" lon="2.06806">
        <ele>17.487</ele>
        <time>2012-09-03T13:36:44.078Z</time>
      </trkpt>
      <trkpt lat="49.02859" lon="2.06806">
        <ele>17.586</ele>
        <time>2012-09-03T13:36:47.071Z</time>
      </trkpt>
      <trkpt lat="49.02859" lon="2.06806">
        <ele>17.509</ele>
        <time>2012-09-03T13:36:47.171Z</time>
      </trkpt>
      <trkpt lat="49.02875" lon="2.0678">
        <ele>17.422</ele>
        <time>2012-09-03T13:36:58.240Z</time>
      </trkpt>
      <trkpt lat="49.02881" lon="2.06769">
        <ele>17.379</ele>
        <time>2012-09-03T13:37:00.069Z</time>
      </trkpt>
      <trkpt lat="49.02881" lon="2.06769">
        <ele>17.372</ele>
        <time>2012-09-03T13:37:04.069Z</time>
      </trkpt>
      <trkpt lat="49.02881" lon="2.06769">
        <ele>17.374</ele>
        <time>2012-09-03T13:37:04.169Z</time>
      </trkpt>
      <trkpt lat="49.02894" lon="2.06735">
        <ele>17.37</ele>
        <time>2012-09-03T13:37:15.864Z</time>
      </trkpt>
      <trkpt lat="49.02896" lon="2.0672">
        <ele>17.227</ele>
        <time>2012-09-03T13:37:18.303Z</time>
      </trkpt>
      <trkpt lat="49.02889" lon="2.06701">
        <ele>16.735</ele>
        <time>2012-09-03T13:37:21.214Z</time>
      </trkpt>
      <trkpt lat="49.02877" lon="2.0668">
        <ele>15.602</ele>
        <time>2012-09-03T13:37:24.856Z</time>
      </trkpt>
      <trkpt lat="49.02865" lon="2.06656">
        <ele>13.845</ele>
        <time>2012-09-03T13:37:28.752Z</time>
      </trkpt>
      <trkpt lat="49.02858" lon="2.06642">
        <ele>12.177</ele>
        <time>2012-09-03T13:37:31.060Z</time>
      </trkpt>
      <trkpt lat="49.02849" lon="2.06621">
        <ele>11.147</ele>
        <time>2012-09-03T13:37:34.222Z</time>
      </trkpt>
      <trkpt lat="49.02843" lon="2.06608">
        <ele>10.453</ele>
        <time>2012-09-03T13:37:36.241Z</time>
      </trkpt>
      <trkpt lat="49.02837" lon="2.06596">
        <ele>9.831</ele>
        <time>2012-09-03T13:37:38.233Z</time>
      </trkpt>
      <trkpt lat="49.0283" lon="2.06585">
        <ele>9.284</ele>
        <time>2012-09-03T13:37:40.154Z</time>
      </trkpt>
      <trkpt lat="49.02821" lon="2.0657">
        <ele>8.795</ele>
        <time>2012-09-03T13:37:42.789Z</time>
      </trkpt>
      <trkpt lat="49.02815" lon="2.06555">
        <ele>8.306</ele>
        <time>2012-09-03T13:37:45.196Z</time>
      </trkpt>
      <trkpt lat="49.02806" lon="2.06542">
        <ele>7.822</ele>
        <time>2012-09-03T13:37:47.595Z</time>
      </trkpt>
      <trkpt lat="49.02799" lon="2.06532">
        <ele>7.32</ele>
        <time>2012-09-03T13:37:49.318Z</time>
      </trkpt>
      <trkpt lat="49.02791" lon="2.06516">
        <ele>6.826</ele>
        <time>2012-09-03T13:37:51.922Z</time>
      </trkpt>
      <trkpt lat="49.02782" lon="2.06501">
        <ele>6.458</ele>
        <time>2012-09-03T13:37:54.490Z</time>
      </trkpt>
      <trkpt lat="49.02776" lon="2.0649">
        <ele>6.323</ele>
        <time>2012-09-03T13:37:56.292Z</time>
      </trkpt>
      <trkpt lat="49.02769" lon="2.06476">
        <ele>6.326</ele>
        <time>2012-09-03T13:37:58.675Z</time>
      </trkpt>
      <trkpt lat="49.02762" lon="2.06464">
        <ele>6.366</ele>
        <time>2012-09-03T13:38:00.880Z</time>
      </trkpt>
      <trkpt lat="49.02755" lon="2.06454">
        <ele>6.396</ele>
        <time>2012-09-03T13:38:03.097Z</time>
      </trkpt>
      <trkpt lat="49.02746" lon="2.06429">
        <ele>6.545</ele>
        <time>2012-09-03T13:38:07.718Z</time>
      </trkpt>
      <trkpt lat="49.0274" lon="2.06417">
        <ele>6.905</ele>
        <time>2012-09-03T13:38:10.163Z</time>
      </trkpt>
      <trkpt lat="49.02731" lon="2.064">
        <ele>7.409</ele>
        <time>2012-09-03T13:38:14.056Z</time>
      </trkpt>
      <trkpt lat="49.02725" lon="2.06389">
        <ele>7.942</ele>
        <time>2012-09-03T13:38:16.168Z</time>
      </trkpt>
      <trkpt lat="49.02719" lon="2.06379">
        <ele>8.475</ele>
        <time>2012-09-03T13:38:18.072Z</time>
      </trkpt>
      <trkpt lat="49.02719" lon="2.06379">
        <ele>8.98</ele>
        <time>2012-09-03T13:38:19.075Z</time>
      </trkpt>
      <trkpt lat="49.02719" lon="2.06379">
        <ele>9.346</ele>
        <time>2012-09-03T13:38:19.175Z</time>
      </trkpt>
      <trkpt lat="49.02705" lon="2.06354">
        <ele>9.477</ele>
        <time>2012-09-03T13:38:25.807Z</time>
      </trkpt>
      <trkpt lat="49.02697" lon="2.0634">
        <ele>9.472</ele>
        <time>2012-09-03T13:38:28.413Z</time>
      </trkpt>
      <trkpt lat="49.02689" lon="2.06326">
        <ele>9.43</ele>
        <time>2012-09-03T13:38:30.954Z</time>
      </trkpt>
      <trkpt lat="49.02681" lon="2.06308">
        <ele>9.401</ele>
        <time>2012-09-03T13:38:33.813Z</time>
      </trkpt>
      <trkpt lat="49.02676" lon="2.06294">
        <ele>9.331</ele>
        <time>2012-09-03T13:38:35.766Z</time>
      </trkpt>
      <trkpt lat="49.02668" lon="2.06276">
        <ele>9.237</ele>
        <time>2012-09-03T13:38:38.355Z</time>
      </trkpt>
      <trkpt lat="49.0266" lon="2.06261">
        <ele>9.236</ele>
        <time>2012-09-03T13:38:40.690Z</time>
      </trkpt>
      <trkpt lat="49.02654" lon="2.06244">
        <ele>9.321</ele>
        <time>2012-09-03T13:38:43.074Z</time>
      </trkpt>
      <trkpt lat="49.02654" lon="2.06244">
        <ele>9.386</ele>
        <time>2012-09-03T13:38:45.062Z</time>
      </trkpt>
      <trkpt lat="49.02654" lon="2.06244">
        <ele>9.407</ele>
        <time>2012-09-03T13:38:45.162Z</time>
      </trkpt>
      <trkpt lat="49.02636" lon="2.06202">
        <ele>9.399</ele>
        <time>2012-09-03T13:38:53.573Z</time>
      </trkpt>
      <trkpt lat="49.02626" lon="2.06181">
        <ele>9.384</ele>
        <time>2012-09-03T13:38:56.930Z</time>
      </trkpt>
      <trkpt lat="49.0262" lon="2.06167">
        <ele>9.366</ele>
        <time>2012-09-03T13:38:59.078Z</time>
      </trkpt>
      <trkpt lat="49.02614" lon="2.06154">
        <ele>9.214</ele>
        <time>2012-09-03T13:39:01.109Z</time>
      </trkpt>
      <trkpt lat="49.02604" lon="2.06135">
        <ele>8.862</ele>
        <time>2012-09-03T13:39:04.368Z</time>
      </trkpt>
      <trkpt lat="49.02595" lon="2.06117">
        <ele>8.514</ele>
        <time>2012-09-03T13:39:07.148Z</time>
      </trkpt>
      <trkpt lat="49.02586" lon="2.06099">
        <ele>8.353</ele>
        <time>2012-09-03T13:39:10.072Z</time>
      </trkpt>
      <trkpt lat="49.0258" lon="2.06088">
        <ele>8.193</ele>
        <time>2012-09-03T13:39:11.898Z</time>
      </trkpt>
      <trkpt lat="49.02571" lon="2.06068">
        <ele>7.862</ele>
        <time>2012-09-03T13:39:15.003Z</time>
      </trkpt>
      <trkpt lat="49.02564" lon="2.06048">
        <ele>7.521</ele>
        <time>2012-09-03T13:39:18.034Z</time>
      </trkpt>
      <trkpt lat="49.02557" lon="2.06029">
        <ele>7.359</ele>
        <time>2012-09-03T13:39:20.992Z</time>
      </trkpt>
      <trkpt lat="49.02549" lon="2.06011">
        <ele>7.334</ele>
        <time>2012-09-03T13:39:23.920Z</time>
      </trkpt>
      <trkpt lat="49.0254" lon="2.05996">
        <ele>7.361</ele>
        <time>2012-09-03T13:39:26.748Z</time>
      </trkpt>
      <trkpt lat="49.0253" lon="2.05981">
        <ele>7.251</ele>
        <time>2012-09-03T13:39:29.745Z</time>
      </trkpt>
      <trkpt lat="49.02521" lon="2.05967">
        <ele>6.904</ele>
        <time>2012-09-03T13:39:32.668Z</time>
      </trkpt>
      <trkpt lat="49.02512" lon="2.05954">
        <ele>6.398</ele>
        <time>2012-09-03T13:39:35.375Z</time>
      </trkpt>
      <trkpt lat="49.02503" lon="2.0594">
        <ele>5.861</ele>
        <time>2012-09-03T13:39:38.005Z</time>
      </trkpt>
      <trkpt lat="49.02496" lon="2.0593">
        <ele>5.324</ele>
        <time>2012-09-03T13:39:40.011Z</time>
      </trkpt>
      <trkpt lat="49.02489" lon="2.05921">
        <ele>4.818</ele>
        <time>2012-09-03T13:39:41.955Z</time>
      </trkpt>
      <trkpt lat="49.0248" lon="2.05905">
        <ele>4.452</ele>
        <time>2012-09-03T13:39:44.870Z</time>
      </trkpt>
      <trkpt lat="49.02476" lon="2.05886">
        <ele>4.321</ele>
        <time>2012-09-03T13:39:47.607Z</time>
      </trkpt>
      <trkpt lat="49.02476" lon="2.0587">
        <ele>4.327</ele>
        <time>2012-09-03T13:39:49.429Z</time>
      </trkpt>
      <trkpt lat="49.02482" lon="2.05845">
        <ele>4.368</ele>
        <time>2012-09-03T13:39:52.225Z</time>
      </trkpt>
      <trkpt lat="49.02496" lon="2.05817">
        <ele>4.398</ele>
        <time>2012-09-03T13:39:55.332Z</time>
      </trkpt>
      <trkpt lat="49.02511" lon="2.05793">
        <ele>4.409</ele>
        <time>2012-09-03T13:39:58.401Z</time>
      </trkpt>
      <trkpt lat="49.02525" lon="2.05772">
        <ele>4.408</ele>
        <time>2012-09-03T13:40:01.356Z</time>
      </trkpt>
      <trkpt lat="49.02533" lon="2.05759">
        <ele>4.543</ele>
        <time>2012-09-03T13:40:03.229Z</time>
      </trkpt>
      <trkpt lat="49.02541" lon="2.05748">
        <ele>5.038</ele>
        <time>2012-09-03T13:40:05.069Z</time>
      </trkpt>
      <trkpt lat="49.02549" lon="2.05737">
        <ele>6.043</ele>
        <time>2012-09-03T13:40:06.842Z</time>
      </trkpt>
      <trkpt lat="49.02561" lon="2.05721">
        <ele>7.308</ele>
        <time>2012-09-03T13:40:09.702Z</time>
      </trkpt>
      <trkpt lat="49.02569" lon="2.0571">
        <ele>8.249</ele>
        <time>2012-09-03T13:40:12.111Z</time>
      </trkpt>
      <trkpt lat="49.02575" lon="2.05699">
        <ele>8.596</ele>
        <time>2012-09-03T13:40:14.703Z</time>
      </trkpt>
      <trkpt lat="49.02581" lon="2.05685">
        <ele>8.589</ele>
        <time>2012-09-03T13:40:17.815Z</time>
      </trkpt>
      <trkpt lat="49.02587" lon="2.05672">
        <ele>8.485</ele>
        <time>2012-09-03T13:40:21.090Z</time>
      </trkpt>
      <trkpt lat="49.02593" lon="2.05657">
        <ele>8.409</ele>
        <time>2012-09-03T13:40:24.781Z</time>
      </trkpt>
      <trkpt lat="49.02598" lon="2.05642">
        <ele>8.658</ele>
        <time>2012-09-03T13:40:27.866Z</time>
      </trkpt>
      <trkpt lat="49.02605" lon="2.05625">
        <ele>9.516</ele>
        <time>2012-09-03T13:40:31.090Z</time>
      </trkpt>
      <trkpt lat="49.02611" lon="2.05608">
        <ele>10.624</ele>
        <time>2012-09-03T13:40:34.066Z</time>
      </trkpt>
      <trkpt lat="49.02611" lon="2.05608">
        <ele>11.35</ele>
        <time>2012-09-03T13:40:39.067Z</time>
      </trkpt>
      <trkpt lat="49.02611" lon="2.05608">
        <ele>11.581</ele>
        <time>2012-09-03T13:40:39.167Z</time>
      </trkpt>
      <trkpt lat="49.02612" lon="2.05575">
        <ele>11.547</ele>
        <time>2012-09-03T13:40:47.014Z</time>
      </trkpt>
      <trkpt lat="49.02609" lon="2.05559">
        <ele>11.456</ele>
        <time>2012-09-03T13:40:49.464Z</time>
      </trkpt>
      <trkpt lat="49.02607" lon="2.05541">
        <ele>11.397</ele>
        <time>2012-09-03T13:40:52.134Z</time>
      </trkpt>
      <trkpt lat="49.02602" lon="2.05523">
        <ele>11.379</ele>
        <time>2012-09-03T13:40:54.875Z</time>
      </trkpt>
      <trkpt lat="49.02595" lon="2.05507">
        <ele>11.374</ele>
        <time>2012-09-03T13:40:57.677Z</time>
      </trkpt>
      <trkpt lat="49.02584" lon="2.05494">
        <ele>11.361</ele>
        <time>2012-09-03T13:41:00.664Z</time>
      </trkpt>
      <trkpt lat="49.02576" lon="2.05486">
        <ele>11.214</ele>
        <time>2012-09-03T13:41:02.633Z</time>
      </trkpt>
      <trkpt lat="49.02564" lon="2.05473">
        <ele>10.866</ele>
        <time>2012-09-03T13:41:05.544Z</time>
      </trkpt>
      <trkpt lat="49.02556" lon="2.05464">
        <ele>10.516</ele>
        <time>2012-09-03T13:41:07.440Z</time>
      </trkpt>
      <trkpt lat="49.02544" lon="2.05447">
        <ele>10.352</ele>
        <time>2012-09-03T13:41:10.479Z</time>
      </trkpt>
      <trkpt lat="49.02537" lon="2.05436">
        <ele>10.329</ele>
        <time>2012-09-03T13:41:12.439Z</time>
      </trkpt>
      <trkpt lat="49.02527" lon="2.05418">
        <ele>10.358</ele>
        <time>2012-09-03T13:41:15.376Z</time>
      </trkpt>
      <trkpt lat="49.0252" lon="2.05405">
        <ele>10.524</ele>
        <time>2012-09-03T13:41:17.326Z</time>
      </trkpt>
      <trkpt lat="49.02512" lon="2.05386">
        <ele>11.035</ele>
        <time>2012-09-03T13:41:20.097Z</time>
      </trkpt>
      <trkpt lat="49.02506" lon="2.05367">
        <ele>11.766</ele>
        <time>2012-09-03T13:41:22.839Z</time>
      </trkpt>
      <trkpt lat="49.02504" lon="2.05345">
        <ele>12.447</ele>
        <time>2012-09-03T13:41:25.607Z</time>
      </trkpt>
      <trkpt lat="49.02503" lon="2.05324">
        <ele>13.144</ele>
        <time>2012-09-03T13:41:28.372Z</time>
      </trkpt>
      <trkpt lat="49.02504" lon="2.05306">
        <ele>14.007</ele>
        <time>2012-09-03T13:41:30.963Z</time>
      </trkpt>
      <trkpt lat="49.02506" lon="2.05289">
        <ele>14.852</ele>
        <time>2012-09-03T13:41:33.357Z</time>
      </trkpt>
      <trkpt lat="49.02507" lon="2.05274">
        <ele>15.517</ele>
        <time>2012-09-03T13:41:35.779Z</time>
      </trkpt>
      <trkpt lat="49.02509" lon="2.05258">
        <ele>16.033</ele>
        <time>2012-09-03T13:41:38.375Z</time>
      </trkpt>
      <trkpt lat="49.02514" lon="2.05243">
        <ele>16.369</ele>
        <time>2012-09-03T13:41:41.070Z</time>
      </trkpt>
      <trkpt lat="49.02514" lon="2.05243">
        <ele>16.475</ele>
        <time>2012-09-03T13:41:42.065Z</time>
      </trkpt>
      <trkpt lat="49.02514" lon="2.05243">
        <ele>16.459</ele>
        <time>2012-09-03T13:41:42.165Z</time>
      </trkpt>
      <trkpt lat="49.02521" lon="2.05215">
        <ele>16.426</ele>
        <time>2012-09-03T13:41:49.119Z</time>
      </trkpt>
      <trkpt lat="49.02515" lon="2.05201">
        <ele>16.424</ele>
        <time>2012-09-03T13:41:51.939Z</time>
      </trkpt>
      <trkpt lat="49.02507" lon="2.0519">
        <ele>16.44</ele>
        <time>2012-09-03T13:41:54.665Z</time>
      </trkpt>
      <trkpt lat="49.02498" lon="2.05178">
        <ele>16.444</ele>
        <time>2012-09-03T13:41:57.698Z</time>
      </trkpt>
      <trkpt lat="49.02488" lon="2.05166">
        <ele>16.42</ele>
        <time>2012-09-03T13:42:00.821Z</time>
      </trkpt>
      <trkpt lat="49.02478" lon="2.05155">
        <ele>16.248</ele>
        <time>2012-09-03T13:42:03.960Z</time>
      </trkpt>
      <trkpt lat="49.02469" lon="2.05145">
        <ele>15.875</ele>
        <time>2012-09-03T13:42:06.906Z</time>
      </trkpt>
      <trkpt lat="49.0246" lon="2.05131">
        <ele>15.51</ele>
        <time>2012-09-03T13:42:10.301Z</time>
      </trkpt>
      <trkpt lat="49.02451" lon="2.05118">
        <ele>15.342</ele>
        <time>2012-09-03T13:42:13.494Z</time>
      </trkpt>
      <trkpt lat="49.02441" lon="2.05105">
        <ele>15.319</ele>
        <time>2012-09-03T13:42:16.955Z</time>
      </trkpt>
      <trkpt lat="49.02429" lon="2.05101">
        <ele>15.35</ele>
        <time>2012-09-03T13:42:20.142Z</time>
      </trkpt>
      <trkpt lat="49.02417" lon="2.05097">
        <ele>15.38</ele>
        <time>2012-09-03T13:42:23.084Z</time>
      </trkpt>
      <trkpt lat="49.02414" lon="2.05083">
        <ele>15.394</ele>
        <time>2012-09-03T13:42:25.414Z</time>
      </trkpt>
      <trkpt lat="49.02405" lon="2.05073">
        <ele>15.257</ele>
        <time>2012-09-03T13:42:27.731Z</time>
      </trkpt>
      <trkpt lat="49.02398" lon="2.05054">
        <ele>14.894</ele>
        <time>2012-09-03T13:42:30.702Z</time>
      </trkpt>
      <trkpt lat="49.02393" lon="2.05032">
        <ele>14.384</ele>
        <time>2012-09-03T13:42:34.956Z</time>
      </trkpt>
      <trkpt lat="49.02393" lon="2.05009">
        <ele>13.848</ele>
        <time>2012-09-03T13:42:39.967Z</time>
      </trkpt>
      <trkpt lat="49.02407" lon="2.04959">
        <ele>13.452</ele>
        <time>2012-09-03T13:42:52.067Z</time>
      </trkpt>
      <trkpt lat="49.02407" lon="2.04959">
        <ele>13.307</ele>
        <time>2012-09-03T13:42:53.066Z</time>
      </trkpt>
      <trkpt lat="49.02407" lon="2.04959">
        <ele>13.311</ele>
        <time>2012-09-03T13:42:56.414Z</time>
      </trkpt>
      <trkpt lat="49.02415" lon="2.04919">
        <ele>13.341</ele>
        <time>2012-09-03T13:43:11.002Z</time>
      </trkpt>
      <trkpt lat="49.02417" lon="2.04902">
        <ele>13.213</ele>
        <time>2012-09-03T13:43:14.605Z</time>
      </trkpt>
      <trkpt lat="49.02419" lon="2.04883">
        <ele>12.587</ele>
        <time>2012-09-03T13:43:18.797Z</time>
      </trkpt>
      <trkpt lat="49.02423" lon="2.04858">
        <ele>11.379</ele>
        <time>2012-09-03T13:43:23.762Z</time>
      </trkpt>
      <trkpt lat="49.02424" lon="2.0484">
        <ele>9.978</ele>
        <time>2012-09-03T13:43:26.586Z</time>
      </trkpt>
      <trkpt lat="49.02421" lon="2.04821">
        <ele>8.875</ele>
        <time>2012-09-03T13:43:29.130Z</time>
      </trkpt>
      <trkpt lat="49.02419" lon="2.04802">
        <ele>8.306</ele>
        <time>2012-09-03T13:43:31.217Z</time>
      </trkpt>
      <trkpt lat="49.02417" lon="2.04788">
        <ele>8.193</ele>
        <time>2012-09-03T13:43:32.967Z</time>
      </trkpt>
      <trkpt lat="49.02415" lon="2.04773">
        <ele>8.27</ele>
        <time>2012-09-03T13:43:35.066Z</time>
      </trkpt>
      <trkpt lat="49.02415" lon="2.04773">
        <ele>8.36</ele>
        <time>2012-09-03T13:43:41.071Z</time>
      </trkpt>
      <trkpt lat="49.02415" lon="2.04773">
        <ele>8.406</ele>
        <time>2012-09-03T13:43:41.171Z</time>
      </trkpt>
      <trkpt lat="49.02407" lon="2.04741">
        <ele>8.414</ele>
        <time>2012-09-03T13:43:56.398Z</time>
      </trkpt>
      <trkpt lat="49.02393" lon="2.04723">
        <ele>8.408</ele>
        <time>2012-09-03T13:44:07.921Z</time>
      </trkpt>
      <trkpt lat="49.02385" lon="2.04713">
        <ele>8.401</ele>
        <time>2012-09-03T13:44:14.398Z</time>
      </trkpt>
      <trkpt lat="49.02375" lon="2.04703">
        <ele>8.397</ele>
        <time>2012-09-03T13:44:19.065Z</time>
      </trkpt>
      <trkpt lat="49.02375" lon="2.04703">
        <ele>8.396</ele>
        <time>2012-09-03T13:44:20.073Z</time>
      </trkpt>
      <trkpt lat="49.02375" lon="2.04703">
        <ele>8.397</ele>
        <time>2012-09-03T13:44:22.406Z</time>
      </trkpt>
      <trkpt lat="49.02361" lon="2.04693">
        <ele>8.397</ele>
        <time>2012-09-03T13:44:31.225Z</time>
      </trkpt>
      <trkpt lat="49.02332" lon="2.04694">
        <ele>8.396</ele>
        <time>2012-09-03T13:44:43.065Z</time>
      </trkpt>
      <trkpt lat="49.02305" lon="2.04701">
        <ele>8.392</ele>
        <time>2012-09-03T13:44:53.858Z</time>
      </trkpt>
      <trkpt lat="49.02295" lon="2.04708">
        <ele>8.113</ele>
        <time>2012-09-03T13:44:57.064Z</time>
      </trkpt>
      <trkpt lat="49.02295" lon="2.04708">
        <ele>7.395</ele>
        <time>2012-09-03T13:44:58.070Z</time>
      </trkpt>
      <trkpt lat="49.02295" lon="2.04708">
        <ele>6.66</ele>
        <time>2012-09-03T13:44:58.170Z</time>
      </trkpt>
      <trkpt lat="49.02282" lon="2.04717">
        <ele>5.621</ele>
        <time>2012-09-03T13:45:02.551Z</time>
      </trkpt>
      <trkpt lat="49.02269" lon="2.04727">
        <ele>3.354</ele>
        <time>2012-09-03T13:45:06.168Z</time>
      </trkpt>
      <trkpt lat="49.0226" lon="2.04737">
        <ele>0.349</ele>
        <time>2012-09-03T13:45:08.631Z</time>
      </trkpt>
      <trkpt lat="49.0225" lon="2.04753">
        <ele>22</ele>
        <time>2012-09-03T13:45:11.385Z</time>
      </trkpt>
      <trkpt lat="49.02245" lon="2.04768">
        <ele>22.1</ele>
        <time>2012-09-03T13:45:13.341Z</time>
      </trkpt>
      <trkpt lat="49.02239" lon="2.04784">
        <ele>23.1</ele>
        <time>2012-09-03T13:45:15.450Z</time>
      </trkpt>
      <trkpt lat="49.02232" lon="2.04794">
        <ele>24.2</ele>
        <time>2012-09-03T13:45:17.071Z</time>
      </trkpt>
      <trkpt lat="49.02232" lon="2.04794">
        <ele>24.2</ele>
        <time>2012-09-03T13:45:21.066Z</time>
      </trkpt>
      <trkpt lat="49.02232" lon="2.04794">
        <ele>24.2</ele>
        <time>2012-09-03T13:45:21.166Z</time>
      </trkpt>
      <trkpt lat="49.02221" lon="2.0482">
        <ele>28.1</ele>
        <time>2012-09-03T13:45:33.875Z</time>
      </trkpt>
      <trkpt lat="49.02218" lon="2.04845">
        <ele>31</ele>
        <time>2012-09-03T13:45:42.109Z</time>
      </trkpt>
      <trkpt lat="49.02217" lon="2.0486">
        <ele>31.6</ele>
        <time>2012-09-03T13:45:47.073Z</time>
      </trkpt>
      <trkpt lat="49.02219" lon="2.04888">
        <ele>30.2</ele>
        <time>2012-09-03T13:45:55.697Z</time>
      </trkpt>
      <trkpt lat="49.0223" lon="2.04892">
        <ele>30.6</ele>
        <time>2012-09-03T13:46:01.075Z</time>
      </trkpt>
      <trkpt lat="49.0224" lon="2.04896">
        <ele>31.3</ele>
        <time>2012-09-03T13:46:04.832Z</time>
      </trkpt>
      <trkpt lat="49.02247" lon="2.04906">
        <ele>31.8</ele>
        <time>2012-09-03T13:46:08.027Z</time>
      </trkpt>
      <trkpt lat="49.02252" lon="2.04919">
        <ele>32</ele>
        <time>2012-09-03T13:46:11.072Z</time>
      </trkpt>
      <trkpt lat="49.02252" lon="2.04919">
        <ele>32</ele>
        <time>2012-09-03T13:46:12.063Z</time>
      </trkpt>
      <trkpt lat="49.02252" lon="2.04919">
        <ele>32</ele>
        <time>2012-09-03T13:46:12.163Z</time>
      </trkpt>
      <trkpt lat="49.02253" lon="2.04942">
        <ele>32.6</ele>
        <time>2012-09-03T13:46:19.477Z</time>
      </trkpt>
      <trkpt lat="49.02249" lon="2.0496">
        <ele>32.4</ele>
        <time>2012-09-03T13:46:22.782Z</time>
      </trkpt>
      <trkpt lat="49.02242" lon="2.0497">
        <ele>31.8</ele>
        <time>2012-09-03T13:46:24.989Z</time>
      </trkpt>
      <trkpt lat="49.02234" lon="2.04975">
        <ele>31.6</ele>
        <time>2012-09-03T13:46:27.160Z</time>
      </trkpt>
      <trkpt lat="49.02222" lon="2.04983">
        <ele>32.2</ele>
        <time>2012-09-03T13:46:30.163Z</time>
      </trkpt>
      <trkpt lat="49.02212" lon="2.04991">
        <ele>33.3</ele>
        <time>2012-09-03T13:46:32.901Z</time>
      </trkpt>
      <trkpt lat="49.02204" lon="2.05">
        <ele>34</ele>
        <time>2012-09-03T13:46:35.503Z</time>
      </trkpt>
      <trkpt lat="49.02195" lon="2.05011">
        <ele>34.4</ele>
        <time>2012-09-03T13:46:38.823Z</time>
      </trkpt>
      <trkpt lat="49.02188" lon="2.05019">
        <ele>35</ele>
        <time>2012-09-03T13:46:41.908Z</time>
      </trkpt>
      <trkpt lat="49.02181" lon="2.05031">
        <ele>1.324</ele>
        <time>2012-09-03T13:46:45.885Z</time>
      </trkpt>
      <trkpt lat="49.02186" lon="2.05056">
        <ele>2.727</ele>
        <time>2012-09-03T13:46:56.640Z</time>
      </trkpt>
      <trkpt lat="49.02193" lon="2.05068">
        <ele>3.625</ele>
        <time>2012-09-03T13:47:04.031Z</time>
      </trkpt>
      <trkpt lat="49.02209" lon="2.05093">
        <ele>4.433</ele>
        <time>2012-09-03T13:47:15.650Z</time>
      </trkpt>
      <trkpt lat="49.02219" lon="2.05117">
        <ele>5.434</ele>
        <time>2012-09-03T13:47:20.163Z</time>
      </trkpt>
      <trkpt lat="49.02229" lon="2.05142">
        <ele>6.234</ele>
        <time>2012-09-03T13:47:23.387Z</time>
      </trkpt>
      <trkpt lat="49.02237" lon="2.05154">
        <ele>6.688</ele>
        <time>2012-09-03T13:47:25.468Z</time>
      </trkpt>
      <trkpt lat="49.02264" lon="2.05158">
        <ele>7.057</ele>
        <time>2012-09-03T13:47:30.815Z</time>
      </trkpt>
      <trkpt lat="49.02283" lon="2.05157">
        <ele>7.344</ele>
        <time>2012-09-03T13:47:33.931Z</time>
      </trkpt>
      <trkpt lat="49.02302" lon="2.05157">
        <ele>7.454</ele>
        <time>2012-09-03T13:47:35.986Z</time>
      </trkpt>
      <trkpt lat="49.02332" lon="2.05153">
        <ele>7.594</ele>
        <time>2012-09-03T13:47:39.172Z</time>
      </trkpt>
      <trkpt lat="49.02356" lon="2.05139">
        <ele>7.923</ele>
        <time>2012-09-03T13:47:42.021Z</time>
      </trkpt>
      <trkpt lat="49.02371" lon="2.05128">
        <ele>8.27</ele>
        <time>2012-09-03T13:47:43.902Z</time>
      </trkpt>
      <trkpt lat="49.02385" lon="2.05117">
        <ele>8.712</ele>
        <time>2012-09-03T13:47:45.935Z</time>
      </trkpt>
      <trkpt lat="49.02403" lon="2.05106">
        <ele>9.597</ele>
        <time>2012-09-03T13:47:49.095Z</time>
      </trkpt>
      <trkpt lat="49.0241" lon="2.05097">
        <ele>10.807</ele>
        <time>2012-09-03T13:47:51.066Z</time>
      </trkpt>
      <trkpt lat="49.0241" lon="2.05097">
        <ele>11.858</ele>
        <time>2012-09-03T13:47:56.070Z</time>
      </trkpt>
      <trkpt lat="49.0241" lon="2.05097">
        <ele>12.443</ele>
        <time>2012-09-03T13:47:56.170Z</time>
      </trkpt>
      <trkpt lat="49.02429" lon="2.05099">
        <ele>12.583</ele>
        <time>2012-09-03T13:48:03.061Z</time>
      </trkpt>
      <trkpt lat="49.02429" lon="2.05099">
        <ele>12.521</ele>
        <time>2012-09-03T13:48:05.069Z</time>
      </trkpt>
      <trkpt lat="49.02429" lon="2.05099">
        <ele>12.435</ele>
        <time>2012-09-03T13:48:09.364Z</time>
      </trkpt>
      <trkpt lat="49.02452" lon="2.05079">
        <ele>12.312</ele>
        <time>2012-09-03T13:48:21.551Z</time>
      </trkpt>
      <trkpt lat="49.0246" lon="2.05058">
        <ele>11.959</ele>
        <time>2012-09-03T13:48:24.721Z</time>
      </trkpt>
      <trkpt lat="49.02466" lon="2.05043">
        <ele>11.466</ele>
        <time>2012-09-03T13:48:26.847Z</time>
      </trkpt>
      <trkpt lat="49.02471" lon="2.05029">
        <ele>11.204</ele>
        <time>2012-09-03T13:48:28.878Z</time>
      </trkpt>
      <trkpt lat="49.0248" lon="2.05007">
        <ele>11.369</ele>
        <time>2012-09-03T13:48:31.742Z</time>
      </trkpt>
      <trkpt lat="49.02488" lon="2.04984">
        <ele>11.824</ele>
        <time>2012-09-03T13:48:34.607Z</time>
      </trkpt>
      <trkpt lat="49.02493" lon="2.04967">
        <ele>12.257</ele>
        <time>2012-09-03T13:48:36.570Z</time>
      </trkpt>
      <trkpt lat="49.02501" lon="2.04942">
        <ele>12.591</ele>
        <time>2012-09-03T13:48:39.605Z</time>
      </trkpt>
      <trkpt lat="49.02505" lon="2.04925">
        <ele>13.113</ele>
        <time>2012-09-03T13:48:41.696Z</time>
      </trkpt>
      <trkpt lat="49.02505" lon="2.04905">
        <ele>13.805</ele>
        <time>2012-09-03T13:48:44.342Z</time>
      </trkpt>
      <trkpt lat="49.02495" lon="2.04896">
        <ele>14.314</ele>
        <time>2012-09-03T13:48:46.661Z</time>
      </trkpt>
      <trkpt lat="49.02487" lon="2.0489">
        <ele>14.5</ele>
        <time>2012-09-03T13:48:48.447Z</time>
      </trkpt>
      <trkpt lat="49.02474" lon="2.04887">
        <ele>14.357</ele>
        <time>2012-09-03T13:48:51.082Z</time>
      </trkpt>
      <trkpt lat="49.02461" lon="2.04887">
        <ele>13.802</ele>
        <time>2012-09-03T13:48:53.881Z</time>
      </trkpt>
      <trkpt lat="49.02448" lon="2.04881">
        <ele>12.893</ele>
        <time>2012-09-03T13:48:57.476Z</time>
      </trkpt>
      <trkpt lat="49.02444" lon="2.04865">
        <ele>11.835</ele>
        <time>2012-09-03T13:49:01.032Z</time>
      </trkpt>
      <trkpt lat="49.02437" lon="2.04848">
        <ele>10.767</ele>
        <time>2012-09-03T13:49:04.151Z</time>
      </trkpt>
      <trkpt lat="49.02427" lon="2.04834">
        <ele>9.594</ele>
        <time>2012-09-03T13:49:07.113Z</time>
      </trkpt>
      <trkpt lat="49.02417" lon="2.04821">
        <ele>8.228</ele>
        <time>2012-09-03T13:49:10.064Z</time>
      </trkpt>
      <trkpt lat="49.02417" lon="2.04821">
        <ele>7.003</ele>
        <time>2012-09-03T13:49:13.075Z</time>
      </trkpt>
      <trkpt lat="49.02417" lon="2.04821">
        <ele>6.332</ele>
        <time>2012-09-03T13:49:13.175Z</time>
      </trkpt>
      <trkpt lat="49.02398" lon="2.04817">
        <ele>5.901</ele>
        <time>2012-09-03T13:49:19.900Z</time>
      </trkpt>
      <trkpt lat="49.02387" lon="2.04812">
        <ele>4.979</ele>
        <time>2012-09-03T13:49:22.055Z</time>
      </trkpt>
      <trkpt lat="49.02377" lon="2.04802">
        <ele>3.483</ele>
        <time>2012-09-03T13:49:24.065Z</time>
      </trkpt>
      <trkpt lat="49.02377" lon="2.04802">
        <ele>2.087</ele>
        <time>2012-09-03T13:49:26.069Z</time>
      </trkpt>
      <trkpt lat="49.02377" lon="2.04802">
        <ele>1.42</ele>
        <time>2012-09-03T13:49:26.169Z</time>
      </trkpt>
      <trkpt lat="49.02361" lon="2.04771">
        <ele>0.982</ele>
        <time>2012-09-03T13:49:33.988Z</time>
      </trkpt>
      <trkpt lat="49.0235" lon="2.04756">
        <ele>24.7</ele>
        <time>2012-09-03T13:49:36.622Z</time>
      </trkpt>
      <trkpt lat="49.02338" lon="2.04748">
        <ele>24.3</ele>
        <time>2012-09-03T13:49:38.647Z</time>
      </trkpt>
      <trkpt lat="49.0233" lon="2.04743">
        <ele>23.6</ele>
        <time>2012-09-03T13:49:40.031Z</time>
      </trkpt>
      <trkpt lat="49.02313" lon="2.04712">
        <ele>22.2</ele>
        <time>2012-09-03T13:49:43.618Z</time>
      </trkpt>
      <trkpt lat="49.023" lon="2.04688">
        <ele>21</ele>
        <time>2012-09-03T13:49:46.336Z</time>
      </trkpt>
      <trkpt lat="49.02288" lon="2.04665">
        <ele>21</ele>
        <time>2012-09-03T13:49:49.014Z</time>
      </trkpt>
      <trkpt lat="49.0228" lon="2.04651">
        <ele>21</ele>
        <time>2012-09-03T13:49:50.700Z</time>
      </trkpt>
      <trkpt lat="49.02269" lon="2.04628">
        <ele>21.3</ele>
        <time>2012-09-03T13:49:53.344Z</time>
      </trkpt>
      <trkpt lat="49.02262" lon="2.04612">
        <ele>21.6</ele>
        <time>2012-09-03T13:49:55.167Z</time>
      </trkpt>
      <trkpt lat="49.02257" lon="2.04598">
        <ele>21.8</ele>
        <time>2012-09-03T13:49:56.774Z</time>
      </trkpt>
      <trkpt lat="49.02246" lon="2.04571">
        <ele>22.5</ele>
        <time>2012-09-03T13:49:59.929Z</time>
      </trkpt>
      <trkpt lat="49.02241" lon="2.04557">
        <ele>23</ele>
        <time>2012-09-03T13:50:01.600Z</time>
      </trkpt>
      <trkpt lat="49.02243" lon="2.04539">
        <ele>23.2</ele>
        <time>2012-09-03T13:50:03.541Z</time>
      </trkpt>
      <trkpt lat="49.02249" lon="2.04509">
        <ele>22.4</ele>
        <time>2012-09-03T13:50:06.892Z</time>
      </trkpt>
      <trkpt lat="49.02258" lon="2.04493">
        <ele>22.3</ele>
        <time>2012-09-03T13:50:09.386Z</time>
      </trkpt>
      <trkpt lat="49.02267" lon="2.04476">
        <ele>22.6</ele>
        <time>2012-09-03T13:50:12.138Z</time>
      </trkpt>
      <trkpt lat="49.02276" lon="2.04464">
        <ele>22.9</ele>
        <time>2012-09-03T13:50:14.353Z</time>
      </trkpt>
      <trkpt lat="49.02285" lon="2.04456">
        <ele>22.7</ele>
        <time>2012-09-03T13:50:16.819Z</time>
      </trkpt>
      <trkpt lat="49.02302" lon="2.04462">
        <ele>22.1</ele>
        <time>2012-09-03T13:50:20.565Z</time>
      </trkpt>
      <trkpt lat="49.02313" lon="2.04462">
        <ele>22.3</ele>
        <time>2012-09-03T13:50:22.812Z</time>
      </trkpt>
      <trkpt lat="49.02322" lon="2.04458">
        <ele>22.6</ele>
        <time>2012-09-03T13:50:24.707Z</time>
      </trkpt>
      <trkpt lat="49.02333" lon="2.04451">
        <ele>23</ele>
        <time>2012-09-03T13:50:27.065Z</time>
      </trkpt>
      <trkpt lat="49.02333" lon="2.04451">
        <ele>23</ele>
        <time>2012-09-03T13:50:32.075Z</time>
      </trkpt>
      <trkpt lat="49.02333" lon="2.04451">
        <ele>23</ele>
        <time>2012-09-03T13:50:32.175Z</time>
      </trkpt>
      <trkpt lat="49.0236" lon="2.04415">
        <ele>26.8</ele>
        <time>2012-09-03T13:50:44.509Z</time>
      </trkpt>
      <trkpt lat="49.02372" lon="2.04403">
        <ele>26</ele>
        <time>2012-09-03T13:50:45.920Z</time>
      </trkpt>
      <trkpt lat="49.02379" lon="2.04389">
        <ele>25</ele>
        <time>2012-09-03T13:50:47.067Z</time>
      </trkpt>
      <trkpt lat="49.02379" lon="2.04389">
        <ele>25</ele>
        <time>2012-09-03T13:50:55.061Z</time>
      </trkpt>
      <trkpt lat="49.02379" lon="2.04389">
        <ele>25</ele>
        <time>2012-09-03T13:51:21.067Z</time>
      </trkpt>
      <trkpt lat="49.02379" lon="2.04389">
        <ele>25</ele>
        <time>2012-09-03T13:51:21.167Z</time>
      </trkpt>
      <trkpt lat="49.02405" lon="2.04356">
        <ele>24.8</ele>
        <time>2012-09-03T13:51:36.065Z</time>
      </trkpt>
      <trkpt lat="49.02405" lon="2.04356">
        <ele>0.411</ele>
        <time>2012-09-03T13:51:40.065Z</time>
      </trkpt>
      <trkpt lat="49.02405" lon="2.04356">
        <ele>0.571</ele>
        <time>2012-09-03T13:51:47.066Z</time>
      </trkpt>
      <trkpt lat="49.02405" lon="2.04356">
        <ele>0.312</ele>
        <time>2012-09-03T13:51:47.166Z</time>
      </trkpt>
      <trkpt lat="49.02412" lon="2.04372">
        <ele>0.129</ele>
        <time>2012-09-03T13:55:51.289Z</time>
      </trkpt>
      <trkpt lat="49.02433" lon="2.04323">
        <ele>0.192</ele>
        <time>2012-09-03T13:55:55.734Z</time>
      </trkpt>
      <trkpt lat="49.02449" lon="2.04299">
        <ele>1.472</ele>
        <time>2012-09-03T13:55:57.785Z</time>
      </trkpt>
      <trkpt lat="49.02459" lon="2.04285">
        <ele>7.209</ele>
        <time>2012-09-03T13:55:59.080Z</time>
      </trkpt>
      <trkpt lat="49.02471" lon="2.04264">
        <ele>17.498</ele>
        <time>2012-09-03T13:56:00.666Z</time>
      </trkpt>
      <trkpt lat="49.02482" lon="2.04246">
        <ele>26.621</ele>
        <time>2012-09-03T13:56:02.081Z</time>
      </trkpt>
      <trkpt lat="49.02482" lon="2.04246">
        <ele>30.687</ele>
        <time>2012-09-03T13:56:03.064Z</time>
      </trkpt>
      <trkpt lat="49.02482" lon="2.04246">
        <ele>31.146</ele>
        <time>2012-09-03T13:56:03.164Z</time>
      </trkpt>
      <trkpt lat="49.025" lon="2.04221">
        <ele>30.332</ele>
        <time>2012-09-03T13:56:09.461Z</time>
      </trkpt>
      <trkpt lat="49.02514" lon="2.04209">
        <ele>29.59</ele>
        <time>2012-09-03T13:56:12.342Z</time>
      </trkpt>
      <trkpt lat="49.02533" lon="2.04198">
        <ele>29.263</ele>
        <time>2012-09-03T13:56:16.212Z</time>
      </trkpt>
      <trkpt lat="49.02543" lon="2.04187">
        <ele>29.229</ele>
        <time>2012-09-03T13:56:19.202Z</time>
      </trkpt>
      <trkpt lat="49.02554" lon="2.04187">
        <ele>29.297</ele>
        <time>2012-09-03T13:56:22.453Z</time>
      </trkpt>
      <trkpt lat="49.02564" lon="2.04182">
        <ele>29.357</ele>
        <time>2012-09-03T13:56:25.277Z</time>
      </trkpt>
      <trkpt lat="49.02576" lon="2.04176">
        <ele>29.384</ele>
        <time>2012-09-03T13:56:28.359Z</time>
      </trkpt>
      <trkpt lat="49.02585" lon="2.04171">
        <ele>29.386</ele>
        <time>2012-09-03T13:56:30.467Z</time>
      </trkpt>
      <trkpt lat="49.02596" lon="2.04165">
        <ele>29.381</ele>
        <time>2012-09-03T13:56:32.964Z</time>
      </trkpt>
      <trkpt lat="49.02609" lon="2.04157">
        <ele>29.376</ele>
        <time>2012-09-03T13:56:36.058Z</time>
      </trkpt>
      <trkpt lat="49.02618" lon="2.04149">
        <ele>29.374</ele>
        <time>2012-09-03T13:56:38.668Z</time>
      </trkpt>
      <trkpt lat="49.02628" lon="2.04131">
        <ele>29.373</ele>
        <time>2012-09-03T13:56:42.279Z</time>
      </trkpt>
      <trkpt lat="49.02638" lon="2.04118">
        <ele>29.374</ele>
        <time>2012-09-03T13:56:45.317Z</time>
      </trkpt>
      <trkpt lat="49.02648" lon="2.04106">
        <ele>29.374</ele>
        <time>2012-09-03T13:56:48.127Z</time>
      </trkpt>
      <trkpt lat="49.02657" lon="2.04097">
        <ele>29.374</ele>
        <time>2012-09-03T13:56:50.833Z</time>
      </trkpt>
      <trkpt lat="49.02667" lon="2.04088">
        <ele>29.236</ele>
        <time>2012-09-03T13:56:53.562Z</time>
      </trkpt>
      <trkpt lat="49.02676" lon="2.04079">
        <ele>28.877</ele>
        <time>2012-09-03T13:56:56.214Z</time>
      </trkpt>
      <trkpt lat="49.02686" lon="2.04068">
        <ele>28.507</ele>
        <time>2012-09-03T13:56:59.000Z</time>
      </trkpt>
      <trkpt lat="49.02696" lon="2.04057">
        <ele>28.194</ele>
        <time>2012-09-03T13:57:02.044Z</time>
      </trkpt>
      <trkpt lat="49.02707" lon="2.04045">
        <ele>27.669</ele>
        <time>2012-09-03T13:57:05.284Z</time>
      </trkpt>
      <trkpt lat="49.02734" lon="2.04014">
        <ele>26.97</ele>
        <time>2012-09-03T13:57:14.070Z</time>
      </trkpt>
      <trkpt lat="49.02734" lon="2.04014">
        <ele>26.455</ele>
        <time>2012-09-03T13:57:15.062Z</time>
      </trkpt>
      <trkpt lat="49.02734" lon="2.04014">
        <ele>26.268</ele>
        <time>2012-09-03T13:57:15.162Z</time>
      </trkpt>
      <trkpt lat="49.0275" lon="2.03997">
        <ele>26.135</ele>
        <time>2012-09-03T13:57:21.657Z</time>
      </trkpt>
      <trkpt lat="49.02758" lon="2.03989">
        <ele>25.833</ele>
        <time>2012-09-03T13:57:24.030Z</time>
      </trkpt>
      <trkpt lat="49.02771" lon="2.03975">
        <ele>25.367</ele>
        <time>2012-09-03T13:57:27.672Z</time>
      </trkpt>
      <trkpt lat="49.02786" lon="2.03972">
        <ele>24.847</ele>
        <time>2012-09-03T13:57:30.798Z</time>
      </trkpt>
      <trkpt lat="49.02804" lon="2.03965">
        <ele>24.45</ele>
        <time>2012-09-03T13:57:34.798Z</time>
      </trkpt>
      <trkpt lat="49.02814" lon="2.03959">
        <ele>24.3</ele>
        <time>2012-09-03T13:57:37.114Z</time>
      </trkpt>
      <trkpt lat="49.02825" lon="2.03946">
        <ele>24.162</ele>
        <time>2012-09-03T13:57:40.050Z</time>
      </trkpt>
      <trkpt lat="49.02831" lon="2.03934">
        <ele>23.707</ele>
        <time>2012-09-03T13:57:42.176Z</time>
      </trkpt>
      <trkpt lat="49.02836" lon="2.03919">
        <ele>22.734</ele>
        <time>2012-09-03T13:57:44.765Z</time>
      </trkpt>
      <trkpt lat="49.02839" lon="2.03905">
        <ele>21.343</ele>
        <time>2012-09-03T13:57:47.360Z</time>
      </trkpt>
      <trkpt lat="49.02844" lon="2.03891">
        <ele>19.904</ele>
        <time>2012-09-03T13:57:50.066Z</time>
      </trkpt>
      <trkpt lat="49.02844" lon="2.03891">
        <ele>18.825</ele>
        <time>2012-09-03T13:57:57.062Z</time>
      </trkpt>
      <trkpt lat="49.02844" lon="2.03891">
        <ele>18.284</ele>
        <time>2012-09-03T13:57:57.162Z</time>
      </trkpt>
      <trkpt lat="49.02864" lon="2.03862">
        <ele>18.048</ele>
        <time>2012-09-03T13:58:13.035Z</time>
      </trkpt>
      <trkpt lat="49.02869" lon="2.0385">
        <ele>17.767</ele>
        <time>2012-09-03T13:58:16.170Z</time>
      </trkpt>
      <trkpt lat="49.02878" lon="2.03841">
        <ele>17.486</ele>
        <time>2012-09-03T13:58:19.390Z</time>
      </trkpt>
      <trkpt lat="49.02886" lon="2.03833">
        <ele>17.078</ele>
        <time>2012-09-03T13:58:22.347Z</time>
      </trkpt>
      <trkpt lat="49.02896" lon="2.03825">
        <ele>16.339</ele>
        <time>2012-09-03T13:58:25.497Z</time>
      </trkpt>
      <trkpt lat="49.02907" lon="2.03817">
        <ele>15.624</ele>
        <time>2012-09-03T13:58:28.483Z</time>
      </trkpt>
      <trkpt lat="49.02918" lon="2.03809">
        <ele>15.296</ele>
        <time>2012-09-03T13:58:31.629Z</time>
      </trkpt>
      <trkpt lat="49.0293" lon="2.038">
        <ele>15.254</ele>
        <time>2012-09-03T13:58:34.554Z</time>
      </trkpt>
      <trkpt lat="49.02943" lon="2.03791">
        <ele>15.315</ele>
        <time>2012-09-03T13:58:37.211Z</time>
      </trkpt>
      <trkpt lat="49.02953" lon="2.03786">
        <ele>15.512</ele>
        <time>2012-09-03T13:58:39.061Z</time>
      </trkpt>
      <trkpt lat="49.0297" lon="2.03775">
        <ele>15.898</ele>
        <time>2012-09-03T13:58:42.102Z</time>
      </trkpt>
      <trkpt lat="49.0298" lon="2.03768">
        <ele>16.271</ele>
        <time>2012-09-03T13:58:43.954Z</time>
      </trkpt>
      <trkpt lat="49.02993" lon="2.03763">
        <ele>16.441</ele>
        <time>2012-09-03T13:58:46.062Z</time>
      </trkpt>
      <trkpt lat="49.03012" lon="2.03755">
        <ele>16.463</ele>
        <time>2012-09-03T13:58:49.281Z</time>
      </trkpt>
      <trkpt lat="49.03028" lon="2.03749">
        <ele>16.293</ele>
        <time>2012-09-03T13:58:51.925Z</time>
      </trkpt>
      <trkpt lat="49.03045" lon="2.03745">
        <ele>15.902</ele>
        <time>2012-09-03T13:58:54.660Z</time>
      </trkpt>
      <trkpt lat="49.03057" lon="2.03742">
        <ele>15.519</ele>
        <time>2012-09-03T13:58:56.675Z</time>
      </trkpt>
      <trkpt lat="49.03074" lon="2.03739">
        <ele>15.343</ele>
        <time>2012-09-03T13:58:59.711Z</time>
      </trkpt>
      <trkpt lat="49.03089" lon="2.03737">
        <ele>15.319</ele>
        <time>2012-09-03T13:59:02.404Z</time>
      </trkpt>
      <trkpt lat="49.031" lon="2.03737">
        <ele>15.213</ele>
        <time>2012-09-03T13:59:04.221Z</time>
      </trkpt>
      <trkpt lat="49.03116" lon="2.03738">
        <ele>14.884</ele>
        <time>2012-09-03T13:59:07.727Z</time>
      </trkpt>
      <trkpt lat="49.03126" lon="2.03737">
        <ele>14.529</ele>
        <time>2012-09-03T13:59:10.047Z</time>
      </trkpt>
      <trkpt lat="49.03138" lon="2.0374">
        <ele>14.218</ele>
        <time>2012-09-03T13:59:13.449Z</time>
      </trkpt>
      <trkpt lat="49.0315" lon="2.03742">
        <ele>13.552</ele>
        <time>2012-09-03T13:59:16.361Z</time>
      </trkpt>
      <trkpt lat="49.03166" lon="2.03746">
        <ele>12.491</ele>
        <time>2012-09-03T13:59:19.919Z</time>
      </trkpt>
      <trkpt lat="49.03182" lon="2.0375">
        <ele>11.467</ele>
        <time>2012-09-03T13:59:23.128Z</time>
      </trkpt>
      <trkpt lat="49.03191" lon="2.03752">
        <ele>10.606</ele>
        <time>2012-09-03T13:59:25.039Z</time>
      </trkpt>
      <trkpt lat="49.03206" lon="2.03755">
        <ele>9.58</ele>
        <time>2012-09-03T13:59:27.875Z</time>
      </trkpt>
      <trkpt lat="49.03216" lon="2.03757">
        <ele>8.265</ele>
        <time>2012-09-03T13:59:29.808Z</time>
      </trkpt>
      <trkpt lat="49.0323" lon="2.03762">
        <ele>6.898</ele>
        <time>2012-09-03T13:59:32.627Z</time>
      </trkpt>
      <trkpt lat="49.03244" lon="2.03768">
        <ele>5.713</ele>
        <time>2012-09-03T13:59:35.383Z</time>
      </trkpt>
      <trkpt lat="49.03259" lon="2.03776">
        <ele>4.817</ele>
        <time>2012-09-03T13:59:38.235Z</time>
      </trkpt>
      <trkpt lat="49.03274" lon="2.03784">
        <ele>4.204</ele>
        <time>2012-09-03T13:59:41.128Z</time>
      </trkpt>
      <trkpt lat="49.03288" lon="2.03794">
        <ele>3.605</ele>
        <time>2012-09-03T13:59:44.074Z</time>
      </trkpt>
      <trkpt lat="49.03304" lon="2.03806">
        <ele>2.935</ele>
        <time>2012-09-03T13:59:47.187Z</time>
      </trkpt>
      <trkpt lat="49.03319" lon="2.03817">
        <ele>2.325</ele>
        <time>2012-09-03T13:59:50.187Z</time>
      </trkpt>
      <trkpt lat="49.03329" lon="2.03824">
        <ele>1.663</ele>
        <time>2012-09-03T13:59:52.233Z</time>
      </trkpt>
      <trkpt lat="49.03339" lon="2.03831">
        <ele>0.807</ele>
        <time>2012-09-03T13:59:54.249Z</time>
      </trkpt>
      <trkpt lat="49.03354" lon="2.03843">
        <ele>22.6</ele>
        <time>2012-09-03T13:59:57.185Z</time>
      </trkpt>
      <trkpt lat="49.03368" lon="2.03854">
        <ele>22.7</ele>
        <time>2012-09-03T14:00:00.086Z</time>
      </trkpt>
      <trkpt lat="49.03382" lon="2.03865">
        <ele>22.1</ele>
        <time>2012-09-03T14:00:02.887Z</time>
      </trkpt>
      <trkpt lat="49.03391" lon="2.03871">
        <ele>22</ele>
        <time>2012-09-03T14:00:04.653Z</time>
      </trkpt>
      <trkpt lat="49.03404" lon="2.03884">
        <ele>22.2</ele>
        <time>2012-09-03T14:00:07.510Z</time>
      </trkpt>
      <trkpt lat="49.03412" lon="2.03894">
        <ele>22</ele>
        <time>2012-09-03T14:00:09.621Z</time>
      </trkpt>
      <trkpt lat="49.03421" lon="2.03907">
        <ele>22.6</ele>
        <time>2012-09-03T14:00:12.417Z</time>
      </trkpt>
      <trkpt lat="49.03431" lon="2.03916">
        <ele>22.4</ele>
        <time>2012-09-03T14:00:15.126Z</time>
      </trkpt>
      <trkpt lat="49.03438" lon="2.03925">
        <ele>22.4</ele>
        <time>2012-09-03T14:00:17.266Z</time>
      </trkpt>
      <trkpt lat="49.03446" lon="2.03933">
        <ele>22.7</ele>
        <time>2012-09-03T14:00:19.279Z</time>
      </trkpt>
      <trkpt lat="49.03458" lon="2.03943">
        <ele>22.4</ele>
        <time>2012-09-03T14:00:22.147Z</time>
      </trkpt>
      <trkpt lat="49.03466" lon="2.0395">
        <ele>22.1</ele>
        <time>2012-09-03T14:00:24.019Z</time>
      </trkpt>
      <trkpt lat="49.03479" lon="2.03962">
        <ele>22</ele>
        <time>2012-09-03T14:00:27.096Z</time>
      </trkpt>
      <trkpt lat="49.03491" lon="2.03973">
        <ele>21.7</ele>
        <time>2012-09-03T14:00:29.983Z</time>
      </trkpt>
      <trkpt lat="49.03503" lon="2.03984">
        <ele>22.2</ele>
        <time>2012-09-03T14:00:32.828Z</time>
      </trkpt>
      <trkpt lat="49.03511" lon="2.03993">
        <ele>22.3</ele>
        <time>2012-09-03T14:00:34.864Z</time>
      </trkpt>
      <trkpt lat="49.03522" lon="2.04004">
        <ele>21.9</ele>
        <time>2012-09-03T14:00:37.577Z</time>
      </trkpt>
      <trkpt lat="49.03535" lon="2.04017">
        <ele>22.3</ele>
        <time>2012-09-03T14:00:40.622Z</time>
      </trkpt>
      <trkpt lat="49.03544" lon="2.04024">
        <ele>22.1</ele>
        <time>2012-09-03T14:00:42.575Z</time>
      </trkpt>
      <trkpt lat="49.03556" lon="2.04034">
        <ele>21.6</ele>
        <time>2012-09-03T14:00:45.428Z</time>
      </trkpt>
      <trkpt lat="49.03565" lon="2.0404">
        <ele>22</ele>
        <time>2012-09-03T14:00:47.375Z</time>
      </trkpt>
      <trkpt lat="49.03578" lon="2.04049">
        <ele>22.1</ele>
        <time>2012-09-03T14:00:50.207Z</time>
      </trkpt>
      <trkpt lat="49.0359" lon="2.04059">
        <ele>22</ele>
        <time>2012-09-03T14:00:53.010Z</time>
      </trkpt>
      <trkpt lat="49.03602" lon="2.04068">
        <ele>21.6</ele>
        <time>2012-09-03T14:00:55.700Z</time>
      </trkpt>
      <trkpt lat="49.03614" lon="2.04078">
        <ele>21</ele>
        <time>2012-09-03T14:00:58.304Z</time>
      </trkpt>
      <trkpt lat="49.03625" lon="2.04087">
        <ele>21.3</ele>
        <time>2012-09-03T14:01:01.011Z</time>
      </trkpt>
      <trkpt lat="49.03636" lon="2.04101">
        <ele>21.2</ele>
        <time>2012-09-03T14:01:03.964Z</time>
      </trkpt>
      <trkpt lat="49.03642" lon="2.04115">
        <ele>21.4</ele>
        <time>2012-09-03T14:01:06.095Z</time>
      </trkpt>
      <trkpt lat="49.03649" lon="2.04135">
        <ele>23</ele>
        <time>2012-09-03T14:01:09.188Z</time>
      </trkpt>
      <trkpt lat="49.03649" lon="2.04135">
        <ele>23</ele>
        <time>2012-09-03T14:01:14.193Z</time>
      </trkpt>
      <trkpt lat="49.03649" lon="2.04135">
        <ele>23</ele>
        <time>2012-09-03T14:01:14.293Z</time>
      </trkpt>
      <trkpt lat="49.03655" lon="2.04161">
        <ele>24.2</ele>
        <time>2012-09-03T14:01:24.343Z</time>
      </trkpt>
      <trkpt lat="49.03659" lon="2.04181">
        <ele>24.1</ele>
        <time>2012-09-03T14:01:27.442Z</time>
      </trkpt>
      <trkpt lat="49.03662" lon="2.04199">
        <ele>23.6</ele>
        <time>2012-09-03T14:01:30.133Z</time>
      </trkpt>
      <trkpt lat="49.03664" lon="2.04221">
        <ele>23.7</ele>
        <time>2012-09-03T14:01:33.251Z</time>
      </trkpt>
      <trkpt lat="49.03665" lon="2.04234">
        <ele>23.4</ele>
        <time>2012-09-03T14:01:35.302Z</time>
      </trkpt>
      <trkpt lat="49.03667" lon="2.04255">
        <ele>22.8</ele>
        <time>2012-09-03T14:01:38.483Z</time>
      </trkpt>
      <trkpt lat="49.03669" lon="2.04276">
        <ele>22.7</ele>
        <time>2012-09-03T14:01:41.750Z</time>
      </trkpt>
      <trkpt lat="49.03672" lon="2.04295">
        <ele>23.2</ele>
        <time>2012-09-03T14:01:44.945Z</time>
      </trkpt>
      <trkpt lat="49.03675" lon="2.04314">
        <ele>23.6</ele>
        <time>2012-09-03T14:01:48.013Z</time>
      </trkpt>
      <trkpt lat="49.03678" lon="2.04331">
        <ele>23.6</ele>
        <time>2012-09-03T14:01:50.973Z</time>
      </trkpt>
      <trkpt lat="49.03682" lon="2.04347">
        <ele>23.7</ele>
        <time>2012-09-03T14:01:53.907Z</time>
      </trkpt>
      <trkpt lat="49.03688" lon="2.04362">
        <ele>24</ele>
        <time>2012-09-03T14:01:56.884Z</time>
      </trkpt>
      <trkpt lat="49.03694" lon="2.04376">
        <ele>0.631</ele>
        <time>2012-09-03T14:01:59.841Z</time>
      </trkpt>
      <trkpt lat="49.037" lon="2.04388">
        <ele>1.31</ele>
        <time>2012-09-03T14:02:02.729Z</time>
      </trkpt>
      <trkpt lat="49.03706" lon="2.04399">
        <ele>2.089</ele>
        <time>2012-09-03T14:02:05.406Z</time>
      </trkpt>
      <trkpt lat="49.03713" lon="2.04408">
        <ele>3.153</ele>
        <time>2012-09-03T14:02:08.093Z</time>
      </trkpt>
      <trkpt lat="49.03721" lon="2.0442">
        <ele>4.519</ele>
        <time>2012-09-03T14:02:11.315Z</time>
      </trkpt>
      <trkpt lat="49.03728" lon="2.04429">
        <ele>5.913</ele>
        <time>2012-09-03T14:02:13.379Z</time>
      </trkpt>
      <trkpt lat="49.03738" lon="2.04443">
        <ele>6.967</ele>
        <time>2012-09-03T14:02:16.082Z</time>
      </trkpt>
      <trkpt lat="49.03752" lon="2.04459">
        <ele>7.5</ele>
        <time>2012-09-03T14:02:19.242Z</time>
      </trkpt>
      <trkpt lat="49.03761" lon="2.04465">
        <ele>7.739</ele>
        <time>2012-09-03T14:02:21.106Z</time>
      </trkpt>
      <trkpt lat="49.03773" lon="2.0448">
        <ele>8.023</ele>
        <time>2012-09-03T14:02:23.771Z</time>
      </trkpt>
      <trkpt lat="49.0378" lon="2.0449">
        <ele>8.439</ele>
        <time>2012-09-03T14:02:25.526Z</time>
      </trkpt>
      <trkpt lat="49.03791" lon="2.04506">
        <ele>8.457</ele>
        <time>2012-09-03T14:02:28.257Z</time>
      </trkpt>
      <trkpt lat="49.03799" lon="2.04517">
        <ele>8.38</ele>
        <time>2012-09-03T14:02:30.276Z</time>
      </trkpt>
      <trkpt lat="49.03807" lon="2.0453">
        <ele>8.132</ele>
        <time>2012-09-03T14:02:32.367Z</time>
      </trkpt>
      <trkpt lat="49.03815" lon="2.04548">
        <ele>7.758</ele>
        <time>2012-09-03T14:02:35.195Z</time>
      </trkpt>
      <trkpt lat="49.03823" lon="2.04566">
        <ele>7.463</ele>
        <time>2012-09-03T14:02:37.989Z</time>
      </trkpt>
      <trkpt lat="49.03828" lon="2.04586">
        <ele>7.348</ele>
        <time>2012-09-03T14:02:40.728Z</time>
      </trkpt>
      <trkpt lat="49.03831" lon="2.04606">
        <ele>7.345</ele>
        <time>2012-09-03T14:02:43.451Z</time>
      </trkpt>
      <trkpt lat="49.03832" lon="2.04625">
        <ele>7.514</ele>
        <time>2012-09-03T14:02:46.089Z</time>
      </trkpt>
      <trkpt lat="49.03833" lon="2.04645">
        <ele>8.036</ele>
        <time>2012-09-03T14:02:48.742Z</time>
      </trkpt>
      <trkpt lat="49.03836" lon="2.04664">
        <ele>8.913</ele>
        <time>2012-09-03T14:02:51.439Z</time>
      </trkpt>
      <trkpt lat="49.03839" lon="2.04683">
        <ele>9.818</ele>
        <time>2012-09-03T14:02:54.171Z</time>
      </trkpt>
      <trkpt lat="49.03843" lon="2.04703">
        <ele>10.386</ele>
        <time>2012-09-03T14:02:57.027Z</time>
      </trkpt>
      <trkpt lat="49.03848" lon="2.04723">
        <ele>10.556</ele>
        <time>2012-09-03T14:02:59.941Z</time>
      </trkpt>
      <trkpt lat="49.03851" lon="2.04737">
        <ele>10.522</ele>
        <time>2012-09-03T14:03:01.968Z</time>
      </trkpt>
      <trkpt lat="49.03857" lon="2.04758">
        <ele>10.448</ele>
        <time>2012-09-03T14:03:05.001Z</time>
      </trkpt>
      <trkpt lat="49.03862" lon="2.04772">
        <ele>10.402</ele>
        <time>2012-09-03T14:03:06.996Z</time>
      </trkpt>
      <trkpt lat="49.03865" lon="2.04786">
        <ele>10.388</ele>
        <time>2012-09-03T14:03:08.900Z</time>
      </trkpt>
      <trkpt lat="49.03871" lon="2.04808">
        <ele>10.394</ele>
        <time>2012-09-03T14:03:11.770Z</time>
      </trkpt>
      <trkpt lat="49.03879" lon="2.04831">
        <ele>10.254</ele>
        <time>2012-09-03T14:03:14.941Z</time>
      </trkpt>
      <trkpt lat="49.03883" lon="2.04855">
        <ele>9.895</ele>
        <time>2012-09-03T14:03:17.857Z</time>
      </trkpt>
      <trkpt lat="49.03885" lon="2.04876">
        <ele>9.53</ele>
        <time>2012-09-03T14:03:20.350Z</time>
      </trkpt>
      <trkpt lat="49.03891" lon="2.04897">
        <ele>9.22</ele>
        <time>2012-09-03T14:03:23.145Z</time>
      </trkpt>
      <trkpt lat="49.03896" lon="2.04912">
        <ele>8.834</ele>
        <time>2012-09-03T14:03:25.343Z</time>
      </trkpt>
      <trkpt lat="49.03902" lon="2.04924">
        <ele>8.495</ele>
        <time>2012-09-03T14:03:27.489Z</time>
      </trkpt>
      <trkpt lat="49.03911" lon="2.04926">
        <ele>8.349</ele>
        <time>2012-09-03T14:03:29.581Z</time>
      </trkpt>
      <trkpt lat="49.03924" lon="2.04938">
        <ele>8.198</ele>
        <time>2012-09-03T14:03:33.310Z</time>
      </trkpt>
      <trkpt lat="49.03936" lon="2.04956">
        <ele>7.871</ele>
        <time>2012-09-03T14:03:37.251Z</time>
      </trkpt>
      <trkpt lat="49.0394" lon="2.04973">
        <ele>7.391</ele>
        <time>2012-09-03T14:03:39.620Z</time>
      </trkpt>
      <trkpt lat="49.03945" lon="2.04989">
        <ele>6.591</ele>
        <time>2012-09-03T14:03:41.891Z</time>
      </trkpt>
      <trkpt lat="49.03947" lon="2.05004">
        <ele>5.476</ele>
        <time>2012-09-03T14:03:43.881Z</time>
      </trkpt>
      <trkpt lat="49.03941" lon="2.05025">
        <ele>4.589</ele>
        <time>2012-09-03T14:03:46.795Z</time>
      </trkpt>
      <trkpt lat="49.03933" lon="2.05043">
        <ele>4.24</ele>
        <time>2012-09-03T14:03:49.781Z</time>
      </trkpt>
      <trkpt lat="49.03931" lon="2.05057">
        <ele>4.23</ele>
        <time>2012-09-03T14:03:51.731Z</time>
      </trkpt>
      <trkpt lat="49.03937" lon="2.05079">
        <ele>4.322</ele>
        <time>2012-09-03T14:03:54.960Z</time>
      </trkpt>
      <trkpt lat="49.03941" lon="2.05093">
        <ele>4.394</ele>
        <time>2012-09-03T14:03:56.932Z</time>
      </trkpt>
      <trkpt lat="49.03943" lon="2.05106">
        <ele>4.56</ele>
        <time>2012-09-03T14:03:58.815Z</time>
      </trkpt>
      <trkpt lat="49.03942" lon="2.05125">
        <ele>4.921</ele>
        <time>2012-09-03T14:04:01.417Z</time>
      </trkpt>
      <trkpt lat="49.03935" lon="2.05139">
        <ele>5.282</ele>
        <time>2012-09-03T14:04:03.990Z</time>
      </trkpt>
      <trkpt lat="49.03924" lon="2.05151">
        <ele>5.452</ele>
        <time>2012-09-03T14:04:07.237Z</time>
      </trkpt>
      <trkpt lat="49.03916" lon="2.05161">
        <ele>5.476</ele>
        <time>2012-09-03T14:04:09.549Z</time>
      </trkpt>
      <trkpt lat="49.03909" lon="2.05171">
        <ele>5.308</ele>
        <time>2012-09-03T14:04:11.715Z</time>
      </trkpt>
      <trkpt lat="49.03898" lon="2.05187">
        <ele>4.919</ele>
        <time>2012-09-03T14:04:14.840Z</time>
      </trkpt>
      <trkpt lat="49.03887" lon="2.05201">
        <ele>4.397</ele>
        <time>2012-09-03T14:04:17.793Z</time>
      </trkpt>
      <trkpt lat="49.03879" lon="2.0521">
        <ele>3.86</ele>
        <time>2012-09-03T14:04:19.701Z</time>
      </trkpt>
      <trkpt lat="49.03867" lon="2.05223">
        <ele>3.467</ele>
        <time>2012-09-03T14:04:22.524Z</time>
      </trkpt>
      <trkpt lat="49.03859" lon="2.05232">
        <ele>3.324</ele>
        <time>2012-09-03T14:04:24.411Z</time>
      </trkpt>
      <trkpt lat="49.03853" lon="2.05241">
        <ele>3.328</ele>
        <time>2012-09-03T14:04:26.155Z</time>
      </trkpt>
      <trkpt lat="49.03842" lon="2.05257">
        <ele>3.373</ele>
        <time>2012-09-03T14:04:29.057Z</time>
      </trkpt>
      <trkpt lat="49.03836" lon="2.05282">
        <ele>3.405</ele>
        <time>2012-09-03T14:04:32.463Z</time>
      </trkpt>
      <trkpt lat="49.03835" lon="2.05304">
        <ele>3.416</ele>
        <time>2012-09-03T14:04:35.272Z</time>
      </trkpt>
      <trkpt lat="49.03832" lon="2.05325">
        <ele>3.415</ele>
        <time>2012-09-03T14:04:38.028Z</time>
      </trkpt>
      <trkpt lat="49.03829" lon="2.05341">
        <ele>3.412</ele>
        <time>2012-09-03T14:04:40.116Z</time>
      </trkpt>
      <trkpt lat="49.03829" lon="2.05341">
        <ele>3.409</ele>
        <time>2012-09-03T14:04:42.107Z</time>
      </trkpt>
      <trkpt lat="49.03829" lon="2.05341">
        <ele>3.407</ele>
        <time>2012-09-03T14:04:42.207Z</time>
      </trkpt>
      <trkpt lat="49.03807" lon="2.05374">
        <ele>3.268</ele>
        <time>2012-09-03T14:04:50.138Z</time>
      </trkpt>
      <trkpt lat="49.03796" lon="2.0539">
        <ele>2.909</ele>
        <time>2012-09-03T14:04:53.198Z</time>
      </trkpt>
      <trkpt lat="49.03783" lon="2.05405">
        <ele>2.54</ele>
        <time>2012-09-03T14:04:56.233Z</time>
      </trkpt>
      <trkpt lat="49.03775" lon="2.05416">
        <ele>2.366</ele>
        <time>2012-09-03T14:04:58.263Z</time>
      </trkpt>
      <trkpt lat="49.03762" lon="2.05428">
        <ele>2.201</ele>
        <time>2012-09-03T14:05:01.257Z</time>
      </trkpt>
      <trkpt lat="49.03752" lon="2.05432">
        <ele>1.733</ele>
        <time>2012-09-03T14:05:03.124Z</time>
      </trkpt>
      <trkpt lat="49.03737" lon="2.05431">
        <ele>0.896</ele>
        <time>2012-09-03T14:05:05.868Z</time>
      </trkpt>
      <trkpt lat="49.03722" lon="2.05431">
        <ele>0.005</ele>
        <time>2012-09-03T14:05:08.692Z</time>
      </trkpt>
      <trkpt lat="49.03711" lon="2.0543">
        <ele>21.5</ele>
        <time>2012-09-03T14:05:10.725Z</time>
      </trkpt>
      <trkpt lat="49.03693" lon="2.0543">
        <ele>21.4</ele>
        <time>2012-09-03T14:05:13.911Z</time>
      </trkpt>
      <trkpt lat="49.03681" lon="2.05431">
        <ele>21.3</ele>
        <time>2012-09-03T14:05:16.022Z</time>
      </trkpt>
      <trkpt lat="49.03664" lon="2.05435">
        <ele>21</ele>
        <time>2012-09-03T14:05:19.126Z</time>
      </trkpt>
      <trkpt lat="49.03653" lon="2.05438">
        <ele>21</ele>
        <time>2012-09-03T14:05:21.236Z</time>
      </trkpt>
      <trkpt lat="49.03642" lon="2.05441">
        <ele>21</ele>
        <time>2012-09-03T14:05:23.227Z</time>
      </trkpt>
      <trkpt lat="49.03627" lon="2.05438">
        <ele>21.3</ele>
        <time>2012-09-03T14:05:26.009Z</time>
      </trkpt>
      <trkpt lat="49.03617" lon="2.05436">
        <ele>21.5</ele>
        <time>2012-09-03T14:05:27.899Z</time>
      </trkpt>
      <trkpt lat="49.036" lon="2.05427">
        <ele>21.5</ele>
        <time>2012-09-03T14:05:31.087Z</time>
      </trkpt>
      <trkpt lat="49.0359" lon="2.05421">
        <ele>21.3</ele>
        <time>2012-09-03T14:05:33.000Z</time>
      </trkpt>
      <trkpt lat="49.03576" lon="2.05412">
        <ele>21.4</ele>
        <time>2012-09-03T14:05:35.784Z</time>
      </trkpt>
      <trkpt lat="49.03563" lon="2.05402">
        <ele>21.7</ele>
        <time>2012-09-03T14:05:38.528Z</time>
      </trkpt>
      <trkpt lat="49.03553" lon="2.05396">
        <ele>21.5</ele>
        <time>2012-09-03T14:05:40.362Z</time>
      </trkpt>
      <trkpt lat="49.03539" lon="2.0539">
        <ele>21.7</ele>
        <time>2012-09-03T14:05:43.067Z</time>
      </trkpt>
      <trkpt lat="49.03525" lon="2.05381">
        <ele>22.1</ele>
        <time>2012-09-03T14:05:45.773Z</time>
      </trkpt>
      <trkpt lat="49.03513" lon="2.05366">
        <ele>22.1</ele>
        <time>2012-09-03T14:05:48.652Z</time>
      </trkpt>
      <trkpt lat="49.03504" lon="2.05349">
        <ele>21.9</ele>
        <time>2012-09-03T14:05:51.402Z</time>
      </trkpt>
      <trkpt lat="49.03496" lon="2.05332">
        <ele>22</ele>
        <time>2012-09-03T14:05:54.106Z</time>
      </trkpt>
      <trkpt lat="49.03486" lon="2.05327">
        <ele>0.542</ele>
        <time>2012-09-03T14:05:56.351Z</time>
      </trkpt>
      <trkpt lat="49.03475" lon="2.05335">
        <ele>1.06</ele>
        <time>2012-09-03T14:05:59.077Z</time>
      </trkpt>
      <trkpt lat="49.03466" lon="2.05344">
        <ele>1.394</ele>
        <time>2012-09-03T14:06:01.627Z</time>
      </trkpt>
      <trkpt lat="49.03458" lon="2.05354">
        <ele>1.497</ele>
        <time>2012-09-03T14:06:04.134Z</time>
      </trkpt>
      <trkpt lat="49.03449" lon="2.05362">
        <ele>1.48</ele>
        <time>2012-09-03T14:06:06.756Z</time>
      </trkpt>
      <trkpt lat="49.03439" lon="2.0537">
        <ele>1.161</ele>
        <time>2012-09-03T14:06:09.410Z</time>
      </trkpt>
      <trkpt lat="49.03429" lon="2.05378">
        <ele>0.414</ele>
        <time>2012-09-03T14:06:12.118Z</time>
      </trkpt>
      <trkpt lat="49.03419" lon="2.05389">
        <ele>23.1</ele>
        <time>2012-09-03T14:06:15.044Z</time>
      </trkpt>
      <trkpt lat="49.03411" lon="2.05397">
        <ele>22.7</ele>
        <time>2012-09-03T14:06:17.026Z</time>
      </trkpt>
      <trkpt lat="49.03403" lon="2.05412">
        <ele>22.4</ele>
        <time>2012-09-03T14:06:19.607Z</time>
      </trkpt>
      <trkpt lat="49.03397" lon="2.05429">
        <ele>22.4</ele>
        <time>2012-09-03T14:06:22.328Z</time>
      </trkpt>
      <trkpt lat="49.03391" lon="2.05448">
        <ele>22.3</ele>
        <time>2012-09-03T14:06:25.201Z</time>
      </trkpt>
      <trkpt lat="49.03385" lon="2.05467">
        <ele>22.6</ele>
        <time>2012-09-03T14:06:28.199Z</time>
      </trkpt>
      <trkpt lat="49.0338" lon="2.0548">
        <ele>22.6</ele>
        <time>2012-09-03T14:06:30.226Z</time>
      </trkpt>
      <trkpt lat="49.03373" lon="2.055">
        <ele>22.3</ele>
        <time>2012-09-03T14:06:33.115Z</time>
      </trkpt>
      <trkpt lat="49.03365" lon="2.05519">
        <ele>22.6</ele>
        <time>2012-09-03T14:06:36.113Z</time>
      </trkpt>
      <trkpt lat="49.03354" lon="2.05536">
        <ele>22.9</ele>
        <time>2012-09-03T14:06:39.185Z</time>
      </trkpt>
      <trkpt lat="49.0334" lon="2.05549">
        <ele>22.8</ele>
        <time>2012-09-03T14:06:42.374Z</time>
      </trkpt>
      <trkpt lat="49.03324" lon="2.05556">
        <ele>22.7</ele>
        <time>2012-09-03T14:06:45.594Z</time>
      </trkpt>
      <trkpt lat="49.03313" lon="2.05554">
        <ele>22.2</ele>
        <time>2012-09-03T14:06:47.445Z</time>
      </trkpt>
      <trkpt lat="49.03301" lon="2.05549">
        <ele>22.4</ele>
        <time>2012-09-03T14:06:49.891Z</time>
      </trkpt>
      <trkpt lat="49.0329" lon="2.0554">
        <ele>23</ele>
        <time>2012-09-03T14:06:52.211Z</time>
      </trkpt>
      <trkpt lat="49.03278" lon="2.05528">
        <ele>23</ele>
        <time>2012-09-03T14:06:54.983Z</time>
      </trkpt>
      <trkpt lat="49.03265" lon="2.05512">
        <ele>23.4</ele>
        <time>2012-09-03T14:06:58.085Z</time>
      </trkpt>
      <trkpt lat="49.03255" lon="2.05497">
        <ele>23.2</ele>
        <time>2012-09-03T14:07:00.808Z</time>
      </trkpt>
      <trkpt lat="49.03246" lon="2.05489">
        <ele>22.8</ele>
        <time>2012-09-03T14:07:02.914Z</time>
      </trkpt>
      <trkpt lat="49.03232" lon="2.05485">
        <ele>22.3</ele>
        <time>2012-09-03T14:07:05.570Z</time>
      </trkpt>
      <trkpt lat="49.03216" lon="2.05486">
        <ele>22.2</ele>
        <time>2012-09-03T14:07:08.704Z</time>
      </trkpt>
      <trkpt lat="49.032" lon="2.05493">
        <ele>22.1</ele>
        <time>2012-09-03T14:07:11.900Z</time>
      </trkpt>
      <trkpt lat="49.03191" lon="2.055">
        <ele>21.9</ele>
        <time>2012-09-03T14:07:13.698Z</time>
      </trkpt>
      <trkpt lat="49.03184" lon="2.05514">
        <ele>22.8</ele>
        <time>2012-09-03T14:07:15.805Z</time>
      </trkpt>
      <trkpt lat="49.03173" lon="2.05533">
        <ele>23.2</ele>
        <time>2012-09-03T14:07:18.980Z</time>
      </trkpt>
      <trkpt lat="49.03164" lon="2.05544">
        <ele>23</ele>
        <time>2012-09-03T14:07:21.243Z</time>
      </trkpt>
      <trkpt lat="49.03155" lon="2.05557">
        <ele>22.8</ele>
        <time>2012-09-03T14:07:23.871Z</time>
      </trkpt>
      <trkpt lat="49.03151" lon="2.05572">
        <ele>23.2</ele>
        <time>2012-09-03T14:07:26.248Z</time>
      </trkpt>
      <trkpt lat="49.03145" lon="2.05592">
        <ele>23</ele>
        <time>2012-09-03T14:07:29.660Z</time>
      </trkpt>
      <trkpt lat="49.03131" lon="2.05617">
        <ele>22</ele>
        <time>2012-09-03T14:07:33.628Z</time>
      </trkpt>
      <trkpt lat="49.03121" lon="2.05637">
        <ele>22</ele>
        <time>2012-09-03T14:07:36.177Z</time>
      </trkpt>
      <trkpt lat="49.0311" lon="2.05651">
        <ele>21.4</ele>
        <time>2012-09-03T14:07:38.402Z</time>
      </trkpt>
      <trkpt lat="49.03095" lon="2.05668">
        <ele>21.4</ele>
        <time>2012-09-03T14:07:41.386Z</time>
      </trkpt>
      <trkpt lat="49.0308" lon="2.05682">
        <ele>21</ele>
        <time>2012-09-03T14:07:44.223Z</time>
      </trkpt>
      <trkpt lat="49.0307" lon="2.05697">
        <ele>21.1</ele>
        <time>2012-09-03T14:07:47.069Z</time>
      </trkpt>
      <trkpt lat="49.03062" lon="2.05707">
        <ele>21.5</ele>
        <time>2012-09-03T14:07:49.828Z</time>
      </trkpt>
      <trkpt lat="49.03054" lon="2.05716">
        <ele>21.8</ele>
        <time>2012-09-03T14:07:53.110Z</time>
      </trkpt>
      <trkpt lat="49.03054" lon="2.05716">
        <ele>21.8</ele>
        <time>2012-09-03T14:07:57.108Z</time>
      </trkpt>
      <trkpt lat="49.03054" lon="2.05716">
        <ele>21.8</ele>
        <time>2012-09-03T14:07:57.208Z</time>
      </trkpt>
      <trkpt lat="49.03035" lon="2.05759">
        <ele>23.8</ele>
        <time>2012-09-03T14:08:14.944Z</time>
      </trkpt>
      <trkpt lat="49.03026" lon="2.05769">
        <ele>24</ele>
        <time>2012-09-03T14:08:17.111Z</time>
      </trkpt>
      <trkpt lat="49.03026" lon="2.05769">
        <ele>24</ele>
        <time>2012-09-03T14:08:24.112Z</time>
      </trkpt>
      <trkpt lat="49.03026" lon="2.05769">
        <ele>24</ele>
        <time>2012-09-03T14:08:24.212Z</time>
      </trkpt>
      <trkpt lat="49.02999" lon="2.05783">
        <ele>24</ele>
        <time>2012-09-03T14:08:36.415Z</time>
      </trkpt>
      <trkpt lat="49.02987" lon="2.05781">
        <ele>24.4</ele>
        <time>2012-09-03T14:08:40.552Z</time>
      </trkpt>
      <trkpt lat="49.02976" lon="2.05778">
        <ele>24.9</ele>
        <time>2012-09-03T14:08:45.983Z</time>
      </trkpt>
      <trkpt lat="49.02966" lon="2.05778">
        <ele>24.8</ele>
        <time>2012-09-03T14:08:50.860Z</time>
      </trkpt>
      <trkpt lat="49.02954" lon="2.05739">
        <ele>24</ele>
        <time>2012-09-03T14:09:01.763Z</time>
      </trkpt>
      <trkpt lat="49.02947" lon="2.0571">
        <ele>23.5</ele>
        <time>2012-09-03T14:09:06.895Z</time>
      </trkpt>
      <trkpt lat="49.02943" lon="2.05694">
        <ele>23.1</ele>
        <time>2012-09-03T14:09:09.851Z</time>
      </trkpt>
      <trkpt lat="49.02929" lon="2.05657">
        <ele>23.7</ele>
        <time>2012-09-03T14:09:17.667Z</time>
      </trkpt>
      <trkpt lat="49.02913" lon="2.05621">
        <ele>23.4</ele>
        <time>2012-09-03T14:09:23.608Z</time>
      </trkpt>
      <trkpt lat="49.02904" lon="2.05604">
        <ele>23</ele>
        <time>2012-09-03T14:09:26.012Z</time>
      </trkpt>
      <trkpt lat="49.02892" lon="2.05585">
        <ele>22.8</ele>
        <time>2012-09-03T14:09:28.879Z</time>
      </trkpt>
      <trkpt lat="49.02888" lon="2.05567">
        <ele>23.7</ele>
        <time>2012-09-03T14:09:31.229Z</time>
      </trkpt>
      <trkpt lat="49.02885" lon="2.05549">
        <ele>24.1</ele>
        <time>2012-09-03T14:09:33.548Z</time>
      </trkpt>
      <trkpt lat="49.02883" lon="2.0553">
        <ele>24.2</ele>
        <time>2012-09-03T14:09:36.179Z</time>
      </trkpt>
      <trkpt lat="49.02881" lon="2.05512">
        <ele>23.1</ele>
        <time>2012-09-03T14:09:38.686Z</time>
      </trkpt>
      <trkpt lat="49.0288" lon="2.05497">
        <ele>22.2</ele>
        <time>2012-09-03T14:09:40.948Z</time>
      </trkpt>
      <trkpt lat="49.02875" lon="2.05483">
        <ele>22.7</ele>
        <time>2012-09-03T14:09:43.413Z</time>
      </trkpt>
      <trkpt lat="49.02866" lon="2.05474">
        <ele>23.5</ele>
        <time>2012-09-03T14:09:46.106Z</time>
      </trkpt>
      <trkpt lat="49.02866" lon="2.05474">
        <ele>23.5</ele>
        <time>2012-09-03T14:09:47.112Z</time>
      </trkpt>
      <trkpt lat="49.02866" lon="2.05474">
        <ele>23.5</ele>
        <time>2012-09-03T14:09:47.212Z</time>
      </trkpt>
      <trkpt lat="49.02842" lon="2.05449">
        <ele>22.3</ele>
        <time>2012-09-03T14:09:56.792Z</time>
      </trkpt>
      <trkpt lat="49.02839" lon="2.05426">
        <ele>22.4</ele>
        <time>2012-09-03T14:09:59.113Z</time>
      </trkpt>
      <trkpt lat="49.02839" lon="2.05426">
        <ele>22.4</ele>
        <time>2012-09-03T14:10:00.109Z</time>
      </trkpt>
      <trkpt lat="49.02839" lon="2.05426">
        <ele>22.4</ele>
        <time>2012-09-03T14:10:00.209Z</time>
      </trkpt>
      <trkpt lat="49.02832" lon="2.05391">
        <ele>23.2</ele>
        <time>2012-09-03T14:10:06.436Z</time>
      </trkpt>
      <trkpt lat="49.02828" lon="2.05369">
        <ele>23.1</ele>
        <time>2012-09-03T14:10:09.537Z</time>
      </trkpt>
      <trkpt lat="49.02826" lon="2.05356">
        <ele>23.2</ele>
        <time>2012-09-03T14:10:11.469Z</time>
      </trkpt>
      <trkpt lat="49.02823" lon="2.05335">
        <ele>23.7</ele>
        <time>2012-09-03T14:10:14.364Z</time>
      </trkpt>
      <trkpt lat="49.02817" lon="2.05316">
        <ele>23.9</ele>
        <time>2012-09-03T14:10:17.196Z</time>
      </trkpt>
      <trkpt lat="49.0281" lon="2.05297">
        <ele>23.5</ele>
        <time>2012-09-03T14:10:20.270Z</time>
      </trkpt>
      <trkpt lat="49.02805" lon="2.05285">
        <ele>22.1</ele>
        <time>2012-09-03T14:10:22.215Z</time>
      </trkpt>
      <trkpt lat="49.02793" lon="2.05277">
        <ele>22.8</ele>
        <time>2012-09-03T14:10:24.928Z</time>
      </trkpt>
      <trkpt lat="49.0278" lon="2.05269">
        <ele>23.5</ele>
        <time>2012-09-03T14:10:27.703Z</time>
      </trkpt>
      <trkpt lat="49.02768" lon="2.05256">
        <ele>22.7</ele>
        <time>2012-09-03T14:10:30.698Z</time>
      </trkpt>
      <trkpt lat="49.0276" lon="2.05245">
        <ele>22.5</ele>
        <time>2012-09-03T14:10:32.742Z</time>
      </trkpt>
      <trkpt lat="49.02752" lon="2.0523">
        <ele>21.7</ele>
        <time>2012-09-03T14:10:35.189Z</time>
      </trkpt>
      <trkpt lat="49.02735" lon="2.05205">
        <ele>22.1</ele>
        <time>2012-09-03T14:10:39.361Z</time>
      </trkpt>
      <trkpt lat="49.02726" lon="2.05192">
        <ele>21.8</ele>
        <time>2012-09-03T14:10:41.648Z</time>
      </trkpt>
      <trkpt lat="49.02715" lon="2.05173">
        <ele>22.3</ele>
        <time>2012-09-03T14:10:44.828Z</time>
      </trkpt>
      <trkpt lat="49.02708" lon="2.0516">
        <ele>22.7</ele>
        <time>2012-09-03T14:10:46.833Z</time>
      </trkpt>
      <trkpt lat="49.02703" lon="2.05147">
        <ele>22.4</ele>
        <time>2012-09-03T14:10:48.799Z</time>
      </trkpt>
      <trkpt lat="49.02694" lon="2.05129">
        <ele>21.7</ele>
        <time>2012-09-03T14:10:51.594Z</time>
      </trkpt>
      <trkpt lat="49.02686" lon="2.0511">
        <ele>22.2</ele>
        <time>2012-09-03T14:10:54.466Z</time>
      </trkpt>
      <trkpt lat="49.02677" lon="2.05093">
        <ele>22.7</ele>
        <time>2012-09-03T14:10:57.272Z</time>
      </trkpt>
      <trkpt lat="49.02668" lon="2.05078">
        <ele>23.1</ele>
        <time>2012-09-03T14:10:59.897Z</time>
      </trkpt>
      <trkpt lat="49.02657" lon="2.05062">
        <ele>24.6</ele>
        <time>2012-09-03T14:11:02.927Z</time>
      </trkpt>
      <trkpt lat="49.02645" lon="2.05046">
        <ele>25.2</ele>
        <time>2012-09-03T14:11:06.190Z</time>
      </trkpt>
      <trkpt lat="49.02634" lon="2.05038">
        <ele>24.8</ele>
        <time>2012-09-03T14:11:08.988Z</time>
      </trkpt>
      <trkpt lat="49.02623" lon="2.05039">
        <ele>24.8</ele>
        <time>2012-09-03T14:11:11.566Z</time>
      </trkpt>
      <trkpt lat="49.02614" lon="2.05057">
        <ele>26</ele>
        <time>2012-09-03T14:11:15.018Z</time>
      </trkpt>
      <trkpt lat="49.02607" lon="2.0507">
        <ele>26</ele>
        <time>2012-09-03T14:11:17.785Z</time>
      </trkpt>
      <trkpt lat="49.02603" lon="2.05083">
        <ele>0.066</ele>
        <time>2012-09-03T14:11:20.241Z</time>
      </trkpt>
      <trkpt lat="49.02598" lon="2.05098">
        <ele>0.458</ele>
        <time>2012-09-03T14:11:23.130Z</time>
      </trkpt>
      <trkpt lat="49.02592" lon="2.05111">
        <ele>0.543</ele>
        <time>2012-09-03T14:11:26.110Z</time>
      </trkpt>
      <trkpt lat="49.02592" lon="2.05111">
        <ele>0.495</ele>
        <time>2012-09-03T14:11:29.116Z</time>
      </trkpt>
      <trkpt lat="49.02592" lon="2.05111">
        <ele>0.434</ele>
        <time>2012-09-03T14:11:29.216Z</time>
      </trkpt>
      <trkpt lat="49.02579" lon="2.05142">
        <ele>0.403</ele>
        <time>2012-09-03T14:11:41.309Z</time>
      </trkpt>
      <trkpt lat="49.02565" lon="2.05178">
        <ele>0.258</ele>
        <time>2012-09-03T14:11:47.114Z</time>
      </trkpt>
      <trkpt lat="49.02565" lon="2.05178">
        <ele>27.7</ele>
        <time>2012-09-03T14:11:50.111Z</time>
      </trkpt>
      <trkpt lat="49.02565" lon="2.05178">
        <ele>27.7</ele>
        <time>2012-09-03T14:11:50.211Z</time>
      </trkpt>
      <trkpt lat="49.02546" lon="2.05217">
        <ele>27.5</ele>
        <time>2012-09-03T14:11:59.921Z</time>
      </trkpt>
      <trkpt lat="49.02537" lon="2.05234">
        <ele>27.7</ele>
        <time>2012-09-03T14:12:03.402Z</time>
      </trkpt>
      <trkpt lat="49.02529" lon="2.05252">
        <ele>28</ele>
        <time>2012-09-03T14:12:06.778Z</time>
      </trkpt>
      <trkpt lat="49.02524" lon="2.05281">
        <ele>28</ele>
        <time>2012-09-03T14:12:11.339Z</time>
      </trkpt>
      <trkpt lat="49.02523" lon="2.05302">
        <ele>28</ele>
        <time>2012-09-03T14:12:14.004Z</time>
      </trkpt>
      <trkpt lat="49.02522" lon="2.0532">
        <ele>0.041</ele>
        <time>2012-09-03T14:12:15.974Z</time>
      </trkpt>
      <trkpt lat="49.02523" lon="2.05337">
        <ele>0.578</ele>
        <time>2012-09-03T14:12:17.797Z</time>
      </trkpt>
      <trkpt lat="49.02524" lon="2.05368">
        <ele>1.566</ele>
        <time>2012-09-03T14:12:21.127Z</time>
      </trkpt>
      <trkpt lat="49.02625" lon="2.0555">
        <ele>35.408</ele>
        <time>2012-09-03T14:12:58.089Z</time>
      </trkpt>
      <trkpt lat="49.02625" lon="2.0555">
        <ele>22.572</ele>
        <time>2012-09-03T14:13:01.093Z</time>
      </trkpt>
      <trkpt lat="49.02625" lon="2.0555">
        <ele>9.625</ele>
        <time>2012-09-03T14:13:01.193Z</time>
      </trkpt>
      <trkpt lat="49.02618" lon="2.05563">
        <ele>11.456</ele>
        <time>2012-09-03T14:13:23.466Z</time>
      </trkpt>
      <trkpt lat="49.02614" lon="2.05579">
        <ele>19.573</ele>
        <time>2012-09-03T14:13:27.539Z</time>
      </trkpt>
      <trkpt lat="49.02607" lon="2.05593">
        <ele>25.376</ele>
        <time>2012-09-03T14:13:30.379Z</time>
      </trkpt>
      <trkpt lat="49.02602" lon="2.05605">
        <ele>27.819</ele>
        <time>2012-09-03T14:13:32.090Z</time>
      </trkpt>
      <trkpt lat="49.02602" lon="2.05605">
        <ele>27.491</ele>
        <time>2012-09-03T14:13:34.091Z</time>
      </trkpt>
      <trkpt lat="49.02602" lon="2.05605">
        <ele>26.548</ele>
        <time>2012-09-03T14:13:34.191Z</time>
      </trkpt>
      <trkpt lat="49.02588" lon="2.05633">
        <ele>26.444</ele>
        <time>2012-09-03T14:13:43.710Z</time>
      </trkpt>
      <trkpt lat="49.02583" lon="2.05646">
        <ele>26.635</ele>
        <time>2012-09-03T14:13:47.055Z</time>
      </trkpt>
      <trkpt lat="49.02577" lon="2.0566">
        <ele>26.296</ele>
        <time>2012-09-03T14:13:50.437Z</time>
      </trkpt>
      <trkpt lat="49.02573" lon="2.05677">
        <ele>25.572</ele>
        <time>2012-09-03T14:13:54.386Z</time>
      </trkpt>
      <trkpt lat="49.02567" lon="2.0569">
        <ele>24.868</ele>
        <time>2012-09-03T14:13:57.115Z</time>
      </trkpt>
      <trkpt lat="49.02561" lon="2.05705">
        <ele>24.131</ele>
        <time>2012-09-03T14:14:00.109Z</time>
      </trkpt>
      <trkpt lat="49.02555" lon="2.05717">
        <ele>23.127</ele>
        <time>2012-09-03T14:14:02.618Z</time>
      </trkpt>
      <trkpt lat="49.02548" lon="2.05731">
        <ele>22.049</ele>
        <time>2012-09-03T14:14:05.497Z</time>
      </trkpt>
      <trkpt lat="49.02539" lon="2.05748">
        <ele>21.387</ele>
        <time>2012-09-03T14:14:08.815Z</time>
      </trkpt>
      <trkpt lat="49.02531" lon="2.05762">
        <ele>21.058</ele>
        <time>2012-09-03T14:14:11.626Z</time>
      </trkpt>
      <trkpt lat="49.02523" lon="2.05774">
        <ele>20.605</ele>
        <time>2012-09-03T14:14:14.209Z</time>
      </trkpt>
      <trkpt lat="49.02514" lon="2.05786">
        <ele>19.687</ele>
        <time>2012-09-03T14:14:16.790Z</time>
      </trkpt>
      <trkpt lat="49.02505" lon="2.05798">
        <ele>18.2</ele>
        <time>2012-09-03T14:14:19.515Z</time>
      </trkpt>
      <trkpt lat="49.02496" lon="2.0581">
        <ele>16.417</ele>
        <time>2012-09-03T14:14:22.233Z</time>
      </trkpt>
      <trkpt lat="49.02487" lon="2.05821">
        <ele>14.967</ele>
        <time>2012-09-03T14:14:24.906Z</time>
      </trkpt>
      <trkpt lat="49.02479" lon="2.05833">
        <ele>14.247</ele>
        <time>2012-09-03T14:14:27.491Z</time>
      </trkpt>
      <trkpt lat="49.02473" lon="2.05846">
        <ele>14.118</ele>
        <time>2012-09-03T14:14:29.978Z</time>
      </trkpt>
      <trkpt lat="49.02469" lon="2.05861">
        <ele>14.227</ele>
        <time>2012-09-03T14:14:32.554Z</time>
      </trkpt>
      <trkpt lat="49.02467" lon="2.05876">
        <ele>14.345</ele>
        <time>2012-09-03T14:14:35.011Z</time>
      </trkpt>
      <trkpt lat="49.02473" lon="2.05893">
        <ele>14.403</ele>
        <time>2012-09-03T14:14:38.248Z</time>
      </trkpt>
      <trkpt lat="49.02479" lon="2.0591">
        <ele>14.413</ele>
        <time>2012-09-03T14:14:41.273Z</time>
      </trkpt>
      <trkpt lat="49.02487" lon="2.05923">
        <ele>14.404</ele>
        <time>2012-09-03T14:14:44.403Z</time>
      </trkpt>
      <trkpt lat="49.02496" lon="2.05937">
        <ele>14.394</ele>
        <time>2012-09-03T14:14:47.948Z</time>
      </trkpt>
      <trkpt lat="49.02503" lon="2.05948">
        <ele>14.389</ele>
        <time>2012-09-03T14:14:50.665Z</time>
      </trkpt>
      <trkpt lat="49.02512" lon="2.05961">
        <ele>14.25</ele>
        <time>2012-09-03T14:14:53.565Z</time>
      </trkpt>
      <trkpt lat="49.02522" lon="2.0598">
        <ele>13.891</ele>
        <time>2012-09-03T14:14:56.910Z</time>
      </trkpt>
      <trkpt lat="49.0253" lon="2.05995">
        <ele>13.523</ele>
        <time>2012-09-03T14:14:59.663Z</time>
      </trkpt>
      <trkpt lat="49.02538" lon="2.06005">
        <ele>13.348</ele>
        <time>2012-09-03T14:15:01.898Z</time>
      </trkpt>
      <trkpt lat="49.02555" lon="2.06024">
        <ele>13.183</ele>
        <time>2012-09-03T14:15:06.092Z</time>
      </trkpt>
      <trkpt lat="49.02555" lon="2.06024">
        <ele>12.853</ele>
        <time>2012-09-03T14:15:07.094Z</time>
      </trkpt>
      <trkpt lat="49.02555" lon="2.06024">
        <ele>12.514</ele>
        <time>2012-09-03T14:15:07.194Z</time>
      </trkpt>
      <trkpt lat="49.02571" lon="2.06044">
        <ele>12.353</ele>
        <time>2012-09-03T14:15:13.180Z</time>
      </trkpt>
      <trkpt lat="49.02581" lon="2.06061">
        <ele>12.19</ele>
        <time>2012-09-03T14:15:16.453Z</time>
      </trkpt>
      <trkpt lat="49.02586" lon="2.06073">
        <ele>11.719</ele>
        <time>2012-09-03T14:15:18.601Z</time>
      </trkpt>
      <trkpt lat="49.02594" lon="2.06098">
        <ele>10.741</ele>
        <time>2012-09-03T14:15:22.634Z</time>
      </trkpt>
      <trkpt lat="49.02602" lon="2.06122">
        <ele>9.214</ele>
        <time>2012-09-03T14:15:26.322Z</time>
      </trkpt>
      <trkpt lat="49.02606" lon="2.06135">
        <ele>7.417</ele>
        <time>2012-09-03T14:15:28.392Z</time>
      </trkpt>
      <trkpt lat="49.02615" lon="2.06156">
        <ele>5.969</ele>
        <time>2012-09-03T14:15:31.805Z</time>
      </trkpt>
      <trkpt lat="49.02623" lon="2.06176">
        <ele>5.115</ele>
        <time>2012-09-03T14:15:35.064Z</time>
      </trkpt>
      <trkpt lat="49.02632" lon="2.06194">
        <ele>4.63</ele>
        <time>2012-09-03T14:15:38.257Z</time>
      </trkpt>
      <trkpt lat="49.0264" lon="2.06211">
        <ele>4.371</ele>
        <time>2012-09-03T14:15:41.296Z</time>
      </trkpt>
      <trkpt lat="49.0265" lon="2.0623">
        <ele>4.175</ele>
        <time>2012-09-03T14:15:44.366Z</time>
      </trkpt>
      <trkpt lat="49.02661" lon="2.06248">
        <ele>3.708</ele>
        <time>2012-09-03T14:15:47.321Z</time>
      </trkpt>
      <trkpt lat="49.02668" lon="2.06262">
        <ele>3.019</ele>
        <time>2012-09-03T14:15:49.350Z</time>
      </trkpt>
      <trkpt lat="49.02681" lon="2.06281">
        <ele>2.495</ele>
        <time>2012-09-03T14:15:52.536Z</time>
      </trkpt>
      <trkpt lat="49.0269" lon="2.06294">
        <ele>2.159</ele>
        <time>2012-09-03T14:15:54.670Z</time>
      </trkpt>
      <trkpt lat="49.02698" lon="2.06308">
        <ele>1.8</ele>
        <time>2012-09-03T14:15:56.769Z</time>
      </trkpt>
      <trkpt lat="49.02709" lon="2.06328">
        <ele>1.488</ele>
        <time>2012-09-03T14:15:59.852Z</time>
      </trkpt>
      <trkpt lat="49.02719" lon="2.0635">
        <ele>1.355</ele>
        <time>2012-09-03T14:16:03.173Z</time>
      </trkpt>
      <trkpt lat="49.02727" lon="2.06364">
        <ele>1.344</ele>
        <time>2012-09-03T14:16:05.311Z</time>
      </trkpt>
      <trkpt lat="49.02734" lon="2.06377">
        <ele>1.374</ele>
        <time>2012-09-03T14:16:07.501Z</time>
      </trkpt>
      <trkpt lat="49.02745" lon="2.06394">
        <ele>1.4</ele>
        <time>2012-09-03T14:16:10.621Z</time>
      </trkpt>
      <trkpt lat="49.02755" lon="2.0641">
        <ele>1.41</ele>
        <time>2012-09-03T14:16:13.600Z</time>
      </trkpt>
      <trkpt lat="49.02765" lon="2.06425">
        <ele>1.411</ele>
        <time>2012-09-03T14:16:16.344Z</time>
      </trkpt>
      <trkpt lat="49.02773" lon="2.06439">
        <ele>1.409</ele>
        <time>2012-09-03T14:16:18.823Z</time>
      </trkpt>
      <trkpt lat="49.02781" lon="2.06454">
        <ele>1.407</ele>
        <time>2012-09-03T14:16:20.761Z</time>
      </trkpt>
      <trkpt lat="49.0279" lon="2.06473">
        <ele>1.129</ele>
        <time>2012-09-03T14:16:22.802Z</time>
      </trkpt>
      <trkpt lat="49.02804" lon="2.06498">
        <ele>0.271</ele>
        <time>2012-09-03T14:16:25.604Z</time>
      </trkpt>
      <trkpt lat="49.02817" lon="2.06526">
        <ele>26.3</ele>
        <time>2012-09-03T14:16:28.485Z</time>
      </trkpt>
      <trkpt lat="49.02829" lon="2.06554">
        <ele>25.1</ele>
        <time>2012-09-03T14:16:30.932Z</time>
      </trkpt>
      <trkpt lat="49.02847" lon="2.06591">
        <ele>26.3</ele>
        <time>2012-09-03T14:16:33.876Z</time>
      </trkpt>
      <trkpt lat="49.02868" lon="2.06633">
        <ele>26.3</ele>
        <time>2012-09-03T14:16:36.965Z</time>
      </trkpt>
      <trkpt lat="49.02885" lon="2.0666">
        <ele>25</ele>
        <time>2012-09-03T14:16:39.342Z</time>
      </trkpt>
      <trkpt lat="49.02905" lon="2.06692">
        <ele>26.1</ele>
        <time>2012-09-03T14:16:42.749Z</time>
      </trkpt>
      <trkpt lat="49.02917" lon="2.06715">
        <ele>25</ele>
        <time>2012-09-03T14:16:45.686Z</time>
      </trkpt>
      <trkpt lat="49.02923" lon="2.0673">
        <ele>26.1</ele>
        <time>2012-09-03T14:16:47.471Z</time>
      </trkpt>
      <trkpt lat="49.0293" lon="2.06752">
        <ele>27.6</ele>
        <time>2012-09-03T14:16:49.976Z</time>
      </trkpt>
      <trkpt lat="49.02934" lon="2.06767">
        <ele>27.7</ele>
        <time>2012-09-03T14:16:51.636Z</time>
      </trkpt>
      <trkpt lat="49.02937" lon="2.06783">
        <ele>28</ele>
        <time>2012-09-03T14:16:53.353Z</time>
      </trkpt>
      <trkpt lat="49.02936" lon="2.06797">
        <ele>28.7</ele>
        <time>2012-09-03T14:16:54.943Z</time>
      </trkpt>
      <trkpt lat="49.02937" lon="2.06812">
        <ele>29.2</ele>
        <time>2012-09-03T14:16:56.631Z</time>
      </trkpt>
      <trkpt lat="49.02925" lon="2.06825">
        <ele>29.2</ele>
        <time>2012-09-03T14:16:59.098Z</time>
      </trkpt>
      <trkpt lat="49.02909" lon="2.06841">
        <ele>28.3</ele>
        <time>2012-09-03T14:17:02.617Z</time>
      </trkpt>
      <trkpt lat="49.02901" lon="2.06852">
        <ele>27.6</ele>
        <time>2012-09-03T14:17:04.643Z</time>
      </trkpt>
      <trkpt lat="49.02889" lon="2.06858">
        <ele>27</ele>
        <time>2012-09-03T14:17:07.171Z</time>
      </trkpt>
      <trkpt lat="49.02874" lon="2.06864">
        <ele>26.6</ele>
        <time>2012-09-03T14:17:10.283Z</time>
      </trkpt>
      <trkpt lat="49.02863" lon="2.06867">
        <ele>26.3</ele>
        <time>2012-09-03T14:17:12.501Z</time>
      </trkpt>
      <trkpt lat="49.02848" lon="2.06874">
        <ele>26.2</ele>
        <time>2012-09-03T14:17:15.741Z</time>
      </trkpt>
      <trkpt lat="49.0284" lon="2.0688">
        <ele>26.2</ele>
        <time>2012-09-03T14:17:17.784Z</time>
      </trkpt>
      <trkpt lat="49.02829" lon="2.06892">
        <ele>25.8</ele>
        <time>2012-09-03T14:17:20.537Z</time>
      </trkpt>
      <trkpt lat="49.02819" lon="2.06904">
        <ele>25.5</ele>
        <time>2012-09-03T14:17:23.315Z</time>
      </trkpt>
      <trkpt lat="49.02809" lon="2.06916">
        <ele>25.1</ele>
        <time>2012-09-03T14:17:26.131Z</time>
      </trkpt>
      <trkpt lat="49.02802" lon="2.06926">
        <ele>25.6</ele>
        <time>2012-09-03T14:17:28.157Z</time>
      </trkpt>
      <trkpt lat="49.02791" lon="2.06938">
        <ele>26.1</ele>
        <time>2012-09-03T14:17:31.117Z</time>
      </trkpt>
      <trkpt lat="49.0278" lon="2.06949">
        <ele>26.1</ele>
        <time>2012-09-03T14:17:34.057Z</time>
      </trkpt>
      <trkpt lat="49.02768" lon="2.06957">
        <ele>25.6</ele>
        <time>2012-09-03T14:17:36.979Z</time>
      </trkpt>
      <trkpt lat="49.02754" lon="2.06963">
        <ele>25.1</ele>
        <time>2012-09-03T14:17:40.047Z</time>
      </trkpt>
      <trkpt lat="49.02745" lon="2.06967">
        <ele>24.8</ele>
        <time>2012-09-03T14:17:41.979Z</time>
      </trkpt>
      <trkpt lat="49.02733" lon="2.06975">
        <ele>24.4</ele>
        <time>2012-09-03T14:17:44.743Z</time>
      </trkpt>
      <trkpt lat="49.02721" lon="2.06985">
        <ele>24.5</ele>
        <time>2012-09-03T14:17:47.464Z</time>
      </trkpt>
      <trkpt lat="49.02709" lon="2.06998">
        <ele>24.9</ele>
        <time>2012-09-03T14:17:50.365Z</time>
      </trkpt>
      <trkpt lat="49.02701" lon="2.07009">
        <ele>25.3</ele>
        <time>2012-09-03T14:17:52.612Z</time>
      </trkpt>
      <trkpt lat="49.02689" lon="2.07023">
        <ele>25.6</ele>
        <time>2012-09-03T14:17:55.724Z</time>
      </trkpt>
      <trkpt lat="49.02679" lon="2.07035">
        <ele>25.6</ele>
        <time>2012-09-03T14:17:58.501Z</time>
      </trkpt>
      <trkpt lat="49.02669" lon="2.07046">
        <ele>25.7</ele>
        <time>2012-09-03T14:18:01.514Z</time>
      </trkpt>
      <trkpt lat="49.02661" lon="2.07054">
        <ele>25.7</ele>
        <time>2012-09-03T14:18:04.111Z</time>
      </trkpt>
      <trkpt lat="49.02652" lon="2.07064">
        <ele>25.3</ele>
        <time>2012-09-03T14:18:07.451Z</time>
      </trkpt>
      <trkpt lat="49.02643" lon="2.07074">
        <ele>25.1</ele>
        <time>2012-09-03T14:18:10.391Z</time>
      </trkpt>
      <trkpt lat="49.02634" lon="2.07083">
        <ele>25</ele>
        <time>2012-09-03T14:18:13.292Z</time>
      </trkpt>
      <trkpt lat="49.02626" lon="2.07092">
        <ele>25</ele>
        <time>2012-09-03T14:18:16.087Z</time>
      </trkpt>
      <trkpt lat="49.02616" lon="2.071">
        <ele>25</ele>
        <time>2012-09-03T14:18:18.938Z</time>
      </trkpt>
      <trkpt lat="49.02607" lon="2.07108">
        <ele>25</ele>
        <time>2012-09-03T14:18:21.714Z</time>
      </trkpt>
      <trkpt lat="49.02598" lon="2.07117">
        <ele>25</ele>
        <time>2012-09-03T14:18:24.558Z</time>
      </trkpt>
      <trkpt lat="49.02588" lon="2.07127">
        <ele>25</ele>
        <time>2012-09-03T14:18:27.476Z</time>
      </trkpt>
      <trkpt lat="49.02579" lon="2.07134">
        <ele>25.1</ele>
        <time>2012-09-03T14:18:30.261Z</time>
      </trkpt>
      <trkpt lat="49.02571" lon="2.07141">
        <ele>25.5</ele>
        <time>2012-09-03T14:18:33.094Z</time>
      </trkpt>
      <trkpt lat="49.02571" lon="2.07141">
        <ele>25.5</ele>
        <time>2012-09-03T14:18:42.100Z</time>
      </trkpt>
      <trkpt lat="49.02571" lon="2.07141">
        <ele>25.5</ele>
        <time>2012-09-03T14:18:42.200Z</time>
      </trkpt>
      <trkpt lat="49.02551" lon="2.0717">
        <ele>25.7</ele>
        <time>2012-09-03T14:18:47.092Z</time>
      </trkpt>
      <trkpt lat="49.02551" lon="2.0717">
        <ele>25.7</ele>
        <time>2012-09-03T14:18:50.102Z</time>
      </trkpt>
      <trkpt lat="49.02551" lon="2.0717">
        <ele>25.7</ele>
        <time>2012-09-03T14:18:52.694Z</time>
      </trkpt>
      <trkpt lat="49.02551" lon="2.0717">
        <ele>25.7</ele>
        <time>2012-09-03T14:19:11.091Z</time>
      </trkpt>
      <trkpt lat="49.02551" lon="2.0717">
        <ele>0.477</ele>
        <time>2012-09-03T14:19:11.191Z</time>
      </trkpt>
      <trkpt lat="49.02568" lon="2.07163">
        <ele>0.81</ele>
        <time>2012-09-03T14:19:21.092Z</time>
      </trkpt>
      <trkpt lat="49.02568" lon="2.07163">
        <ele>0.473</ele>
        <time>2012-09-03T14:19:28.092Z</time>
      </trkpt>
      <trkpt lat="49.02568" lon="2.07163">
        <ele>0.125</ele>
        <time>2012-09-03T14:19:41.096Z</time>
      </trkpt>
      <trkpt lat="49.02568" lon="2.07163">
        <ele>25.6</ele>
        <time>2012-09-03T14:19:41.196Z</time>
      </trkpt>
      <trkpt lat="49.02543" lon="2.07181">
        <ele>25.3</ele>
        <time>2012-09-03T14:19:57.583Z</time>
      </trkpt>
      <trkpt lat="49.02535" lon="2.0719">
        <ele>25</ele>
        <time>2012-09-03T14:20:00.515Z</time>
      </trkpt>
      <trkpt lat="49.02525" lon="2.07202">
        <ele>25</ele>
        <time>2012-09-03T14:20:04.206Z</time>
      </trkpt>
      <trkpt lat="49.02518" lon="2.07213">
        <ele>25</ele>
        <time>2012-09-03T14:20:07.032Z</time>
      </trkpt>
      <trkpt lat="49.02512" lon="2.07226">
        <ele>25.1</ele>
        <time>2012-09-03T14:20:09.994Z</time>
      </trkpt>
      <trkpt lat="49.02505" lon="2.07239">
        <ele>25.1</ele>
        <time>2012-09-03T14:20:13.137Z</time>
      </trkpt>
      <trkpt lat="49.02499" lon="2.07251">
        <ele>25.1</ele>
        <time>2012-09-03T14:20:15.576Z</time>
      </trkpt>
      <trkpt lat="49.02493" lon="2.07261">
        <ele>25.5</ele>
        <time>2012-09-03T14:20:18.064Z</time>
      </trkpt>
      <trkpt lat="49.02487" lon="2.07272">
        <ele>25.5</ele>
        <time>2012-09-03T14:20:20.754Z</time>
      </trkpt>
      <trkpt lat="49.02479" lon="2.07285">
        <ele>25.2</ele>
        <time>2012-09-03T14:20:24.108Z</time>
      </trkpt>
      <trkpt lat="49.0247" lon="2.07295">
        <ele>25.1</ele>
        <time>2012-09-03T14:20:27.431Z</time>
      </trkpt>
      <trkpt lat="49.02464" lon="2.07306">
        <ele>25.3</ele>
        <time>2012-09-03T14:20:30.124Z</time>
      </trkpt>
      <trkpt lat="49.02457" lon="2.07318">
        <ele>25.5</ele>
        <time>2012-09-03T14:20:33.180Z</time>
      </trkpt>
      <trkpt lat="49.02449" lon="2.07329">
        <ele>25.3</ele>
        <time>2012-09-03T14:20:36.471Z</time>
      </trkpt>
      <trkpt lat="49.02441" lon="2.07344">
        <ele>25.5</ele>
        <time>2012-09-03T14:20:40.152Z</time>
      </trkpt>
      <trkpt lat="49.02434" lon="2.07357">
        <ele>26.2</ele>
        <time>2012-09-03T14:20:43.569Z</time>
      </trkpt>
      <trkpt lat="49.02429" lon="2.0737">
        <ele>26.4</ele>
        <time>2012-09-03T14:20:46.306Z</time>
      </trkpt>
      <trkpt lat="49.02425" lon="2.07383">
        <ele>26.1</ele>
        <time>2012-09-03T14:20:49.018Z</time>
      </trkpt>
      <trkpt lat="49.0242" lon="2.07406">
        <ele>26</ele>
        <time>2012-09-03T14:20:53.306Z</time>
      </trkpt>
      <trkpt lat="49.02417" lon="2.07419">
        <ele>26</ele>
        <time>2012-09-03T14:20:55.794Z</time>
      </trkpt>
      <trkpt lat="49.02414" lon="2.07432">
        <ele>26</ele>
        <time>2012-09-03T14:20:58.269Z</time>
      </trkpt>
      <trkpt lat="49.02411" lon="2.07448">
        <ele>26</ele>
        <time>2012-09-03T14:21:01.230Z</time>
      </trkpt>
      <trkpt lat="49.02408" lon="2.07462">
        <ele>26</ele>
        <time>2012-09-03T14:21:03.965Z</time>
      </trkpt>
      <trkpt lat="49.02404" lon="2.07476">
        <ele>26</ele>
        <time>2012-09-03T14:21:06.938Z</time>
      </trkpt>
      <trkpt lat="49.02401" lon="2.0749">
        <ele>26</ele>
        <time>2012-09-03T14:21:09.735Z</time>
      </trkpt>
      <trkpt lat="49.02402" lon="2.07504">
        <ele>26</ele>
        <time>2012-09-03T14:21:13.858Z</time>
      </trkpt>
      <trkpt lat="49.02405" lon="2.0752">
        <ele>26</ele>
        <time>2012-09-03T14:21:19.085Z</time>
      </trkpt>
      <trkpt lat="49.02412" lon="2.07541">
        <ele>26</ele>
        <time>2012-09-03T14:21:29.002Z</time>
      </trkpt>
      <trkpt lat="49.02414" lon="2.07554">
        <ele>26</ele>
        <time>2012-09-03T14:21:33.126Z</time>
      </trkpt>
      <trkpt lat="49.02417" lon="2.07578">
        <ele>26</ele>
        <time>2012-09-03T14:21:38.577Z</time>
      </trkpt>
      <trkpt lat="49.02417" lon="2.07594">
        <ele>26</ele>
        <time>2012-09-03T14:21:41.964Z</time>
      </trkpt>
      <trkpt lat="49.02417" lon="2.07609">
        <ele>26</ele>
        <time>2012-09-03T14:21:45.054Z</time>
      </trkpt>
      <trkpt lat="49.02417" lon="2.07625">
        <ele>26</ele>
        <time>2012-09-03T14:21:47.788Z</time>
      </trkpt>
      <trkpt lat="49.02417" lon="2.07643">
        <ele>26.1</ele>
        <time>2012-09-03T14:21:50.794Z</time>
      </trkpt>
      <trkpt lat="49.02415" lon="2.0767">
        <ele>26.9</ele>
        <time>2012-09-03T14:21:55.502Z</time>
      </trkpt>
      <trkpt lat="49.02414" lon="2.07687">
        <ele>26.9</ele>
        <time>2012-09-03T14:21:58.873Z</time>
      </trkpt>
      <trkpt lat="49.02414" lon="2.07705">
        <ele>26.6</ele>
        <time>2012-09-03T14:22:02.767Z</time>
      </trkpt>
      <trkpt lat="49.02414" lon="2.0772">
        <ele>26.1</ele>
        <time>2012-09-03T14:22:06.223Z</time>
      </trkpt>
      <trkpt lat="49.02419" lon="2.07738">
        <ele>26.6</ele>
        <time>2012-09-03T14:22:10.276Z</time>
      </trkpt>
      <trkpt lat="49.02424" lon="2.07752">
        <ele>27</ele>
        <time>2012-09-03T14:22:13.587Z</time>
      </trkpt>
      <trkpt lat="49.02428" lon="2.07773">
        <ele>27</ele>
        <time>2012-09-03T14:22:18.116Z</time>
      </trkpt>
      <trkpt lat="49.02425" lon="2.07839">
        <ele>27.1</ele>
        <time>2012-09-03T14:22:30.974Z</time>
      </trkpt>
      <trkpt lat="49.02424" lon="2.07862">
        <ele>27.3</ele>
        <time>2012-09-03T14:22:35.162Z</time>
      </trkpt>
      <trkpt lat="49.02421" lon="2.07885">
        <ele>27.9</ele>
        <time>2012-09-03T14:22:39.019Z</time>
      </trkpt>
      <trkpt lat="49.02412" lon="2.07924">
        <ele>29.4</ele>
        <time>2012-09-03T14:22:44.924Z</time>
      </trkpt>
      <trkpt lat="49.02415" lon="2.07941">
        <ele>32.1</ele>
        <time>2012-09-03T14:22:47.512Z</time>
      </trkpt>
      <trkpt lat="49.02417" lon="2.07959">
        <ele>33</ele>
        <time>2012-09-03T14:22:50.437Z</time>
      </trkpt>
      <trkpt lat="49.02419" lon="2.07973">
        <ele>33.1</ele>
        <time>2012-09-03T14:22:52.691Z</time>
      </trkpt>
      <trkpt lat="49.0242" lon="2.07987">
        <ele>32.2</ele>
        <time>2012-09-03T14:22:54.957Z</time>
      </trkpt>
      <trkpt lat="49.02423" lon="2.08008">
        <ele>32</ele>
        <time>2012-09-03T14:22:58.693Z</time>
      </trkpt>
      <trkpt lat="49.0243" lon="2.08024">
        <ele>32.5</ele>
        <time>2012-09-03T14:23:01.853Z</time>
      </trkpt>
      <trkpt lat="49.02431" lon="2.08039">
        <ele>31.1</ele>
        <time>2012-09-03T14:23:04.381Z</time>
      </trkpt>
      <trkpt lat="49.02429" lon="2.08055">
        <ele>29.4</ele>
        <time>2012-09-03T14:23:07.319Z</time>
      </trkpt>
      <trkpt lat="49.02424" lon="2.08083">
        <ele>30.6</ele>
        <time>2012-09-03T14:23:12.778Z</time>
      </trkpt>
      <trkpt lat="49.02416" lon="2.0811">
        <ele>31</ele>
        <time>2012-09-03T14:23:19.103Z</time>
      </trkpt>
      <trkpt lat="49.02416" lon="2.0811">
        <ele>31</ele>
        <time>2012-09-03T14:23:20.095Z</time>
      </trkpt>
      <trkpt lat="49.02416" lon="2.0811">
        <ele>31</ele>
        <time>2012-09-03T14:23:20.195Z</time>
      </trkpt>
      <trkpt lat="49.02408" lon="2.08134">
        <ele>29.8</ele>
        <time>2012-09-03T14:23:26.106Z</time>
      </trkpt>
      <trkpt lat="49.02404" lon="2.08155">
        <ele>29</ele>
        <time>2012-09-03T14:23:28.965Z</time>
      </trkpt>
      <trkpt lat="49.02401" lon="2.08186">
        <ele>27.4</ele>
        <time>2012-09-03T14:23:33.376Z</time>
      </trkpt>
      <trkpt lat="49.02408" lon="2.08207">
        <ele>25.5</ele>
        <time>2012-09-03T14:23:37.275Z</time>
      </trkpt>
      <trkpt lat="49.02418" lon="2.08206">
        <ele>25</ele>
        <time>2012-09-03T14:23:39.890Z</time>
      </trkpt>
      <trkpt lat="49.02426" lon="2.08192">
        <ele>24.7</ele>
        <time>2012-09-03T14:23:42.766Z</time>
      </trkpt>
      <trkpt lat="49.02432" lon="2.08175">
        <ele>24.8</ele>
        <time>2012-09-03T14:23:45.525Z</time>
      </trkpt>
      <trkpt lat="49.02432" lon="2.08156">
        <ele>25.4</ele>
        <time>2012-09-03T14:23:48.874Z</time>
      </trkpt>
      <trkpt lat="49.02426" lon="2.08109">
        <ele>28.7</ele>
        <time>2012-09-03T14:23:57.083Z</time>
      </trkpt>
      <trkpt lat="49.02426" lon="2.08109">
        <ele>28.7</ele>
        <time>2012-09-03T14:24:02.091Z</time>
      </trkpt>
      <trkpt lat="49.02426" lon="2.08109">
        <ele>28.7</ele>
        <time>2012-09-03T14:24:02.191Z</time>
      </trkpt>
      <trkpt lat="49.02421" lon="2.08057">
        <ele>30.4</ele>
        <time>2012-09-03T14:24:09.919Z</time>
      </trkpt>
      <trkpt lat="49.02415" lon="2.0804">
        <ele>31.8</ele>
        <time>2012-09-03T14:24:12.017Z</time>
      </trkpt>
      <trkpt lat="49.0241" lon="2.08029">
        <ele>31.5</ele>
        <time>2012-09-03T14:24:13.565Z</time>
      </trkpt>
      <trkpt lat="49.02406" lon="2.08016">
        <ele>30.2</ele>
        <time>2012-09-03T14:24:15.094Z</time>
      </trkpt>
      <trkpt lat="49.02406" lon="2.08016">
        <ele>30.2</ele>
        <time>2012-09-03T14:24:20.091Z</time>
      </trkpt>
      <trkpt lat="49.02406" lon="2.08016">
        <ele>30.2</ele>
        <time>2012-09-03T14:24:20.191Z</time>
      </trkpt>
      <trkpt lat="49.02425" lon="2.07969">
        <ele>33.6</ele>
        <time>2012-09-03T14:24:40.114Z</time>
      </trkpt>
      <trkpt lat="49.02446" lon="2.07915">
        <ele>30.5</ele>
        <time>2012-09-03T14:24:52.862Z</time>
      </trkpt>
      <trkpt lat="49.02458" lon="2.07873">
        <ele>27.9</ele>
        <time>2012-09-03T14:25:00.714Z</time>
      </trkpt>
      <trkpt lat="49.02459" lon="2.07817">
        <ele>27.2</ele>
        <time>2012-09-03T14:25:09.640Z</time>
      </trkpt>
      <trkpt lat="49.02449" lon="2.07801">
        <ele>27</ele>
        <time>2012-09-03T14:25:12.092Z</time>
      </trkpt>
      <trkpt lat="49.02449" lon="2.07801">
        <ele>27</ele>
        <time>2012-09-03T14:25:13.088Z</time>
      </trkpt>
      <trkpt lat="49.02449" lon="2.07801">
        <ele>27</ele>
        <time>2012-09-03T14:25:13.865Z</time>
      </trkpt>
      <trkpt lat="49.02453" lon="2.07781">
        <ele>26.7</ele>
        <time>2012-09-03T14:25:21.604Z</time>
      </trkpt>
      <trkpt lat="49.02457" lon="2.07764">
        <ele>26.8</ele>
        <time>2012-09-03T14:25:25.030Z</time>
      </trkpt>
      <trkpt lat="49.02458" lon="2.07746">
        <ele>26.8</ele>
        <time>2012-09-03T14:25:27.871Z</time>
      </trkpt>
      <trkpt lat="49.0246" lon="2.07727">
        <ele>25.1</ele>
        <time>2012-09-03T14:25:30.851Z</time>
      </trkpt>
      <trkpt lat="49.02465" lon="2.07715">
        <ele>24.4</ele>
        <time>2012-09-03T14:25:32.870Z</time>
      </trkpt>
      <trkpt lat="49.0247" lon="2.07703">
        <ele>24.6</ele>
        <time>2012-09-03T14:25:34.865Z</time>
      </trkpt>
      <trkpt lat="49.02476" lon="2.07684">
        <ele>25.6</ele>
        <time>2012-09-03T14:25:37.644Z</time>
      </trkpt>
      <trkpt lat="49.0248" lon="2.0767">
        <ele>26</ele>
        <time>2012-09-03T14:25:39.677Z</time>
      </trkpt>
      <trkpt lat="49.02487" lon="2.07648">
        <ele>25.8</ele>
        <time>2012-09-03T14:25:42.782Z</time>
      </trkpt>
      <trkpt lat="49.02492" lon="2.07625">
        <ele>26.3</ele>
        <time>2012-09-03T14:25:45.785Z</time>
      </trkpt>
      <trkpt lat="49.02499" lon="2.07603">
        <ele>27</ele>
        <time>2012-09-03T14:25:48.772Z</time>
      </trkpt>
      <trkpt lat="49.02504" lon="2.0758">
        <ele>27</ele>
        <time>2012-09-03T14:25:51.699Z</time>
      </trkpt>
      <trkpt lat="49.02509" lon="2.07557">
        <ele>27</ele>
        <time>2012-09-03T14:25:54.528Z</time>
      </trkpt>
      <trkpt lat="49.02512" lon="2.07542">
        <ele>27</ele>
        <time>2012-09-03T14:25:56.426Z</time>
      </trkpt>
      <trkpt lat="49.02514" lon="2.07526">
        <ele>27</ele>
        <time>2012-09-03T14:25:58.341Z</time>
      </trkpt>
      <trkpt lat="49.02516" lon="2.07504">
        <ele>27</ele>
        <time>2012-09-03T14:26:00.847Z</time>
      </trkpt>
      <trkpt lat="49.02515" lon="2.0748">
        <ele>27.4</ele>
        <time>2012-09-03T14:26:03.655Z</time>
      </trkpt>
      <trkpt lat="49.02513" lon="2.07452">
        <ele>27.5</ele>
        <time>2012-09-03T14:26:06.852Z</time>
      </trkpt>
      <trkpt lat="49.02512" lon="2.07427">
        <ele>27.4</ele>
        <time>2012-09-03T14:26:09.664Z</time>
      </trkpt>
      <trkpt lat="49.02511" lon="2.07406">
        <ele>27</ele>
        <time>2012-09-03T14:26:12.091Z</time>
      </trkpt>
      <trkpt lat="49.02511" lon="2.07406">
        <ele>27</ele>
        <time>2012-09-03T14:26:15.093Z</time>
      </trkpt>
      <trkpt lat="49.02511" lon="2.07406">
        <ele>27</ele>
        <time>2012-09-03T14:26:21.091Z</time>
      </trkpt>
      <trkpt lat="49.02511" lon="2.07406">
        <ele>27</ele>
        <time>2012-09-03T14:26:34.094Z</time>
      </trkpt>
      <trkpt lat="49.02535" lon="2.07471">
        <ele>28</ele>
        <time>2012-09-03T14:26:41.090Z</time>
      </trkpt>
      <trkpt lat="49.02535" lon="2.07471">
        <ele>28</ele>
        <time>2012-09-03T14:26:44.093Z</time>
      </trkpt>
      <trkpt lat="49.02535" lon="2.07471">
        <ele>28</ele>
        <time>2012-09-03T14:26:44.193Z</time>
      </trkpt>
      <trkpt lat="49.02564" lon="2.07446">
        <ele>28</ele>
        <time>2012-09-03T14:27:22.813Z</time>
      </trkpt>
      <trkpt lat="49.02573" lon="2.07391">
        <ele>2.208</ele>
        <time>2012-09-03T14:27:34.904Z</time>
      </trkpt>
      <trkpt lat="49.02582" lon="2.0734">
        <ele>26.3</ele>
        <time>2012-09-03T14:27:42.764Z</time>
      </trkpt>
      <trkpt lat="49.02582" lon="2.07296">
        <ele>26</ele>
        <time>2012-09-03T14:27:50.671Z</time>
      </trkpt>
      <trkpt lat="49.02572" lon="2.07253">
        <ele>25.5</ele>
        <time>2012-09-03T14:27:59.090Z</time>
      </trkpt>
      <trkpt lat="49.02576" lon="2.07205">
        <ele>25</ele>
        <time>2012-09-03T14:28:18.091Z</time>
      </trkpt>
      <trkpt lat="49.02576" lon="2.07205">
        <ele>25</ele>
        <time>2012-09-03T14:28:21.093Z</time>
      </trkpt>
      <trkpt lat="49.02576" lon="2.07205">
        <ele>25</ele>
        <time>2012-09-03T14:28:21.193Z</time>
      </trkpt>
      <trkpt lat="49.02592" lon="2.07171">
        <ele>25</ele>
        <time>2012-09-03T14:28:35.855Z</time>
      </trkpt>
      <trkpt lat="49.02601" lon="2.07169">
        <ele>25</ele>
        <time>2012-09-03T14:28:38.115Z</time>
      </trkpt>
      <trkpt lat="49.02622" lon="2.07213">
        <ele>25.4</ele>
        <time>2012-09-03T14:28:47.090Z</time>
      </trkpt>
      <trkpt lat="49.02622" lon="2.07213">
        <ele>25.4</ele>
        <time>2012-09-03T14:28:58.087Z</time>
      </trkpt>
      <trkpt lat="49.02622" lon="2.07213">
        <ele>25.4</ele>
        <time>2012-09-03T14:28:58.187Z</time>
      </trkpt>
      <trkpt lat="49.02633" lon="2.07256">
        <ele>25.8</ele>
        <time>2012-09-03T14:29:12.549Z</time>
      </trkpt>
      <trkpt lat="49.02638" lon="2.07271">
        <ele>26</ele>
        <time>2012-09-03T14:29:15.118Z</time>
      </trkpt>
      <trkpt lat="49.02658" lon="2.073">
        <ele>26.7</ele>
        <time>2012-09-03T14:29:20.285Z</time>
      </trkpt>
      <trkpt lat="49.02671" lon="2.07313">
        <ele>27</ele>
        <time>2012-09-03T14:29:22.407Z</time>
      </trkpt>
      <trkpt lat="49.02678" lon="2.0733">
        <ele>27</ele>
        <time>2012-09-03T14:29:24.088Z</time>
      </trkpt>
      <trkpt lat="49.02678" lon="2.0733">
        <ele>27</ele>
        <time>2012-09-03T14:29:26.092Z</time>
      </trkpt>
      <trkpt lat="49.02678" lon="2.0733">
        <ele>27</ele>
        <time>2012-09-03T14:29:26.192Z</time>
      </trkpt>
      <trkpt lat="49.02685" lon="2.07365">
        <ele>27</ele>
        <time>2012-09-03T14:29:33.052Z</time>
      </trkpt>
      <trkpt lat="49.02687" lon="2.07382">
        <ele>27</ele>
        <time>2012-09-03T14:29:35.196Z</time>
      </trkpt>
      <trkpt lat="49.02686" lon="2.074">
        <ele>27</ele>
        <time>2012-09-03T14:29:37.524Z</time>
      </trkpt>
      <trkpt lat="49.02686" lon="2.07426">
        <ele>27</ele>
        <time>2012-09-03T14:29:40.401Z</time>
      </trkpt>
      <trkpt lat="49.02685" lon="2.07447">
        <ele>27.1</ele>
        <time>2012-09-03T14:29:42.602Z</time>
      </trkpt>
      <trkpt lat="49.02686" lon="2.07475">
        <ele>27.7</ele>
        <time>2012-09-03T14:29:45.277Z</time>
      </trkpt>
      <trkpt lat="49.02685" lon="2.07498">
        <ele>27.7</ele>
        <time>2012-09-03T14:29:47.465Z</time>
      </trkpt>
      <trkpt lat="49.02684" lon="2.07515">
        <ele>27.6</ele>
        <time>2012-09-03T14:29:49.123Z</time>
      </trkpt>
      <trkpt lat="49.02684" lon="2.07544">
        <ele>28.2</ele>
        <time>2012-09-03T14:29:51.851Z</time>
      </trkpt>
      <trkpt lat="49.02692" lon="2.07569">
        <ele>28.5</ele>
        <time>2012-09-03T14:29:54.349Z</time>
      </trkpt>
      <trkpt lat="49.02729" lon="2.07582">
        <ele>28.3</ele>
        <time>2012-09-03T14:29:59.745Z</time>
      </trkpt>
      <trkpt lat="49.02766" lon="2.076">
        <ele>29.9</ele>
        <time>2012-09-03T14:30:05.704Z</time>
      </trkpt>
      <trkpt lat="49.02775" lon="2.07613">
        <ele>30.8</ele>
        <time>2012-09-03T14:30:08.044Z</time>
      </trkpt>
      <trkpt lat="49.02783" lon="2.07627">
        <ele>31</ele>
        <time>2012-09-03T14:30:10.656Z</time>
      </trkpt>
      <trkpt lat="49.02787" lon="2.0764">
        <ele>31</ele>
        <time>2012-09-03T14:30:12.725Z</time>
      </trkpt>
      <trkpt lat="49.02785" lon="2.07655">
        <ele>31.2</ele>
        <time>2012-09-03T14:30:15.092Z</time>
      </trkpt>
      <trkpt lat="49.02785" lon="2.07655">
        <ele>31.2</ele>
        <time>2012-09-03T14:30:20.090Z</time>
      </trkpt>
      <trkpt lat="49.02785" lon="2.07655">
        <ele>31.2</ele>
        <time>2012-09-03T14:31:03.090Z</time>
      </trkpt>
      <trkpt lat="49.02785" lon="2.07655">
        <ele>31.2</ele>
        <time>2012-09-03T14:31:03.190Z</time>
      </trkpt>
      <trkpt lat="49.02756" lon="2.07659">
        <ele>30.2</ele>
        <time>2012-09-03T14:31:53.090Z</time>
      </trkpt>
    </trkseg>
  </trk>
</gpx>